Provisional Data: Susquehanna River near Danville, PA


Please select a monitoring station.
Please select start date.
Please select start date.

Toggle Unit: C/F Toggle Unit: C/F
Sample Time Temperature (C) Temperature (F) Specific Conductivity (mS/cm) pH   Turbidity (NTU+) DO (mg/L)
10/17/2022 12:00:00 AM 15.03 59.054 0.297 8.78 0.74 0
10/17/2022 12:15:00 AM 15.03 59.054 0.297 8.79 0.79 0
10/17/2022 12:30:00 AM 15.03 59.054 0.297 8.76 0.83 0
10/17/2022 12:45:00 AM 15.04 59.072 0.298 8.74 0.78 0
10/17/2022 1:00:00 AM 15.04 59.072 0.298 8.72 0.76 0
10/17/2022 1:15:00 AM 15.04 59.072 0.298 8.69 0.81 0
10/17/2022 1:30:00 AM 15.04 59.072 0.298 8.68 0.79 0
10/17/2022 1:45:00 AM 15.05 59.09 0.298 8.63 0.8 0
10/17/2022 2:00:00 AM 15.05 59.09 0.298 8.65 0.8 0
10/17/2022 2:15:00 AM 15.05 59.09 0.298 8.62 0.8 0
10/17/2022 2:30:00 AM 15.06 59.108 0.298 8.59 0.79 0
10/17/2022 2:45:00 AM 15.06 59.108 0.298 8.61 0.85 0
10/17/2022 3:00:00 AM 15.06 59.108 0.298 8.6 0.83 0
10/17/2022 3:15:00 AM 15.06 59.108 0.299 8.58 0.82 0
10/17/2022 3:30:00 AM 15.07 59.126 0.298 8.57 0.79 0
10/17/2022 3:45:00 AM 15.07 59.126 0.298 8.54 0.88 0
10/17/2022 4:00:00 AM 15.07 59.126 0.298 8.55 0.87 0
10/17/2022 4:15:00 AM 15.07 59.126 0.298 8.54 0.8 0
10/17/2022 4:30:00 AM 15.07 59.126 0.299 8.52 0.83 0
10/17/2022 4:45:00 AM 15.08 59.144 0.299 8.51 0.81 0
10/17/2022 5:00:00 AM 15.08 59.144 0.299 8.49 0.78 0
10/17/2022 5:15:00 AM 15.08 59.144 0.299 8.45 0.86 0
10/17/2022 5:30:00 AM 15.09 59.162 0.299 8.43 0.91 0
10/17/2022 5:45:00 AM 15.1 59.18 0.299 8.46 0.75 0
10/17/2022 6:00:00 AM 15.1 59.18 0.297 8.69 0.83 0
10/17/2022 6:15:00 AM 14.94 58.892 0.297 8.7 0.89 0
10/17/2022 6:30:00 AM 14.88 58.784 0.297 8.68 0.84 0
10/17/2022 6:45:00 AM 14.6 58.28 0.296 8.6 0.97 0
10/17/2022 7:00:00 AM 14.41 57.938 0.295 8.55 0.8 0
10/17/2022 7:15:00 AM 14.66 58.388 0.296 8.63 0.78 0
10/17/2022 7:30:00 AM 14.01 57.218 0.293 8.45 0.79 0
10/17/2022 7:45:00 AM 13.89 57.002 0.293 8.46 0.76 0
10/17/2022 8:00:00 AM 13.84 56.912 0.293 8.44 0.74 0
10/17/2022 8:15:00 AM 13.8 56.84 0.293 8.45 0.75 0
10/17/2022 8:30:00 AM 13.8 56.84 0.293 8.45 0.78 0
10/17/2022 8:45:00 AM 13.76 56.768 0.292 8.45 0.79 0
10/17/2022 9:00:00 AM 13.76 56.768 0.292 8.47 0.72 0
10/17/2022 9:15:00 AM 13.78 56.804 0.292 8.45 0.75 0
10/17/2022 9:30:00 AM 13.77 56.786 0.292 8.51 0.75 0
10/17/2022 9:45:00 AM 13.76 56.768 0.291 8.53 0.77 0
10/17/2022 10:00:00 AM 13.77 56.786 0.292 8.55 0.76 0
10/17/2022 10:15:00 AM 13.78 56.804 0.291 8.56 0.73 0
10/17/2022 10:30:00 AM 13.79 56.822 0.291 8.58 0.78 0
10/17/2022 10:45:00 AM 13.81 56.858 0.291 8.59 0.81 0
10/17/2022 11:00:00 AM 13.81 56.858 0.291 8.66 0.81 0
10/17/2022 11:15:00 AM 13.84 56.912 0.291 8.72 0.89 0
10/17/2022 11:30:00 AM 13.88 56.984 0.291 8.76 0.73 0
10/17/2022 11:45:00 AM 13.94 57.092 0.291 8.81 0.8 0
10/17/2022 12:00:00 PM 14.01 57.218 0.29 8.85 0.79 0
10/17/2022 12:15:00 PM 13.99 57.182 0.29 8.85 0.76 0
10/17/2022 12:30:00 PM 13.97 57.146 0.29 8.85 0.8 0
10/17/2022 12:45:00 PM 13.98 57.164 0.29 8.87 0.79 0
10/17/2022 1:00:00 PM 13.98 57.164 0.29 8.87 0.79 0
10/17/2022 1:15:00 PM 13.96 57.128 0.29 8.86 0.7 0
10/17/2022 1:30:00 PM 13.91 57.038 0.29 8.84 0.73 0
10/17/2022 1:45:00 PM 13.91 57.038 0.29 8.83 0.74 0
10/17/2022 2:00:00 PM 13.9 57.02 0.29 8.82 0.71 0
10/17/2022 2:15:00 PM 13.87 56.966 0.29 8.81 0.84 0
10/17/2022 2:30:00 PM 13.9 57.02 0.289 8.84 0.74 0
10/17/2022 2:45:00 PM 13.92 57.056 0.289 8.87 0.77 0
10/17/2022 3:00:00 PM 13.94 57.092 0.289 8.91 0.86 0
10/17/2022 3:15:00 PM 13.95 57.11 0.289 8.92 0.76 0
10/17/2022 3:30:00 PM 13.95 57.11 0.289 8.9 0.72 0
10/17/2022 3:45:00 PM 13.96 57.128 0.289 8.9 0.72 0
10/17/2022 4:00:00 PM 13.96 57.128 0.289 8.91 0.69 0
10/17/2022 4:15:00 PM 13.96 57.128 0.289 8.85 0.68 0
10/17/2022 4:30:00 PM 13.97 57.146 0.289 8.88 0.68 0
10/17/2022 4:45:00 PM 13.98 57.164 0.289 8.87 0.67 0
10/17/2022 5:00:00 PM 13.98 57.164 0.289 8.83 0.72 0
10/17/2022 5:15:00 PM 13.98 57.164 0.289 8.87 0.66 0
10/17/2022 5:30:00 PM 13.99 57.182 0.289 8.85 0.68 0
10/17/2022 5:45:00 PM 13.99 57.182 0.29 8.85 0.8 0
10/17/2022 6:00:00 PM 13.99 57.182 0.29 8.84 0.69 0
10/17/2022 6:15:00 PM 14 57.2 0.29 8.8 0.68 0
10/17/2022 6:30:00 PM 14 57.2 0.29 8.83 0.66 0
10/17/2022 6:45:00 PM 14 57.2 0.289 8.8 0.62 0
10/17/2022 7:00:00 PM 14 57.2 0.29 8.82 0.72 0
10/17/2022 7:15:00 PM 14.01 57.218 0.29 8.81 0.7 0
10/17/2022 7:30:00 PM 14.01 57.218 0.29 8.8 0.7 0
10/17/2022 7:45:00 PM 14.01 57.218 0.29 8.79 0.69 0
10/17/2022 8:00:00 PM 14.01 57.218 0.29 8.79 0.71 0
10/17/2022 8:15:00 PM 14.01 57.218 0.29 8.75 0.71 0
10/17/2022 8:30:00 PM 14.01 57.218 0.29 8.79 0.7 0
10/17/2022 8:45:00 PM 14.02 57.236 0.29 8.77 0.7 0
10/17/2022 9:00:00 PM 14.02 57.236 0.29 8.76 0.68 0
10/17/2022 9:15:00 PM 14.02 57.236 0.29 8.77 0.71 0
10/17/2022 9:30:00 PM 14.03 57.254 0.29 8.77 0.66 0
10/17/2022 9:45:00 PM 14.03 57.254 0.29 8.78 0.75 0
10/17/2022 10:00:00 PM 14.04 57.272 0.29 8.75 0.71 0
10/17/2022 10:15:00 PM 14.04 57.272 0.29 8.76 0.68 0
10/17/2022 10:30:00 PM 14.04 57.272 0.29 8.72 0.64 0
10/17/2022 10:45:00 PM 14.04 57.272 0.29 8.74 0.72 0
10/17/2022 11:00:00 PM 14.04 57.272 0.29 8.72 0.71 0
10/17/2022 11:15:00 PM 14.04 57.272 0.29 8.72 0.96 0
10/17/2022 11:30:00 PM 14.05 57.29 0.29 8.74 0.69 0
10/17/2022 11:45:00 PM 14.06 57.308 0.29 8.74 0.72 0
10/18/2022 12:00:00 AM 14.06 57.308 0.29 8.68 0.7 0
10/18/2022 12:15:00 AM 14.06 57.308 0.29 8.68 0.66 0
10/18/2022 12:30:00 AM 14.07 57.326 0.291 8.63 0.7 0
10/18/2022 12:45:00 AM 14.07 57.326 0.291 8.58 0.71 0
10/18/2022 1:00:00 AM 14.08 57.344 0.291 8.54 0.73 0
10/18/2022 1:15:00 AM 14.08 57.344 0.291 8.51 0.68 0
10/18/2022 1:30:00 AM 14.09 57.362 0.291 8.47 0.7 0
10/18/2022 1:45:00 AM 14.09 57.362 0.292 8.44 0.72 0
10/18/2022 2:00:00 AM 14.1 57.38 0.292 8.4 0.73 0
10/18/2022 2:15:00 AM 14.1 57.38 0.292 8.37 0.7 0
10/18/2022 2:30:00 AM 14.1 57.38 0.292 8.36 0.75 0
10/18/2022 2:45:00 AM 14.12 57.416 0.292 8.3 0.68 0
10/18/2022 3:00:00 AM 14.12 57.416 0.292 8.32 0.7 0
10/18/2022 3:15:00 AM 14.12 57.416 0.292 8.29 0.73 0
10/18/2022 3:30:00 AM 14.12 57.416 0.292 8.28 0.7 0
10/18/2022 3:45:00 AM 14.13 57.434 0.293 8.26 0.71 0
10/18/2022 4:00:00 AM 14.14 57.452 0.293 8.23 0.75 0
10/18/2022 4:15:00 AM 14.14 57.452 0.293 8.22 0.72 0
10/18/2022 4:30:00 AM 14.15 57.47 0.293 8.21 0.79 0
10/18/2022 4:45:00 AM 14.15 57.47 0.293 8.2 0.76 0
10/18/2022 5:00:00 AM 14.16 57.488 0.293 8.19 0.72 0
10/18/2022 5:15:00 AM 14.16 57.488 0.293 8.18 0.75 0
10/18/2022 5:30:00 AM 14.17 57.506 0.293 8.18 0.75 0
10/18/2022 5:45:00 AM 14.18 57.524 0.293 8.17 0.75 0
10/18/2022 6:00:00 AM 14.3 57.74 0.291 8.39 0.7 0
10/18/2022 6:15:00 AM 14.25 57.65 0.29 8.45 0.85 0
10/18/2022 6:30:00 AM 13.78 56.804 0.285 8.4 0.77 0
10/18/2022 6:45:00 AM 12.88 55.184 0.278 8.33 0.83 0
10/18/2022 7:00:00 AM 12.6 54.68 0.276 8.3 0.82 0
10/18/2022 7:15:00 AM 12.5 54.5 0.275 8.29 0.76 0
10/18/2022 7:30:00 AM 12.45 54.41 0.275 8.3 0.75 0
10/18/2022 7:45:00 AM 12.41 54.338 0.275 8.32 0.83 0
10/18/2022 8:00:00 AM 12.42 54.356 0.275 8.35 0.83 0
10/18/2022 8:15:00 AM 12.42 54.356 0.274 8.38 0.76 0
10/18/2022 8:30:00 AM 12.44 54.392 0.274 8.41 0.8 0
10/18/2022 8:45:00 AM 12.43 54.374 0.274 8.44 0.86 0
10/18/2022 9:00:00 AM 12.44 54.392 0.274 8.48 0.84 0
10/18/2022 9:15:00 AM 12.46 54.428 0.274 8.53 0.74 0
10/18/2022 9:30:00 AM 12.48 54.464 0.274 8.54 0.8 0
10/18/2022 9:45:00 AM 12.52 54.536 0.274 8.63 0.81 0
10/18/2022 10:00:00 AM 12.52 54.536 0.273 8.66 0.77 0
10/18/2022 10:15:00 AM 12.5 54.5 0.273 8.64 0.83 0
10/18/2022 10:30:00 AM 12.52 54.536 0.273 8.72 0.73 0
10/18/2022 10:45:00 AM 12.56 54.608 0.273 8.77 0.79 0
10/18/2022 11:00:00 AM 12.58 54.644 0.273 8.81 0.87 0
10/18/2022 11:15:00 AM 12.56 54.608 0.273 8.83 0.84 0
10/18/2022 11:30:00 AM 12.53 54.554 0.273 8.85 0.77 0
10/18/2022 11:45:00 AM 12.55 54.59 0.273 8.89 0.78 0
10/18/2022 12:00:00 PM 12.53 54.554 0.273 8.93 0.73 0
10/18/2022 12:15:00 PM 12.5 54.5 0.273 8.96 0.82 0
10/18/2022 12:30:00 PM 12.5 54.5 0.273 8.99 0.69 0
10/18/2022 12:45:00 PM 12.56 54.608 0.273 9.02 0.74 0
10/18/2022 1:00:00 PM 12.61 54.698 0.273 9.04 0.89 0
10/18/2022 1:15:00 PM 12.62 54.716 0.273 9.06 0.71 0
10/18/2022 1:30:00 PM 12.62 54.716 0.273 9.06 0.69 0
10/18/2022 1:45:00 PM 12.61 54.698 0.273 9.07 0.72 0
10/18/2022 2:00:00 PM 12.56 54.608 0.273 9.07 0.64 0
10/18/2022 2:15:00 PM 12.54 54.572 0.273 9.09 0.71 0
10/18/2022 2:30:00 PM 12.5 54.5 0.273 9.09 0.7 0
10/18/2022 2:45:00 PM 12.45 54.41 0.274 9.09 0.76 0
10/18/2022 3:00:00 PM 12.42 54.356 0.274 9.09 0.67 0
10/18/2022 3:15:00 PM 12.41 54.338 0.274 9.07 0.71 0
10/18/2022 3:30:00 PM 12.41 54.338 0.274 9.07 0.7 0
10/18/2022 3:45:00 PM 12.42 54.356 0.274 9.06 0.67 0
10/18/2022 4:00:00 PM 12.42 54.356 0.274 9.05 0.7 0
10/18/2022 4:15:00 PM 12.43 54.374 0.274 9.03 0.71 0
10/18/2022 4:30:00 PM 12.44 54.392 0.274 9.02 0.65 0
10/18/2022 4:45:00 PM 12.45 54.41 0.274 9.01 0.66 0
10/18/2022 5:00:00 PM 12.46 54.428 0.274 9.01 0.74 0
10/18/2022 5:15:00 PM 12.46 54.428 0.274 9.01 0.69 0
10/18/2022 5:30:00 PM 12.47 54.446 0.274 9.02 0.77 0
10/18/2022 5:45:00 PM 12.47 54.446 0.274 9.01 0.66 0
10/18/2022 6:00:00 PM 12.48 54.464 0.274 9.01 0.66 0
10/18/2022 6:15:00 PM 12.48 54.464 0.274 9.01 0.65 0
10/18/2022 6:30:00 PM 12.49 54.482 0.274 9.02 0.68 0
10/18/2022 6:45:00 PM 12.49 54.482 0.274 9.01 0.67 0
10/18/2022 7:00:00 PM 12.5 54.5 0.274 9 0.72 0
10/18/2022 7:15:00 PM 12.51 54.518 0.274 9 0.73 0
10/18/2022 7:30:00 PM 12.51 54.518 0.274 9 0.66 0
10/18/2022 7:45:00 PM 12.51 54.518 0.274 8.99 0.71 0
10/18/2022 8:00:00 PM 12.52 54.536 0.274 8.99 0.76 0
10/18/2022 8:15:00 PM 12.52 54.536 0.274 8.99 0.74 0
10/18/2022 8:30:00 PM 12.53 54.554 0.274 8.98 0.69 0
10/18/2022 8:45:00 PM 12.53 54.554 0.274 8.98 0.7 0
10/18/2022 9:00:00 PM 12.53 54.554 0.274 8.98 0.7 0
10/18/2022 9:15:00 PM 12.54 54.572 0.274 8.97 0.72 0
10/18/2022 9:30:00 PM 12.55 54.59 0.275 8.94 0.66 0
10/18/2022 9:45:00 PM 12.56 54.608 0.275 8.92 0.68 0
10/18/2022 10:00:00 PM 12.57 54.626 0.275 8.93 0.78 0
10/18/2022 10:15:00 PM 12.57 54.626 0.275 8.91 0.65 0
10/18/2022 10:30:00 PM 12.58 54.644 0.275 8.87 0.7 0
10/18/2022 10:45:00 PM 12.58 54.644 0.275 8.88 0.68 0
10/18/2022 11:00:00 PM 12.59 54.662 0.275 8.84 0.68 0
10/18/2022 11:15:00 PM 12.6 54.68 0.275 8.8 0.69 0
10/18/2022 11:30:00 PM 12.61 54.698 0.275 8.75 0.72 0
10/18/2022 11:45:00 PM 12.61 54.698 0.276 8.74 0.66 0
10/19/2022 12:00:00 AM 12.62 54.716 0.276 8.7 0.76 0
10/19/2022 12:15:00 AM 12.63 54.734 0.276 8.68 0.7 0
10/19/2022 12:30:00 AM 12.64 54.752 0.276 8.65 0.69 0
10/19/2022 12:45:00 AM 12.64 54.752 0.276 8.64 0.71 0
10/19/2022 1:00:00 AM 12.65 54.77 0.276 8.61 0.73 0
10/19/2022 1:15:00 AM 12.66 54.788 0.276 8.58 0.76 0
10/19/2022 1:30:00 AM 12.66 54.788 0.276 8.57 0.78 0
10/19/2022 1:45:00 AM 12.67 54.806 0.276 8.54 0.76 0
10/19/2022 2:00:00 AM 12.68 54.824 0.276 8.54 0.73 0
10/19/2022 2:15:00 AM 12.69 54.842 0.276 8.54 0.71 0
10/19/2022 2:30:00 AM 12.7 54.86 0.276 8.51 0.76 0
10/19/2022 2:45:00 AM 12.7 54.86 0.276 8.51 0.8 0
10/19/2022 3:00:00 AM 12.71 54.878 0.277 8.49 0.73 0
10/19/2022 3:15:00 AM 12.72 54.896 0.277 8.48 0.76 0
10/19/2022 3:30:00 AM 12.72 54.896 0.277 8.46 0.77 0
10/19/2022 3:45:00 AM 12.73 54.914 0.277 8.44 0.71 0
10/19/2022 4:00:00 AM 12.74 54.932 0.277 8.42 0.75 0
10/19/2022 4:15:00 AM 12.75 54.95 0.277 8.42 0.73 0
10/19/2022 4:30:00 AM 12.76 54.968 0.277 8.4 0.76 0
10/19/2022 4:45:00 AM 12.76 54.968 0.277 8.39 0.76 0
10/19/2022 5:00:00 AM 12.77 54.986 0.277 8.37 0.74 0
10/19/2022 5:15:00 AM 12.78 55.004 0.278 8.37 0.79 0
10/19/2022 5:30:00 AM 12.79 55.022 0.277 8.33 0.77 0
10/19/2022 5:45:00 AM 12.8 55.04 0.278 8.34 0.74 0
10/19/2022 6:00:00 AM 12.98 55.364 0.276 8.49 0.75 0
10/19/2022 6:15:00 AM 12.41 54.338 0.279 8.46 0.74 0
10/19/2022 6:30:00 AM 11.64 52.952 0.281 8.4 0.67 0
10/19/2022 6:45:00 AM 11.46 52.628 0.282 8.34 0.9 0
10/19/2022 7:00:00 AM 11.31 52.358 0.282 8.36 0.74 0
10/19/2022 7:15:00 AM 11.25 52.25 0.282 8.35 0.72 0
10/19/2022 7:30:00 AM 11.22 52.196 0.282 8.36 0.74 0
10/19/2022 7:45:00 AM 11.19 52.142 0.282 8.33 0.7 0
10/19/2022 8:00:00 AM 11.19 52.142 0.282 8.38 0.76 0
10/19/2022 8:15:00 AM 11.2 52.16 0.282 8.45 0.77 0
10/19/2022 8:30:00 AM 11.21 52.178 0.282 8.48 0.83 0
10/19/2022 8:45:00 AM 11.21 52.178 0.282 8.5 0.76 0
10/19/2022 9:00:00 AM 11.24 52.232 0.282 8.53 0.73 0
10/19/2022 9:15:00 AM 11.25 52.25 0.282 8.57 0.75 0
10/19/2022 9:30:00 AM 11.26 52.268 0.282 8.62 0.72 0
10/19/2022 9:45:00 AM 11.27 52.286 0.282 8.64 0.82 0
10/19/2022 10:00:00 AM 11.29 52.322 0.282 8.68 0.76 0
10/19/2022 10:15:00 AM 11.31 52.358 0.282 8.71 0.74 0
10/19/2022 10:30:00 AM 11.33 52.394 0.282 8.73 0.7 0
10/19/2022 10:45:00 AM 11.32 52.376 0.283 8.74 0.75 0
10/19/2022 11:00:00 AM 11.33 52.394 0.283 8.75 0.73 0
10/19/2022 11:15:00 AM 11.33 52.394 0.283 8.78 0.99 0
10/19/2022 11:30:00 AM 11.33 52.394 0.283 8.8 0.7 0
10/19/2022 11:45:00 AM 11.35 52.43 0.283 8.86 0.73 0
10/19/2022 12:00:00 PM 11.4 52.52 0.283 8.89 0.67 0
10/19/2022 12:15:00 PM 11.41 52.538 0.283 8.93 0.75 0
10/19/2022 12:30:00 PM 11.39 52.502 0.283 8.94 0.71 0
10/19/2022 12:45:00 PM 11.37 52.466 0.283 8.96 0.75 0
10/19/2022 1:00:00 PM 11.35 52.43 0.283 8.98 0.76 0
10/19/2022 1:15:00 PM 11.34 52.412 0.284 9 0.75 0
10/19/2022 1:30:00 PM 11.31 52.358 0.284 9.01 0.72 0
10/19/2022 1:45:00 PM 11.29 52.322 0.284 9.01 0.73 0
10/19/2022 2:00:00 PM 11.23 52.214 0.284 8.98 0.7 0
10/19/2022 2:15:00 PM 11.23 52.214 0.284 8.99 0.72 0
10/19/2022 2:30:00 PM 11.23 52.214 0.284 8.99 0.67 0
10/19/2022 2:45:00 PM 11.24 52.232 0.284 8.98 0.74 0
10/19/2022 3:00:00 PM 11.25 52.25 0.284 8.97 0.68 0
10/19/2022 3:15:00 PM 11.26 52.268 0.284 8.93 0.72 0
10/19/2022 3:30:00 PM 11.27 52.286 0.284 8.95 0.68 0
10/19/2022 3:45:00 PM 11.28 52.304 0.284 8.95 0.67 0
10/19/2022 4:00:00 PM 11.29 52.322 0.284 8.95 0.67 0
10/19/2022 4:15:00 PM 11.3 52.34 0.284 8.96 0.66 0
10/19/2022 4:30:00 PM 11.3 52.34 0.284 8.95 0.68 0
10/19/2022 4:45:00 PM 11.31 52.358 0.284 8.95 0.71 0
10/19/2022 5:00:00 PM 11.32 52.376 0.284 8.95 0.66 0
10/19/2022 5:15:00 PM 11.32 52.376 0.284 8.94 0.71 0
10/19/2022 5:30:00 PM 11.33 52.394 0.284 8.94 0.69 0
10/19/2022 5:45:00 PM 11.34 52.412 0.284 8.94 0.7 0
10/19/2022 6:00:00 PM 11.34 52.412 0.284 8.91 0.67 0
10/19/2022 6:15:00 PM 11.35 52.43 0.284 8.93 0.69 0
10/19/2022 6:30:00 PM 11.35 52.43 0.284 8.93 0.71 0
10/19/2022 6:45:00 PM 11.36 52.448 0.284 8.94 0.66 0
10/19/2022 7:00:00 PM 11.36 52.448 0.284 8.93 0.66 0
10/19/2022 7:15:00 PM 11.37 52.466 0.284 8.89 0.69 0
10/19/2022 7:30:00 PM 11.38 52.484 0.284 8.91 0.7 0
10/19/2022 7:45:00 PM 11.38 52.484 0.285 8.9 0.7 0
10/19/2022 8:00:00 PM 11.39 52.502 0.285 8.87 0.74 0
10/19/2022 8:15:00 PM 11.4 52.52 0.285 8.84 0.7 0
10/19/2022 8:30:00 PM 11.41 52.538 0.285 8.87 0.73 0
10/19/2022 8:45:00 PM 11.41 52.538 0.285 8.83 0.73 0
10/19/2022 9:00:00 PM 11.42 52.556 0.285 8.78 0.71 0
10/19/2022 9:15:00 PM 11.43 52.574 0.285 8.7 0.73 0
10/19/2022 9:30:00 PM 11.44 52.592 0.286 8.72 0.72 0
10/19/2022 9:45:00 PM 11.45 52.61 0.285 8.68 0.67 0
10/19/2022 10:00:00 PM 11.45 52.61 0.286 8.69 0.74 0
10/19/2022 10:15:00 PM 11.46 52.628 0.286 8.64 0.73 0
10/19/2022 10:30:00 PM 11.47 52.646 0.286 8.65 0.67 0
10/19/2022 10:45:00 PM 11.48 52.664 0.286 8.63 0.71 0
10/19/2022 11:00:00 PM 11.49 52.682 0.286 8.6 0.71 0
10/19/2022 11:15:00 PM 11.5 52.7 0.286 8.57 0.79 0
10/19/2022 11:30:00 PM 11.51 52.718 0.286 8.56 0.79 0
10/19/2022 11:45:00 PM 11.51 52.718 0.286 8.54 0.73 0
10/20/2022 12:00:00 AM 11.52 52.736 0.287 8.52 0.7 0
10/20/2022 12:15:00 AM 11.53 52.754 0.286 8.49 0.75 0
10/20/2022 12:30:00 AM 11.54 52.772 0.286 8.46 0.69 0
10/20/2022 12:45:00 AM 11.55 52.79 0.287 8.46 0.69 0
10/20/2022 1:00:00 AM 11.56 52.808 0.286 8.45 0.76 0
10/20/2022 1:15:00 AM 11.57 52.826 0.287 8.42 0.81 0
10/20/2022 1:30:00 AM 11.58 52.844 0.287 8.45 0.72 0
10/20/2022 1:45:00 AM 11.58 52.844 0.287 8.44 0.73 0
10/20/2022 2:00:00 AM 11.6 52.88 0.287 8.44 0.72 0
10/20/2022 2:15:00 AM 11.6 52.88 0.287 8.42 0.73 0
10/20/2022 2:30:00 AM 11.61 52.898 0.287 8.4 0.7 0
10/20/2022 2:45:00 AM 11.62 52.916 0.287 8.38 0.75 0
10/20/2022 3:00:00 AM 11.63 52.934 0.287 8.38 0.77 0
10/20/2022 3:15:00 AM 11.64 52.952 0.287 8.35 0.73 0
10/20/2022 3:30:00 AM 11.64 52.952 0.287 8.38 0.71 0
10/20/2022 3:45:00 AM 11.66 52.988 0.287 8.37 0.71 0
10/20/2022 4:00:00 AM 11.66 52.988 0.287 8.31 0.75 0
10/20/2022 4:15:00 AM 11.67 53.006 0.287 8.35 0.69 0
10/20/2022 4:30:00 AM 11.69 53.042 0.287 8.35 0.8 0
10/20/2022 4:45:00 AM 11.69 53.042 0.287 8.37 0.77 0
10/20/2022 5:00:00 AM 11.7 53.06 0.287 8.32 0.75 0
10/20/2022 5:15:00 AM 11.71 53.078 0.287 8.28 0.74 0
10/20/2022 5:30:00 AM 11.72 53.096 0.287 8.31 0.78 0
10/20/2022 5:45:00 AM 11.89 53.402 0.287 8.34 0.89 0
10/20/2022 6:00:00 AM 12.01 53.618 0.287 8.39 0.78 0
10/20/2022 6:15:00 AM 11.99 53.582 0.286 8.49 0.83 0
10/20/2022 6:30:00 AM 10.64 51.152 0.291 8.39 0.75 0
10/20/2022 6:45:00 AM 10.31 50.558 0.292 8.38 0.83 0
10/20/2022 7:00:00 AM 10.17 50.306 0.292 8.39 0.76 0
10/20/2022 7:15:00 AM 10.12 50.216 0.293 8.37 0.82 0
10/20/2022 7:30:00 AM 10.11 50.198 0.293 8.42 0.79 0
10/20/2022 7:45:00 AM 10.11 50.198 0.293 8.43 0.77 0
10/20/2022 8:00:00 AM 10.11 50.198 0.293 8.45 0.76 0
10/20/2022 8:15:00 AM 10.11 50.198 0.293 8.48 0.69 0
10/20/2022 8:30:00 AM 10.13 50.234 0.293 8.49 0.72 0
10/20/2022 8:45:00 AM 10.15 50.27 0.293 8.56 0.71 0
10/20/2022 9:00:00 AM 10.19 50.342 0.293 8.6 0.77 0
10/20/2022 9:15:00 AM 10.23 50.414 0.293 8.64 0.74 0
10/20/2022 9:30:00 AM 10.26 50.468 0.293 8.67 0.76 0
10/20/2022 9:45:00 AM 10.28 50.504 0.293 8.66 0.78 0
10/20/2022 10:00:00 AM 10.31 50.558 0.293 8.71 0.78 0
10/20/2022 10:15:00 AM 10.36 50.648 0.293 8.75 0.76 0
10/20/2022 10:30:00 AM 10.39 50.702 0.293 8.78 0.79 0
10/20/2022 10:45:00 AM 10.44 50.792 0.293 8.81 0.87 0
10/20/2022 11:00:00 AM 10.49 50.882 0.294 8.85 0.74 0
10/20/2022 11:15:00 AM 10.53 50.954 0.293 8.88 0.73 0
10/20/2022 11:30:00 AM 10.59 51.062 0.293 8.91 0.8 0
10/20/2022 11:45:00 AM 10.63 51.134 0.294 8.94 0.77 0
10/20/2022 12:00:00 PM 10.68 51.224 0.294 8.97 0.74 0
10/20/2022 12:15:00 PM 10.73 51.314 0.294 9.01 0.84 0
10/20/2022 12:30:00 PM 10.79 51.422 0.294 9.04 0.75 0
10/20/2022 12:45:00 PM 10.84 51.512 0.294 9.07 0.75 0
10/20/2022 1:00:00 PM 10.89 51.602 0.294 9.1 0.74 0
10/20/2022 1:15:00 PM 10.93 51.674 0.294 9.12 0.75 0
10/20/2022 1:30:00 PM 10.97 51.746 0.294 9.14 0.71 0
10/20/2022 1:45:00 PM 11 51.8 0.294 9.12 0.77 0
10/20/2022 2:00:00 PM 11.02 51.836 0.294 9.17 0.72 0
10/20/2022 2:15:00 PM 11.03 51.854 0.294 9.16 0.79 0
10/20/2022 2:30:00 PM 11.03 51.854 0.294 9.16 0.69 0
10/20/2022 2:45:00 PM 11.04 51.872 0.294 9.16 0.68 0
10/20/2022 3:00:00 PM 11.04 51.872 0.294 9.15 0.72 0
10/20/2022 3:15:00 PM 11.05 51.89 0.294 9.14 0.72 0
10/20/2022 3:30:00 PM 11.05 51.89 0.294 9.14 0.75 0
10/20/2022 3:45:00 PM 11.05 51.89 0.294 9.13 0.77 0
10/20/2022 4:00:00 PM 11.05 51.89 0.294 9.12 0.71 0
10/20/2022 4:15:00 PM 11.06 51.908 0.294 9.12 0.71 0
10/20/2022 4:30:00 PM 11.06 51.908 0.294 9.11 0.7 0
10/20/2022 4:45:00 PM 11.06 51.908 0.294 9.08 0.69 0
10/20/2022 5:00:00 PM 11.07 51.926 0.294 9.09 0.72 0
10/20/2022 5:15:00 PM 11.08 51.944 0.294 9.09 0.7 0
10/20/2022 5:30:00 PM 11.08 51.944 0.294 9.1 0.72 0
10/20/2022 5:45:00 PM 11.08 51.944 0.294 9.08 0.7 0
10/20/2022 6:00:00 PM 11.08 51.944 0.294 9.07 0.69 0
10/20/2022 6:15:00 PM 11.09 51.962 0.294 9.07 0.72 0
10/20/2022 6:30:00 PM 11.09 51.962 0.294 9.08 0.66 0
10/20/2022 6:45:00 PM 11.09 51.962 0.294 9.04 0.71 0
10/20/2022 7:00:00 PM 11.1 51.98 0.295 9.07 0.72 0
10/20/2022 7:15:00 PM 11.1 51.98 0.294 9.05 0.7 0
10/20/2022 7:30:00 PM 11.11 51.998 0.294 9.07 0.77 0
10/20/2022 7:45:00 PM 11.11 51.998 0.295 9.06 0.82 0
10/20/2022 8:00:00 PM 11.11 51.998 0.294 9.03 0.77 0
10/20/2022 8:15:00 PM 11.11 51.998 0.294 9.06 0.71 0
10/20/2022 8:30:00 PM 11.12 52.016 0.295 9.05 0.86 0
10/20/2022 8:45:00 PM 11.12 52.016 0.295 9.06 0.74 0
10/20/2022 9:00:00 PM 11.14 52.052 0.295 9.05 0.69 0
10/20/2022 9:15:00 PM 11.13 52.034 0.295 9.05 0.71 0
10/20/2022 9:30:00 PM 11.13 52.034 0.295 9.04 0.7 0
10/20/2022 9:45:00 PM 11.15 52.07 0.295 9.01 0.69 0
10/20/2022 10:00:00 PM 11.15 52.07 0.295 9.04 0.69 0
10/20/2022 10:15:00 PM 11.15 52.07 0.295 9.03 0.72 0
10/20/2022 10:30:00 PM 11.16 52.088 0.295 9.02 0.74 0
10/20/2022 10:45:00 PM 11.17 52.106 0.295 8.98 0.72 0
10/20/2022 11:00:00 PM 11.17 52.106 0.295 8.98 0.7 0
10/20/2022 11:15:00 PM 11.17 52.106 0.295 8.95 0.75 0
10/20/2022 11:30:00 PM 11.18 52.124 0.295 8.93 0.75 0
10/20/2022 11:45:00 PM 11.19 52.142 0.295 8.93 0.76 0
10/21/2022 12:00:00 AM 11.2 52.16 0.295 8.9 0.74 0
10/21/2022 12:15:00 AM 11.21 52.178 0.296 8.85 0.78 0
10/21/2022 12:30:00 AM 11.22 52.196 0.296 8.86 0.73 0
10/21/2022 12:45:00 AM 11.22 52.196 0.296 8.8 0.78 0
10/21/2022 1:00:00 AM 11.22 52.196 0.296 8.77 0.78 0
10/21/2022 1:15:00 AM 11.23 52.214 0.296 8.78 0.81 0
10/21/2022 1:30:00 AM 11.24 52.232 0.296 8.76 0.79 0
10/21/2022 1:45:00 AM 11.25 52.25 0.296 8.7 0.79 0
10/21/2022 2:00:00 AM 11.26 52.268 0.296 8.74 0.76 0
10/21/2022 2:15:00 AM 11.27 52.286 0.296 8.7 0.8 0
10/21/2022 2:30:00 AM 11.27 52.286 0.296 8.67 0.83 0
10/21/2022 2:45:00 AM 11.28 52.304 0.296 8.68 0.74 0
10/21/2022 3:00:00 AM 11.29 52.322 0.296 8.67 0.76 0
10/21/2022 3:15:00 AM 11.3 52.34 0.297 8.65 0.72 0
10/21/2022 3:30:00 AM 11.3 52.34 0.297 8.59 0.81 0
10/21/2022 3:45:00 AM 11.31 52.358 0.297 8.63 0.75 0
10/21/2022 4:00:00 AM 11.32 52.376 0.297 8.63 0.86 0
10/21/2022 4:15:00 AM 11.33 52.394 0.297 8.61 0.78 0
10/21/2022 4:30:00 AM 11.33 52.394 0.297 8.59 0.96 0
10/21/2022 4:45:00 AM 11.35 52.43 0.297 8.54 0.77 0
10/21/2022 5:00:00 AM 11.36 52.448 0.297 8.57 0.78 0
10/21/2022 5:15:00 AM 11.36 52.448 0.297 8.56 0.83 0
10/21/2022 5:30:00 AM 11.37 52.466 0.297 8.54 0.75 0
10/21/2022 5:45:00 AM 11.43 52.574 0.297 8.57 0.75 0
10/21/2022 6:00:00 AM 11.2 52.16 0.301 8.68 0.98 0
10/21/2022 6:15:00 AM 10.42 50.756 0.305 8.54 0.97 0
10/21/2022 6:30:00 AM 10.25 50.45 0.306 8.5 0.82 0
10/21/2022 6:45:00 AM 10.19 50.342 0.306 8.48 0.78 0
10/21/2022 7:00:00 AM 10.15 50.27 0.306 8.49 0.77 0
10/21/2022 7:15:00 AM 10.12 50.216 0.306 8.5 0.81 0
10/21/2022 7:30:00 AM 10.08 50.144 0.306 8.5 0.76 0
10/21/2022 7:45:00 AM 10.07 50.126 0.306 8.52 0.79 0
10/21/2022 8:00:00 AM 10.06 50.108 0.306 8.54 0.88 0
10/21/2022 8:15:00 AM 10.08 50.144 0.306 8.57 0.86 0
10/21/2022 8:30:00 AM 10.08 50.144 0.307 8.59 0.75 0
10/21/2022 8:45:00 AM 10.13 50.234 0.307 8.61 0.79 0
10/21/2022 9:00:00 AM 10.22 50.396 0.307 8.65 0.84 0
10/21/2022 9:15:00 AM 10.23 50.414 0.307 8.67 0.94 0
10/21/2022 9:30:00 AM 10.28 50.504 0.307 8.71 0.8 0
10/21/2022 9:45:00 AM 10.34 50.612 0.307 8.75 0.75 0
10/21/2022 10:00:00 AM 10.4 50.72 0.307 8.79 0.79 0
10/21/2022 10:15:00 AM 10.47 50.846 0.307 8.81 0.81 0
10/21/2022 10:30:00 AM 10.56 51.008 0.307 8.85 0.82 0
10/21/2022 10:45:00 AM 10.64 51.152 0.307 8.86 0.78 0
10/21/2022 11:00:00 AM 10.73 51.314 0.307 8.9 0.78 0
10/21/2022 11:15:00 AM 10.83 51.494 0.307 8.94 0.81 0
10/21/2022 11:30:00 AM 10.92 51.656 0.307 8.93 1.42 0
10/21/2022 11:45:00 AM 11.02 51.836 0.307 8.98 0.98 0
10/21/2022 12:00:00 PM 11.1 51.98 0.308 9.03 3.04 0
10/21/2022 12:15:00 PM 11.17 52.106 0.307 9.01 0.96 0
10/21/2022 12:30:00 PM 11.26 52.268 0.308 9.07 2.31 0
10/21/2022 12:45:00 PM 11.33 52.394 0.308 9.1 1.65 0
10/21/2022 1:00:00 PM 11.39 52.502 0.308 9.1 0.84 0
10/21/2022 1:15:00 PM 11.46 52.628 0.307 9.14 0.79 0
10/21/2022 1:30:00 PM 11.53 52.754 0.307 9.17 0.84 0
10/21/2022 1:45:00 PM 11.6 52.88 0.307 9.18 0.87 0
10/21/2022 2:00:00 PM 11.66 52.988 0.307 9.21 0.85 0
10/21/2022 2:15:00 PM 11.69 53.042 0.307 9.22 0.88 0
10/21/2022 2:30:00 PM 11.69 53.042 0.307 9.19 0.82 0
10/21/2022 2:45:00 PM 11.7 53.06 0.308 9.19 0.78 0
10/21/2022 3:00:00 PM 11.7 53.06 0.308 9.2 0.82 0
10/21/2022 3:15:00 PM 11.71 53.078 0.308 9.19 0.91 0
10/21/2022 3:30:00 PM 11.7 53.06 0.308 9.19 0.93 0
10/21/2022 3:45:00 PM 11.71 53.078 0.308 9.18 0.77 0
10/21/2022 4:00:00 PM 11.71 53.078 0.308 9.19 0.74 0
10/21/2022 4:15:00 PM 11.71 53.078 0.308 9.17 0.75 0
10/21/2022 4:30:00 PM 11.71 53.078 0.308 9.17 0.8 0
10/21/2022 4:45:00 PM 11.7 53.06 0.308 9.19 1.11 0
10/21/2022 5:00:00 PM 11.7 53.06 0.308 9.19 0.76 0
10/21/2022 5:15:00 PM 11.7 53.06 0.308 9.19 0.72 0
10/21/2022 5:30:00 PM 11.71 53.078 0.308 9.17 2.32 0
10/21/2022 5:45:00 PM 11.71 53.078 0.308 9.16 0.98 0
10/21/2022 6:00:00 PM 11.71 53.078 0.308 9.15 1.98 0
10/21/2022 6:15:00 PM 11.71 53.078 0.308 9.14 20.01 0
10/21/2022 6:30:00 PM 11.71 53.078 0.308 9.12 1.62 0
10/21/2022 6:45:00 PM 11.72 53.096 0.308 9.12 1.22 0
10/21/2022 7:00:00 PM 11.71 53.078 0.308 9.15 0.93 0
10/21/2022 7:15:00 PM 11.71 53.078 0.308 9.16 0.9 0
10/21/2022 7:30:00 PM 11.71 53.078 0.308 9.14 0.78 0
10/21/2022 7:45:00 PM 11.71 53.078 0.308 9.16 0.75 0
10/21/2022 8:00:00 PM 11.7 53.06 0.308 9.13 1.13 0
10/21/2022 8:15:00 PM 11.7 53.06 0.308 9.14 0.85 0
10/21/2022 8:30:00 PM 11.71 53.078 0.308 9.14 0.74 0
10/21/2022 8:45:00 PM 11.71 53.078 0.308 9.14 0.82 0
10/21/2022 9:00:00 PM 11.71 53.078 0.308 9.12 0.77 0
10/21/2022 9:15:00 PM 11.7 53.06 0.308 9.12 0.81 0
10/21/2022 9:30:00 PM 11.71 53.078 0.308 9.12 0.77 0
10/21/2022 9:45:00 PM 11.71 53.078 0.308 9.12 0.76 0
10/21/2022 10:00:00 PM 11.72 53.096 0.308 9.12 4.34 0
10/21/2022 10:15:00 PM 11.72 53.096 0.308 9.11 0.78 0
10/21/2022 10:30:00 PM 11.72 53.096 0.308 9.12 0.82 0
10/21/2022 10:45:00 PM 11.73 53.114 0.308 9.07 0.82 0
10/21/2022 11:00:00 PM 11.73 53.114 0.309 9.05 0.81 0
10/21/2022 11:15:00 PM 11.73 53.114 0.309 9.02 0.82 0
10/21/2022 11:30:00 PM 11.74 53.132 0.309 9 0.86 0
10/21/2022 11:45:00 PM 11.74 53.132 0.309 8.96 0.85 0
10/22/2022 12:00:00 AM 11.75 53.15 0.309 8.93 0.86 0
10/22/2022 12:15:00 AM 11.75 53.15 0.31 8.91 0.84 0
10/22/2022 12:30:00 AM 11.76 53.168 0.31 8.88 0.88 0
10/22/2022 12:45:00 AM 11.76 53.168 0.31 8.86 0.86 0
10/22/2022 1:00:00 AM 11.77 53.186 0.31 8.83 0.87 0
10/22/2022 1:15:00 AM 11.77 53.186 0.31 8.82 0.89 0
10/22/2022 1:30:00 AM 11.78 53.204 0.31 8.81 0.9 0
10/22/2022 1:45:00 AM 11.78 53.204 0.31 8.78 0.85 0
10/22/2022 2:00:00 AM 11.79 53.222 0.31 8.78 0.85 0
10/22/2022 2:15:00 AM 11.79 53.222 0.31 8.78 0.91 0
10/22/2022 2:30:00 AM 11.8 53.24 0.31 8.77 0.92 0
10/22/2022 2:45:00 AM 11.8 53.24 0.31 8.78 0.88 0
10/22/2022 3:00:00 AM 11.81 53.258 0.31 8.75 0.9 0
10/22/2022 3:15:00 AM 11.82 53.276 0.31 8.74 0.95 0
10/22/2022 3:30:00 AM 11.82 53.276 0.311 8.73 0.89 0
10/22/2022 3:45:00 AM 11.82 53.276 0.311 8.7 0.9 0
10/22/2022 4:00:00 AM 11.83 53.294 0.311 8.69 0.92 0
10/22/2022 4:15:00 AM 11.84 53.312 0.311 8.67 0.86 0
10/22/2022 4:30:00 AM 11.84 53.312 0.311 8.64 0.87 0
10/22/2022 4:45:00 AM 11.85 53.33 0.311 8.64 0.89 0
10/22/2022 5:00:00 AM 11.99 53.582 0.31 8.9 0.86 0
10/22/2022 5:15:00 AM 11 51.8 0.316 8.54 0.89 0
10/22/2022 5:30:00 AM 10.82 51.476 0.317 8.5 0.89 0
10/22/2022 5:45:00 AM 10.74 51.332 0.317 8.48 0.83 0
10/22/2022 6:00:00 AM 10.69 51.242 0.318 8.44 0.89 0
10/22/2022 6:15:00 AM 10.64 51.152 0.318 8.46 0.87 0
10/22/2022 6:30:00 AM 10.6 51.08 0.318 8.46 0.9 0
10/22/2022 6:45:00 AM 10.55 50.99 0.318 8.46 0.92 0
10/22/2022 7:00:00 AM 10.49 50.882 0.318 8.45 0.88 0
10/22/2022 7:15:00 AM 10.44 50.792 0.318 8.46 0.87 0
10/22/2022 7:30:00 AM 10.4 50.72 0.318 8.45 0.88 0
10/22/2022 7:45:00 AM 10.37 50.666 0.318 8.48 0.88 0
10/22/2022 8:00:00 AM 10.35 50.63 0.318 8.51 0.88 0
10/22/2022 8:15:00 AM 10.34 50.612 0.319 8.52 0.9 0
10/22/2022 8:30:00 AM 10.33 50.594 0.319 8.55 0.86 0
10/22/2022 8:45:00 AM 10.34 50.612 0.319 8.57 0.91 0
10/22/2022 9:00:00 AM 10.35 50.63 0.319 8.6 0.86 0
10/22/2022 9:15:00 AM 10.38 50.684 0.319 8.61 0.87 0
10/22/2022 9:30:00 AM 10.41 50.738 0.319 8.64 0.84 0
10/22/2022 9:45:00 AM 10.45 50.81 0.319 8.68 0.86 0
10/22/2022 10:00:00 AM 10.5 50.9 0.319 8.71 0.9 0
10/22/2022 10:15:00 AM 10.56 51.008 0.319 8.71 0.89 0
10/22/2022 10:30:00 AM 10.63 51.134 0.319 8.75 0.89 0
10/22/2022 10:45:00 AM 10.7 51.26 0.319 8.79 0.86 0
10/22/2022 11:00:00 AM 10.78 51.404 0.319 8.82 0.89 0
10/22/2022 11:15:00 AM 10.86 51.548 0.319 8.85 0.86 0
10/22/2022 11:30:00 AM 10.94 51.692 0.32 8.85 0.89 0
10/22/2022 11:45:00 AM 11.03 51.854 0.32 8.9 0.85 0
10/22/2022 12:00:00 PM 11.11 51.998 0.32 8.94 0.82 0
10/22/2022 12:15:00 PM 11.17 52.106 0.32 8.95 0.84 0
10/22/2022 12:30:00 PM 11.21 52.178 0.32 8.96 0.86 0
10/22/2022 12:45:00 PM 11.26 52.268 0.32 8.96 0.84 0
10/22/2022 1:00:00 PM 11.3 52.34 0.32 8.98 0.82 0
10/22/2022 1:15:00 PM 11.37 52.466 0.32 9.01 0.87 0
10/22/2022 1:30:00 PM 11.47 52.646 0.32 9.02 0.85 0
10/22/2022 1:45:00 PM 11.54 52.772 0.32 9.05 0.83 0
10/22/2022 2:00:00 PM 11.61 52.898 0.32 9.07 0.86 0
10/22/2022 2:15:00 PM 11.65 52.97 0.32 9.07 0.82 0
10/22/2022 2:30:00 PM 11.69 53.042 0.32 9.09 0.8 0
10/22/2022 2:45:00 PM 11.74 53.132 0.32 9.12 0.92 0
10/22/2022 3:00:00 PM 11.79 53.222 0.32 9.13 0.84 0
10/22/2022 3:15:00 PM 11.83 53.294 0.32 9.15 0.87 0
10/22/2022 3:30:00 PM 11.93 53.474 0.32 9.18 0.87 0
10/22/2022 3:45:00 PM 11.99 53.582 0.32 9.19 0.88 0
10/22/2022 4:00:00 PM 11.98 53.564 0.321 9.2 0.9 0
10/22/2022 4:15:00 PM 11.95 53.51 0.321 9.2 0.92 0
10/22/2022 4:30:00 PM 11.91 53.438 0.321 9.21 1.01 0
10/22/2022 4:45:00 PM 11.83 53.294 0.321 9.2 0.87 0
10/22/2022 5:00:00 PM 11.87 53.366 0.321 9.19 0.84 0
10/22/2022 5:15:00 PM 11.87 53.366 0.321 9.17 0.84 0
10/22/2022 5:30:00 PM 11.87 53.366 0.321 9.17 0.86 0
10/22/2022 5:45:00 PM 11.88 53.384 0.321 9.17 0.83 0
10/22/2022 6:00:00 PM 11.88 53.384 0.321 9.16 0.84 0
10/22/2022 6:15:00 PM 11.89 53.402 0.321 9.14 0.84 0
10/22/2022 6:30:00 PM 11.89 53.402 0.321 9.15 0.83 0
10/22/2022 6:45:00 PM 11.89 53.402 0.322 9.14 0.85 0
10/22/2022 7:00:00 PM 11.89 53.402 0.322 9.13 0.81 0
10/22/2022 7:15:00 PM 11.9 53.42 0.322 9.13 0.83 0
10/22/2022 7:30:00 PM 11.9 53.42 0.322 9.11 0.82 0
10/22/2022 7:45:00 PM 11.9 53.42 0.322 9.11 0.81 0
10/22/2022 8:00:00 PM 11.9 53.42 0.322 9.1 0.88 0
10/22/2022 8:15:00 PM 11.91 53.438 0.322 9.1 0.84 0
10/22/2022 8:30:00 PM 11.91 53.438 0.322 9.1 0.83 0
10/22/2022 8:45:00 PM 11.91 53.438 0.322 9.09 0.84 0
10/22/2022 9:00:00 PM 11.91 53.438 0.322 9.09 0.87 0
10/22/2022 9:15:00 PM 11.91 53.438 0.322 9.07 0.86 0
10/22/2022 9:30:00 PM 11.91 53.438 0.322 9.08 0.82 0
10/22/2022 9:45:00 PM 11.92 53.456 0.322 9.06 0.84 0
10/22/2022 10:00:00 PM 11.92 53.456 0.322 9.05 0.85 0
10/22/2022 10:15:00 PM 11.92 53.456 0.322 9.01 0.83 0
10/22/2022 10:30:00 PM 11.92 53.456 0.322 9.02 0.85 0
10/22/2022 10:45:00 PM 11.93 53.474 0.322 9.01 0.88 0
10/22/2022 11:00:00 PM 11.93 53.474 0.322 8.99 0.86 0
10/22/2022 11:15:00 PM 11.93 53.474 0.323 8.98 0.85 0
10/22/2022 11:30:00 PM 11.94 53.492 0.323 8.94 0.86 0
10/22/2022 11:45:00 PM 11.95 53.51 0.322 8.97 0.86 0
10/23/2022 12:00:00 AM 11.95 53.51 0.321 8.94 0.92 0
10/23/2022 12:15:00 AM 11.96 53.528 0.217 8.94 0.86 0
10/23/2022 12:30:00 AM 11.95 53.51 0.323 8.89 0.89 0
10/23/2022 12:45:00 AM 11.95 53.51 0.323 8.91 0.85 0
10/23/2022 1:00:00 AM 11.96 53.528 0.323 8.9 0.86 0
10/23/2022 1:15:00 AM 11.97 53.546 0.323 8.88 0.87 0
10/23/2022 1:30:00 AM 11.97 53.546 0.263 8.86 0.85 0
10/23/2022 1:45:00 AM 11.97 53.546 0.312 8.86 0.88 0
10/23/2022 2:00:00 AM 11.99 53.582 0.189 8.83 0.92 0
10/23/2022 2:15:00 AM 11.99 53.582 0.324 8.81 0.94 0
10/23/2022 2:30:00 AM 11.98 53.564 0.324 8.81 0.86 0
10/23/2022 2:45:00 AM 11.99 53.582 0.324 8.8 0.89 0
10/23/2022 3:00:00 AM 11.99 53.582 0.324 8.79 0.9 0
10/23/2022 3:15:00 AM 12 53.6 0.324 8.76 0.88 0
10/23/2022 3:30:00 AM 12 53.6 0.324 8.75 0.9 0
10/23/2022 3:45:00 AM 12.01 53.618 0.324 8.74 0.92 0
10/23/2022 4:00:00 AM 12.01 53.618 0.324 8.73 0.92 0
10/23/2022 4:15:00 AM 12.02 53.636 0.324 8.73 0.91 0
10/23/2022 4:30:00 AM 12.02 53.636 0.324 8.73 0.91 0
10/23/2022 4:45:00 AM 12.03 53.654 0.324 8.69 0.87 0
10/23/2022 5:00:00 AM 12.03 53.654 0.324 8.7 0.89 0
10/23/2022 5:15:00 AM 12.04 53.672 0.324 8.7 0.89 0
10/23/2022 5:30:00 AM 12.05 53.69 0.324 8.63 0.91 0
10/23/2022 5:45:00 AM 12.05 53.69 0.324 8.67 0.92 0
10/23/2022 6:00:00 AM 12.18 53.924 0.323 8.92 0.92 0
10/23/2022 6:15:00 AM 12.12 53.816 0.323 8.85 1.08 0
10/23/2022 6:30:00 AM 11.64 52.952 0.326 8.68 0.99 0
10/23/2022 6:45:00 AM 11.24 52.232 0.327 8.52 0.97 0
10/23/2022 7:00:00 AM 11.04 51.872 0.328 8.46 1 0
10/23/2022 7:15:00 AM 11 51.8 0.328 8.46 0.92 0
10/23/2022 7:30:00 AM 10.92 51.656 0.328 8.45 0.93 0
10/23/2022 7:45:00 AM 10.86 51.548 0.328 8.45 0.97 0
10/23/2022 8:00:00 AM 10.82 51.476 0.328 8.46 0.92 0
10/23/2022 8:15:00 AM 10.8 51.44 0.329 8.45 0.95 0
10/23/2022 8:30:00 AM 10.79 51.422 0.329 8.45 0.96 0
10/23/2022 8:45:00 AM 10.79 51.422 0.329 8.5 0.98 0
10/23/2022 9:00:00 AM 10.79 51.422 0.329 8.49 0.94 0
10/23/2022 9:15:00 AM 10.78 51.404 0.329 8.52 0.94 0
10/23/2022 9:30:00 AM 10.79 51.422 0.329 8.56 0.95 0
10/23/2022 9:45:00 AM 10.84 51.512 0.329 8.59 0.94 0
10/23/2022 10:00:00 AM 10.9 51.62 0.329 8.59 0.96 0
10/23/2022 10:15:00 AM 10.91 51.638 0.329 8.63 0.98 0
10/23/2022 10:30:00 AM 10.94 51.692 0.329 8.67 0.97 0
10/23/2022 10:45:00 AM 11 51.8 0.329 8.69 0.94 0
10/23/2022 11:00:00 AM 11.03 51.854 0.329 8.68 0.98 0
10/23/2022 11:15:00 AM 11.08 51.944 0.329 8.75 0.98 0
10/23/2022 11:30:00 AM 11.14 52.052 0.329 8.73 0.95 0
10/23/2022 11:45:00 AM 11.16 52.088 0.329 8.78 0.93 0
10/23/2022 12:00:00 PM 11.19 52.142 0.329 8.79 0.95 0
10/23/2022 12:15:00 PM 11.22 52.196 0.33 8.82 0.94 0
10/23/2022 12:30:00 PM 11.29 52.322 0.33 8.86 0.94 0
10/23/2022 12:45:00 PM 11.35 52.43 0.329 8.89 0.94 0
10/23/2022 1:00:00 PM 11.39 52.502 0.329 8.9 0.98 0
10/23/2022 1:15:00 PM 11.43 52.574 0.33 8.95 0.97 0
10/23/2022 1:30:00 PM 11.47 52.646 0.33 8.97 0.97 0
10/23/2022 1:45:00 PM 11.51 52.718 0.33 8.99 0.96 0
10/23/2022 2:00:00 PM 11.52 52.736 0.329 8.96 0.92 0
10/23/2022 2:15:00 PM 11.53 52.754 0.329 8.97 0.91 0
10/23/2022 2:30:00 PM 11.53 52.754 0.33 8.98 0.94 0
10/23/2022 2:45:00 PM 11.54 52.772 0.33 8.97 0.91 0
10/23/2022 3:00:00 PM 11.54 52.772 0.33 8.95 0.91 0
10/23/2022 3:15:00 PM 11.54 52.772 0.33 8.95 0.95 0
10/23/2022 3:30:00 PM 11.54 52.772 0.33 8.95 0.91 0
10/23/2022 3:45:00 PM 11.54 52.772 0.33 8.94 0.92 0
10/23/2022 4:00:00 PM 11.54 52.772 0.33 8.93 0.88 0
10/23/2022 4:15:00 PM 11.55 52.79 0.33 8.92 0.94 0
10/23/2022 4:30:00 PM 11.55 52.79 0.33 8.93 0.9 0
10/23/2022 4:45:00 PM 11.55 52.79 0.33 8.92 0.91 0
10/23/2022 5:00:00 PM 11.55 52.79 0.33 8.91 0.94 0
10/23/2022 5:15:00 PM 11.55 52.79 0.33 8.9 0.91 0
10/23/2022 5:30:00 PM 11.55 52.79 0.33 8.91 1.08 0
10/23/2022 5:45:00 PM 11.56 52.808 0.33 8.9 0.93 0
10/23/2022 6:00:00 PM 11.56 52.808 0.33 8.9 0.89 0
10/23/2022 6:15:00 PM 11.56 52.808 0.33 8.88 0.9 0
10/23/2022 6:30:00 PM 11.56 52.808 0.33 8.88 0.87 0
10/23/2022 6:45:00 PM 11.56 52.808 0.33 8.86 0.9 0
10/23/2022 7:00:00 PM 11.57 52.826 0.33 8.85 0.93 0
10/23/2022 7:15:00 PM 11.57 52.826 0.33 8.81 0.93 0
10/23/2022 7:30:00 PM 11.57 52.826 0.33 8.84 0.91 0
10/23/2022 7:45:00 PM 11.57 52.826 0.33 8.82 0.91 0
10/23/2022 8:00:00 PM 11.58 52.844 0.33 8.82 0.91 0
10/23/2022 8:15:00 PM 11.58 52.844 0.331 8.81 0.91 0
10/23/2022 8:30:00 PM 11.58 52.844 0.331 8.81 0.96 0
10/23/2022 8:45:00 PM 11.58 52.844 0.331 8.79 0.91 0
10/23/2022 9:00:00 PM 11.58 52.844 0.331 8.79 0.97 0
10/23/2022 9:15:00 PM 11.59 52.862 0.331 8.79 0.93 0
10/23/2022 9:30:00 PM 11.59 52.862 0.331 8.79 0.93 0
10/23/2022 9:45:00 PM 11.59 52.862 0.331 8.8 0.93 0
10/23/2022 10:00:00 PM 11.6 52.88 0.331 8.8 0.9 0
10/23/2022 10:15:00 PM 11.6 52.88 0.331 8.79 0.9 0
10/23/2022 10:30:00 PM 11.6 52.88 0.331 8.76 0.97 0
10/23/2022 10:45:00 PM 11.61 52.898 0.331 8.73 0.96 0
10/23/2022 11:00:00 PM 11.61 52.898 0.331 8.69 0.92 0
10/23/2022 11:15:00 PM 11.62 52.916 0.331 8.66 0.96 0
10/23/2022 11:30:00 PM 11.62 52.916 0.331 8.66 0.95 0
10/23/2022 11:45:00 PM 11.63 52.934 0.331 8.65 0.92 0
10/24/2022 12:00:00 AM 11.63 52.934 0.331 8.66 0.93 0
10/24/2022 12:15:00 AM 11.63 52.934 0.332 8.63 0.94 0
10/24/2022 12:30:00 AM 11.64 52.952 0.332 8.58 0.97 0
10/24/2022 12:45:00 AM 11.65 52.97 0.332 8.55 0.93 0
10/24/2022 1:00:00 AM 11.66 52.988 0.332 8.52 0.94 0
10/24/2022 1:15:00 AM 11.66 52.988 0.332 8.5 0.95 0
10/24/2022 1:30:00 AM 11.67 53.006 0.332 8.48 0.96 0
10/24/2022 1:45:00 AM 11.67 53.006 0.332 8.48 0.96 0
10/24/2022 2:00:00 AM 11.68 53.024 0.332 8.49 0.99 0
10/24/2022 2:15:00 AM 11.68 53.024 0.332 8.46 0.93 0
10/24/2022 2:30:00 AM 11.69 53.042 0.332 8.45 0.93 0
10/24/2022 2:45:00 AM 11.7 53.06 0.332 8.42 0.96 0
10/24/2022 3:00:00 AM 11.7 53.06 0.332 8.4 0.97 0
10/24/2022 3:15:00 AM 11.71 53.078 0.332 8.39 0.94 0
10/24/2022 3:30:00 AM 11.71 53.078 0.332 8.38 0.99 0
10/24/2022 3:45:00 AM 11.72 53.096 0.332 8.37 0.98 0
10/24/2022 4:00:00 AM 11.72 53.096 0.332 8.36 0.94 0
10/24/2022 4:15:00 AM 11.73 53.114 0.332 8.35 0.95 0
10/24/2022 4:30:00 AM 11.74 53.132 0.333 8.34 0.95 0
10/24/2022 4:45:00 AM 11.75 53.15 0.332 8.34 0.97 0
10/24/2022 5:00:00 AM 11.75 53.15 0.333 8.35 0.99 0
10/24/2022 5:15:00 AM 11.76 53.168 0.333 8.33 0.98 0
10/24/2022 5:30:00 AM 11.77 53.186 0.333 8.32 0.99 0
10/24/2022 5:45:00 AM 11.78 53.204 0.333 8.31 0.99 0
10/24/2022 6:00:00 AM 11.94 53.492 0.332 8.51 0.98 0
10/24/2022 6:15:00 AM 11.99 53.582 0.331 8.56 1.11 0
10/24/2022 6:30:00 AM 11.99 53.582 0.331 8.53 0.97 0
10/24/2022 6:45:00 AM 11.83 53.294 0.331 8.44 0.96 0
10/24/2022 7:00:00 AM 11.78 53.204 0.331 8.43 0.92 0
10/24/2022 7:15:00 AM 11.75 53.15 0.331 8.41 0.94 0
10/24/2022 7:30:00 AM 11.76 53.168 0.331 8.4 0.94 0
10/24/2022 7:45:00 AM 11.76 53.168 0.331 8.41 0.91 0
10/24/2022 8:00:00 AM 11.76 53.168 0.331 8.42 0.93 0
10/24/2022 8:15:00 AM 11.76 53.168 0.332 8.42 0.92 0
10/24/2022 8:30:00 AM 11.75 53.15 0.332 8.43 0.92 0
10/24/2022 8:45:00 AM 11.77 53.186 0.332 8.44 0.94 0
10/24/2022 9:00:00 AM 11.79 53.222 0.332 8.47 0.96 0
10/24/2022 9:15:00 AM 11.81 53.258 0.332 8.49 0.93 0
10/24/2022 9:30:00 AM 11.84 53.312 0.332 8.52 0.99 0
10/24/2022 9:45:00 AM 11.87 53.366 0.332 8.53 0.91 0
10/24/2022 10:00:00 AM 11.87 53.366 0.331 8.54 0.96 0
10/24/2022 10:15:00 AM 11.89 53.402 0.331 8.56 0.93 0
10/24/2022 10:30:00 AM 11.92 53.456 0.331 8.57 0.92 0
10/24/2022 10:45:00 AM 11.94 53.492 0.33 8.6 0.94 0
10/24/2022 11:00:00 AM 11.96 53.528 0.33 8.61 0.89 0
10/24/2022 11:15:00 AM 12 53.6 0.33 8.63 0.89 0
10/24/2022 11:30:00 AM 12.04 53.672 0.33 8.62 0.91 0
10/24/2022 11:45:00 AM 12.07 53.726 0.33 8.67 0.89 0
10/24/2022 12:00:00 PM 12.09 53.762 0.33 8.69 0.88 0
10/24/2022 12:15:00 PM 12.12 53.816 0.329 8.7 0.89 0
10/24/2022 12:30:00 PM 12.16 53.888 0.329 8.72 0.92 0
10/24/2022 12:45:00 PM 12.2 53.96 0.329 8.75 0.91 0
10/24/2022 1:00:00 PM 12.26 54.068 0.329 8.79 0.88 0
10/24/2022 1:15:00 PM 12.34 54.212 0.329 8.79 0.85 0
10/24/2022 1:30:00 PM 12.4 54.32 0.329 8.86 0.89 0
10/24/2022 1:45:00 PM 12.46 54.428 0.33 8.86 0.91 0
10/24/2022 2:00:00 PM 12.48 54.464 0.33 8.89 0.87 0
10/24/2022 2:15:00 PM 12.5 54.5 0.33 8.84 0.87 0
10/24/2022 2:30:00 PM 12.5 54.5 0.33 8.84 0.88 0
10/24/2022 2:45:00 PM 12.51 54.518 0.33 8.83 0.88 0
10/24/2022 3:00:00 PM 12.51 54.518 0.33 8.81 0.91 0
10/24/2022 3:15:00 PM 12.51 54.518 0.33 8.83 0.86 0
10/24/2022 3:30:00 PM 12.51 54.518 0.33 8.84 0.86 0
10/24/2022 3:45:00 PM 12.51 54.518 0.33 8.83 0.88 0
10/24/2022 4:00:00 PM 12.51 54.518 0.33 8.81 0.89 0
10/24/2022 4:15:00 PM 12.51 54.518 0.33 8.85 0.87 0
10/24/2022 4:30:00 PM 12.51 54.518 0.33 8.83 0.86 0
10/24/2022 4:45:00 PM 12.51 54.518 0.33 8.83 0.91 0
10/24/2022 5:00:00 PM 12.51 54.518 0.33 8.83 0.88 0
10/24/2022 5:15:00 PM 12.51 54.518 0.33 8.84 0.88 0
10/24/2022 5:30:00 PM 12.51 54.518 0.33 8.85 0.89 0
10/24/2022 5:45:00 PM 12.51 54.518 0.33 8.84 1.03 0
10/24/2022 6:00:00 PM 12.51 54.518 0.33 8.83 0.91 0
10/24/2022 6:15:00 PM 12.51 54.518 0.33 8.83 0.92 0
10/24/2022 6:30:00 PM 12.51 54.518 0.33 8.83 0.88 0
10/24/2022 6:45:00 PM 12.51 54.518 0.33 8.82 0.96 0
10/24/2022 7:00:00 PM 12.51 54.518 0.33 8.81 0.88 0
10/24/2022 7:15:00 PM 12.51 54.518 0.33 8.82 0.88 0
10/24/2022 7:30:00 PM 12.51 54.518 0.33 8.81 0.87 0
10/24/2022 7:45:00 PM 12.51 54.518 0.33 8.81 0.85 0
10/24/2022 8:00:00 PM 12.51 54.518 0.33 8.81 0.87 0
10/24/2022 8:15:00 PM 12.5 54.5 0.33 8.8 0.81 0
10/24/2022 8:30:00 PM 12.51 54.518 0.33 8.8 0.85 0
10/24/2022 8:45:00 PM 12.51 54.518 0.33 8.8 0.88 0
10/24/2022 9:00:00 PM 12.5 54.5 0.33 8.79 0.87 0
10/24/2022 9:15:00 PM 12.51 54.518 0.33 8.78 0.85 0
10/24/2022 9:30:00 PM 12.51 54.518 0.33 8.78 0.83 0
10/24/2022 9:45:00 PM 12.5 54.5 0.33 8.78 0.85 0
10/24/2022 10:00:00 PM 12.51 54.518 0.33 8.77 0.89 0
10/24/2022 10:15:00 PM 12.51 54.518 0.33 8.78 0.83 0
10/24/2022 10:30:00 PM 12.5 54.5 0.33 8.77 0.86 0
10/24/2022 10:45:00 PM 12.5 54.5 0.33 8.77 0.86 0
10/24/2022 11:00:00 PM 12.51 54.518 0.33 8.73 0.83 0
10/24/2022 11:15:00 PM 12.51 54.518 0.33 8.75 0.85 0
10/24/2022 11:30:00 PM 12.51 54.518 0.33 8.77 0.87 0
10/24/2022 11:45:00 PM 12.5 54.5 0.33 8.76 0.81 0
10/25/2022 12:00:00 AM 12.51 54.518 0.33 8.77 0.83 0
10/25/2022 12:15:00 AM 12.51 54.518 0.33 8.78 0.88 0
10/25/2022 12:30:00 AM 12.51 54.518 0.33 8.79 0.87 0
10/25/2022 12:45:00 AM 12.51 54.518 0.33 8.77 0.86 0
10/25/2022 1:00:00 AM 12.52 54.536 0.331 8.69 0.87 0
10/25/2022 1:15:00 AM 12.52 54.536 0.331 8.62 0.85 0
10/25/2022 1:30:00 AM 12.53 54.554 0.332 8.57 0.87 0
10/25/2022 1:45:00 AM 12.53 54.554 0.332 8.49 0.88 0
10/25/2022 2:00:00 AM 12.54 54.572 0.332 8.45 0.93 0
10/25/2022 2:15:00 AM 12.54 54.572 0.332 8.42 0.9 0
10/25/2022 2:30:00 AM 12.54 54.572 0.332 8.38 0.9 0
10/25/2022 2:45:00 AM 12.55 54.59 0.332 8.37 0.93 0
10/25/2022 3:00:00 AM 12.55 54.59 0.332 8.3 0.86 0
10/25/2022 3:15:00 AM 12.56 54.608 0.333 8.3 1.06 0
10/25/2022 3:30:00 AM 12.56 54.608 0.333 8.3 0.94 0
10/25/2022 3:45:00 AM 12.56 54.608 0.333 8.29 0.94 0
10/25/2022 4:00:00 AM 12.56 54.608 0.333 8.24 0.88 0
10/25/2022 4:15:00 AM 12.57 54.626 0.333 8.27 0.92 0
10/25/2022 4:30:00 AM 12.56 54.608 0.333 8.26 0.95 0
10/25/2022 4:45:00 AM 12.57 54.626 0.333 8.24 1.13 0
10/25/2022 5:00:00 AM 12.57 54.626 0.333 8.23 0.94 0
10/25/2022 5:15:00 AM 12.58 54.644 0.333 8.21 0.94 0
10/25/2022 5:30:00 AM 12.58 54.644 0.333 8.18 0.97 0
10/25/2022 5:45:00 AM 12.62 54.716 0.333 8.27 0.94 0
10/25/2022 6:00:00 AM 12.65 54.77 0.332 8.4 1.02 0
10/25/2022 6:15:00 AM 12.74 54.932 0.333 8.45 0.92 0
10/25/2022 6:30:00 AM 12.81 55.058 0.335 8.43 0.89 0
10/25/2022 6:45:00 AM 12.84 55.112 0.336 8.35 0.95 0
10/25/2022 7:00:00 AM 12.83 55.094 0.337 8.37 0.9 0
10/25/2022 7:15:00 AM 12.81 55.058 0.337 8.36 0.97 0
10/25/2022 7:30:00 AM 12.8 55.04 0.337 8.36 0.96 0
10/25/2022 7:45:00 AM 12.79 55.022 0.337 8.33 1 0
10/25/2022 8:00:00 AM 12.79 55.022 0.337 8.36 0.95 0
10/25/2022 8:15:00 AM 12.79 55.022 0.337 8.33 1 0
10/25/2022 8:30:00 AM 12.79 55.022 0.337 8.38 0.91 0
10/25/2022 8:45:00 AM 12.8 55.04 0.338 8.39 0.9 0
10/25/2022 9:00:00 AM 12.82 55.076 0.338 8.41 0.94 0
10/25/2022 9:15:00 AM 12.83 55.094 0.338 8.4 0.9 0
10/25/2022 9:30:00 AM 12.87 55.166 0.338 8.44 0.86 0
10/25/2022 9:45:00 AM 12.91 55.238 0.338 8.47 0.82 0
10/25/2022 10:00:00 AM 12.93 55.274 0.338 8.49 0.83 0
10/25/2022 10:15:00 AM 12.96 55.328 0.338 8.5 0.8 0
10/25/2022 10:30:00 AM 13 55.4 0.338 8.48 0.86 0
10/25/2022 10:45:00 AM 13.04 55.472 0.338 8.54 0.89 0
10/25/2022 11:00:00 AM 13.07 55.526 0.338 8.56 0.85 0
10/25/2022 11:15:00 AM 13.1 55.58 0.338 8.57 0.84 0
10/25/2022 11:30:00 AM 13.12 55.616 0.338 8.58 0.92 0
10/25/2022 11:45:00 AM 13.13 55.634 0.338 8.6 0.92 0
10/25/2022 12:00:00 PM 13.17 55.706 0.338 8.57 0.94 0
10/25/2022 12:15:00 PM 13.17 55.706 0.338 8.62 0.91 0
10/25/2022 12:30:00 PM 13.18 55.724 0.338 8.65 0.86 0
10/25/2022 12:45:00 PM 13.22 55.796 0.338 8.67 0.87 0
10/25/2022 1:00:00 PM -99999.99 -179968 -100 -99999.99 -99999.99 -99999.99
10/25/2022 1:15:00 PM -99999.99 -179968 -100 -99999.99 -99999.99 -99999.99
10/25/2022 1:30:00 PM -99999.99 -179968 -100 -99999.99 -99999.99 -99999.99
10/25/2022 1:45:00 PM -99999.99 -179968 -100 -99999.99 -99999.99 -99999.99
10/25/2022 2:00:00 PM -99999.99 -179968 -100 -99999.99 -99999.99 -99999.99
10/25/2022 2:15:00 PM -99999.99 -179968 -100 -99999.99 -99999.99 -99999.99
10/25/2022 2:30:00 PM -99999.99 -179968 -100 -99999.99 -99999.99 -99999.99
10/25/2022 2:45:00 PM -99999.99 -179968 -100 -99999.99 -99999.99 -99999.99
10/25/2022 3:00:00 PM -99999.99 -179968 -100 -99999.99 -99999.99 -99999.99
10/25/2022 3:15:00 PM -99999.99 -179968 -100 -99999.99 -99999.99 -99999.99
10/25/2022 3:30:00 PM -99999.99 -179968 -100 -99999.99 -99999.99 -99999.99
10/25/2022 3:45:00 PM -99999.99 -179968 -100 -99999.99 -99999.99 -99999.99
10/25/2022 4:00:00 PM -99999.99 -179968 -100 -99999.99 -99999.99 -99999.99
10/25/2022 4:15:00 PM -99999.99 -179968 -100 -99999.99 -99999.99 -99999.99
10/25/2022 4:30:00 PM -99999.99 -179968 -100 -99999.99 -99999.99 -99999.99
10/25/2022 4:45:00 PM -99999.99 -179968 -100 -99999.99 -99999.99 -99999.99
10/25/2022 5:00:00 PM -99999.99 -179968 -100 -99999.99 -99999.99 -99999.99
10/25/2022 5:15:00 PM -99999.99 -179968 -100 -99999.99 -99999.99 -99999.99
10/25/2022 5:30:00 PM -99999.99 -179968 -100 -99999.99 -99999.99 -99999.99
10/25/2022 5:45:00 PM -99999.99 -179968 -100 -99999.99 -99999.99 -99999.99
10/25/2022 6:00:00 PM -99999.99 -179968 -100 -99999.99 -99999.99 -99999.99
10/25/2022 6:15:00 PM -99999.99 -179968 -100 -99999.99 -99999.99 -99999.99
10/25/2022 6:30:00 PM -99999.99 -179968 -100 -99999.99 -99999.99 -99999.99
10/25/2022 6:45:00 PM -99999.99 -179968 -100 -99999.99 -99999.99 -99999.99
10/25/2022 7:00:00 PM -99999.99 -179968 -100 -99999.99 -99999.99 -99999.99
10/25/2022 7:15:00 PM -99999.99 -179968 -100 -99999.99 -99999.99 -99999.99
10/25/2022 7:30:00 PM -99999.99 -179968 -100 -99999.99 -99999.99 -99999.99
10/25/2022 7:45:00 PM -99999.99 -179968 -100 -99999.99 -99999.99 -99999.99
10/25/2022 8:00:00 PM -99999.99 -179968 -100 -99999.99 -99999.99 -99999.99
10/25/2022 8:15:00 PM -99999.99 -179968 -100 -99999.99 -99999.99 -99999.99
10/25/2022 8:30:00 PM -99999.99 -179968 -100 -99999.99 -99999.99 -99999.99
10/25/2022 8:45:00 PM -99999.99 -179968 -100 -99999.99 -99999.99 -99999.99
10/25/2022 9:00:00 PM -99999.99 -179968 -100 -99999.99 -99999.99 -99999.99
10/25/2022 9:15:00 PM -99999.99 -179968 -100 -99999.99 -99999.99 -99999.99
10/25/2022 9:30:00 PM -99999.99 -179968 -100 -99999.99 -99999.99 -99999.99
10/25/2022 9:45:00 PM -99999.99 -179968 -100 -99999.99 -99999.99 -99999.99
10/25/2022 10:00:00 PM -99999.99 -179968 -100 -99999.99 -99999.99 -99999.99
10/25/2022 10:15:00 PM -99999.99 -179968 -100 -99999.99 -99999.99 -99999.99
10/25/2022 10:30:00 PM -99999.99 -179968 -100 -99999.99 -99999.99 -99999.99
10/25/2022 10:45:00 PM -99999.99 -179968 -100 -99999.99 -99999.99 -99999.99
10/25/2022 11:00:00 PM -99999.99 -179968 -100 -99999.99 -99999.99 -99999.99
10/25/2022 11:15:00 PM -99999.99 -179968 -100 -99999.99 -99999.99 -99999.99
10/25/2022 11:30:00 PM -99999.99 -179968 -100 -99999.99 -99999.99 -99999.99
10/25/2022 11:45:00 PM -99999.99 -179968 -100 -99999.99 -99999.99 -99999.99
10/26/2022 12:00:00 AM -99999.99 -179968 -100 -99999.99 -99999.99 -99999.99
10/26/2022 12:15:00 AM -99999.99 -179968 -100 -99999.99 -99999.99 -99999.99
10/26/2022 12:30:00 AM -99999.99 -179968 -100 -99999.99 -99999.99 -99999.99
10/26/2022 12:45:00 AM -99999.99 -179968 -100 -99999.99 -99999.99 -99999.99
10/26/2022 1:00:00 AM -99999.99 -179968 -100 -99999.99 -99999.99 -99999.99
10/26/2022 1:15:00 AM -99999.99 -179968 -100 -99999.99 -99999.99 -99999.99
10/26/2022 1:30:00 AM -99999.99 -179968 -100 -99999.99 -99999.99 -99999.99
10/26/2022 1:45:00 AM -99999.99 -179968 -100 -99999.99 -99999.99 -99999.99
10/26/2022 2:00:00 AM -99999.99 -179968 -100 -99999.99 -99999.99 -99999.99
10/26/2022 2:15:00 AM -99999.99 -179968 -100 -99999.99 -99999.99 -99999.99
10/26/2022 2:30:00 AM -99999.99 -179968 -100 -99999.99 -99999.99 -99999.99
10/26/2022 2:45:00 AM -99999.99 -179968 -100 -99999.99 -99999.99 -99999.99
10/26/2022 3:00:00 AM -99999.99 -179968 -100 -99999.99 -99999.99 -99999.99
10/26/2022 3:15:00 AM -99999.99 -179968 -100 -99999.99 -99999.99 -99999.99
10/26/2022 3:30:00 AM -99999.99 -179968 -100 -99999.99 -99999.99 -99999.99
10/26/2022 3:45:00 AM -99999.99 -179968 -100 -99999.99 -99999.99 -99999.99
10/26/2022 4:00:00 AM -99999.99 -179968 -100 -99999.99 -99999.99 -99999.99
10/26/2022 4:15:00 AM -99999.99 -179968 -100 -99999.99 -99999.99 -99999.99
10/26/2022 4:30:00 AM -99999.99 -179968 -100 -99999.99 -99999.99 -99999.99
10/26/2022 4:45:00 AM -99999.99 -179968 -100 -99999.99 -99999.99 -99999.99
10/26/2022 5:00:00 AM -99999.99 -179968 -100 -99999.99 -99999.99 -99999.99
10/26/2022 5:15:00 AM -99999.99 -179968 -100 -99999.99 -99999.99 -99999.99
10/26/2022 5:30:00 AM -99999.99 -179968 -100 -99999.99 -99999.99 -99999.99
10/26/2022 5:45:00 AM -99999.99 -179968 -100 -99999.99 -99999.99 -99999.99
10/26/2022 6:00:00 AM -99999.99 -179968 -100 -99999.99 -99999.99 -99999.99
10/26/2022 6:15:00 AM -99999.99 -179968 -100 -99999.99 -99999.99 -99999.99
10/26/2022 6:30:00 AM -99999.99 -179968 -100 -99999.99 -99999.99 -99999.99
10/26/2022 6:45:00 AM -99999.99 -179968 -100 -99999.99 -99999.99 -99999.99
10/26/2022 7:00:00 AM -99999.99 -179968 -100 -99999.99 -99999.99 -99999.99
10/26/2022 7:15:00 AM -99999.99 -179968 -100 -99999.99 -99999.99 -99999.99
10/26/2022 7:30:00 AM -99999.99 -179968 -100 -99999.99 -99999.99 -99999.99
10/26/2022 7:45:00 AM -99999.99 -179968 -100 -99999.99 -99999.99 -99999.99
10/26/2022 8:00:00 AM -99999.99 -179968 -100 -99999.99 -99999.99 -99999.99
10/26/2022 8:15:00 AM -99999.99 -179968 -100 -99999.99 -99999.99 -99999.99
10/26/2022 8:30:00 AM -99999.99 -179968 -100 -99999.99 -99999.99 -99999.99
10/26/2022 8:45:00 AM -99999.99 -179968 -100 -99999.99 -99999.99 -99999.99
10/26/2022 9:00:00 AM -99999.99 -179968 -100 -99999.99 -99999.99 -99999.99
10/26/2022 9:15:00 AM -99999.99 -179968 -100 -99999.99 -99999.99 -99999.99
10/26/2022 9:30:00 AM -99999.99 -179968 -100 -99999.99 -99999.99 -99999.99
10/26/2022 9:45:00 AM -99999.99 -179968 -100 -99999.99 -99999.99 -99999.99
10/26/2022 10:00:00 AM -99999.99 -179968 -100 -99999.99 -99999.99 -99999.99
10/26/2022 10:15:00 AM -99999.99 -179968 -100 -99999.99 -99999.99 -99999.99
10/26/2022 10:30:00 AM -99999.99 -179968 -100 -99999.99 -99999.99 -99999.99
10/26/2022 10:45:00 AM -99999.99 -179968 -100 -99999.99 -99999.99 -99999.99
10/26/2022 11:00:00 AM -99999.99 -179968 -100 -99999.99 -99999.99 -99999.99
10/26/2022 11:15:00 AM -99999.99 -179968 -100 -99999.99 -99999.99 -99999.99
10/26/2022 11:30:00 AM -99999.99 -179968 -100 -99999.99 -99999.99 -99999.99
10/26/2022 11:45:00 AM -99999.99 -179968 -100 -99999.99 -99999.99 -99999.99
10/26/2022 12:00:00 PM -99999.99 -179968 -100 -99999.99 -99999.99 -99999.99
10/26/2022 12:15:00 PM -99999.99 -179968 -100 -99999.99 -99999.99 -99999.99
10/26/2022 12:30:00 PM -99999.99 -179968 -100 -99999.99 -99999.99 -99999.99
10/26/2022 12:45:00 PM -99999.99 -179968 -100 -99999.99 -99999.99 -99999.99
10/26/2022 1:00:00 PM -99999.99 -179968 -100 -99999.99 -99999.99 -99999.99
10/26/2022 1:15:00 PM -99999.99 -179968 -100 -99999.99 -99999.99 -99999.99
10/26/2022 1:30:00 PM -99999.99 -179968 -100 -99999.99 -99999.99 -99999.99
10/26/2022 1:45:00 PM -99999.99 -179968 -100 -99999.99 -99999.99 -99999.99
10/26/2022 2:00:00 PM -99999.99 -179968 -100 -99999.99 -99999.99 -99999.99
10/26/2022 2:15:00 PM -99999.99 -179968 -100 -99999.99 -99999.99 -99999.99
10/26/2022 2:30:00 PM -99999.99 -179968 -100 -99999.99 -99999.99 -99999.99
10/26/2022 2:45:00 PM -99999.99 -179968 -100 -99999.99 -99999.99 -99999.99
10/26/2022 3:00:00 PM -99999.99 -179968 -100 -99999.99 -99999.99 -99999.99
10/26/2022 3:15:00 PM -99999.99 -179968 -100 -99999.99 -99999.99 -99999.99
10/26/2022 3:30:00 PM -99999.99 -179968 -100 -99999.99 -99999.99 -99999.99
10/26/2022 3:45:00 PM -99999.99 -179968 -100 -99999.99 -99999.99 -99999.99
10/26/2022 4:00:00 PM -99999.99 -179968 -100 -99999.99 -99999.99 -99999.99
10/26/2022 4:15:00 PM -99999.99 -179968 -100 -99999.99 -99999.99 -99999.99
10/26/2022 4:30:00 PM -99999.99 -179968 -100 -99999.99 -99999.99 -99999.99
10/26/2022 4:45:00 PM -99999.99 -179968 -100 -99999.99 -99999.99 -99999.99
10/26/2022 5:00:00 PM -99999.99 -179968 -100 -99999.99 -99999.99 -99999.99
10/26/2022 5:15:00 PM -99999.99 -179968 -100 -99999.99 -99999.99 -99999.99
10/26/2022 5:30:00 PM -99999.99 -179968 -100 -99999.99 -99999.99 -99999.99
10/26/2022 5:45:00 PM -99999.99 -179968 -100 -99999.99 -99999.99 -99999.99
10/26/2022 6:00:00 PM -99999.99 -179968 -100 -99999.99 -99999.99 -99999.99
10/26/2022 6:15:00 PM -99999.99 -179968 -100 -99999.99 -99999.99 -99999.99
10/26/2022 6:30:00 PM -99999.99 -179968 -100 -99999.99 -99999.99 -99999.99
10/26/2022 6:45:00 PM -99999.99 -179968 -100 -99999.99 -99999.99 -99999.99
10/26/2022 7:00:00 PM -99999.99 -179968 -100 -99999.99 -99999.99 -99999.99
10/26/2022 7:15:00 PM -99999.99 -179968 -100 -99999.99 -99999.99 -99999.99
10/26/2022 7:30:00 PM -99999.99 -179968 -100 -99999.99 -99999.99 -99999.99
10/26/2022 7:45:00 PM -99999.99 -179968 -100 -99999.99 -99999.99 -99999.99
10/26/2022 8:00:00 PM -99999.99 -179968 -100 -99999.99 -99999.99 -99999.99
10/26/2022 8:15:00 PM -99999.99 -179968 -100 -99999.99 -99999.99 -99999.99
10/26/2022 8:30:00 PM -99999.99 -179968 -100 -99999.99 -99999.99 -99999.99
10/26/2022 8:45:00 PM -99999.99 -179968 -100 -99999.99 -99999.99 -99999.99
10/26/2022 9:00:00 PM -99999.99 -179968 -100 -99999.99 -99999.99 -99999.99
10/26/2022 9:15:00 PM -99999.99 -179968 -100 -99999.99 -99999.99 -99999.99
10/26/2022 9:30:00 PM -99999.99 -179968 -100 -99999.99 -99999.99 -99999.99
10/26/2022 9:45:00 PM -99999.99 -179968 -100 -99999.99 -99999.99 -99999.99
10/26/2022 10:00:00 PM -99999.99 -179968 -100 -99999.99 -99999.99 -99999.99
10/26/2022 10:15:00 PM -99999.99 -179968 -100 -99999.99 -99999.99 -99999.99
10/26/2022 10:30:00 PM -99999.99 -179968 -100 -99999.99 -99999.99 -99999.99
10/26/2022 10:45:00 PM -99999.99 -179968 -100 -99999.99 -99999.99 -99999.99
10/26/2022 11:00:00 PM -99999.99 -179968 -100 -99999.99 -99999.99 -99999.99
10/26/2022 11:15:00 PM -99999.99 -179968 -100 -99999.99 -99999.99 -99999.99
10/26/2022 11:30:00 PM -99999.99 -179968 -100 -99999.99 -99999.99 -99999.99
10/26/2022 11:45:00 PM -99999.99 -179968 -100 -99999.99 -99999.99 -99999.99
10/27/2022 12:00:00 AM -99999.99 -179968 -100 -99999.99 -99999.99 -99999.99
10/27/2022 12:15:00 AM -99999.99 -179968 -100 -99999.99 -99999.99 -99999.99
10/27/2022 12:30:00 AM -99999.99 -179968 -100 -99999.99 -99999.99 -99999.99
10/27/2022 12:45:00 AM -99999.99 -179968 -100 -99999.99 -99999.99 -99999.99
10/27/2022 1:00:00 AM -99999.99 -179968 -100 -99999.99 -99999.99 -99999.99
10/27/2022 1:15:00 AM -99999.99 -179968 -100 -99999.99 -99999.99 -99999.99
10/27/2022 1:30:00 AM -99999.99 -179968 -100 -99999.99 -99999.99 -99999.99
10/27/2022 1:45:00 AM -99999.99 -179968 -100 -99999.99 -99999.99 -99999.99
10/27/2022 2:00:00 AM -99999.99 -179968 -100 -99999.99 -99999.99 -99999.99
10/27/2022 2:15:00 AM -99999.99 -179968 -100 -99999.99 -99999.99 -99999.99
10/27/2022 2:30:00 AM -99999.99 -179968 -100 -99999.99 -99999.99 -99999.99
10/27/2022 2:45:00 AM -99999.99 -179968 -100 -99999.99 -99999.99 -99999.99
10/27/2022 3:00:00 AM -99999.99 -179968 -100 -99999.99 -99999.99 -99999.99
10/27/2022 3:15:00 AM -99999.99 -179968 -100 -99999.99 -99999.99 -99999.99
10/27/2022 3:30:00 AM -99999.99 -179968 -100 -99999.99 -99999.99 -99999.99
10/27/2022 3:45:00 AM -99999.99 -179968 -100 -99999.99 -99999.99 -99999.99
10/27/2022 4:00:00 AM -99999.99 -179968 -100 -99999.99 -99999.99 -99999.99
10/27/2022 4:15:00 AM -99999.99 -179968 -100 -99999.99 -99999.99 -99999.99
10/27/2022 4:30:00 AM -99999.99 -179968 -100 -99999.99 -99999.99 -99999.99
10/27/2022 4:45:00 AM -99999.99 -179968 -100 -99999.99 -99999.99 -99999.99
10/27/2022 5:00:00 AM -99999.99 -179968 -100 -99999.99 -99999.99 -99999.99
10/27/2022 5:15:00 AM -99999.99 -179968 -100 -99999.99 -99999.99 -99999.99
10/27/2022 5:30:00 AM -99999.99 -179968 -100 -99999.99 -99999.99 -99999.99
10/27/2022 5:45:00 AM -99999.99 -179968 -100 -99999.99 -99999.99 -99999.99
10/27/2022 6:00:00 AM -99999.99 -179968 -100 -99999.99 -99999.99 -99999.99
10/27/2022 6:15:00 AM -99999.99 -179968 -100 -99999.99 -99999.99 -99999.99
10/27/2022 6:30:00 AM -99999.99 -179968 -100 -99999.99 -99999.99 -99999.99
10/27/2022 6:45:00 AM -99999.99 -179968 -100 -99999.99 -99999.99 -99999.99
10/27/2022 7:00:00 AM -99999.99 -179968 -100 -99999.99 -99999.99 -99999.99
10/27/2022 7:15:00 AM -99999.99 -179968 -100 -99999.99 -99999.99 -99999.99
10/27/2022 7:30:00 AM -99999.99 -179968 -100 -99999.99 -99999.99 -99999.99
10/27/2022 7:45:00 AM -99999.99 -179968 -100 -99999.99 -99999.99 -99999.99
10/27/2022 8:00:00 AM -99999.99 -179968 -100 -99999.99 -99999.99 -99999.99
10/27/2022 8:15:00 AM -99999.99 -179968 -100 -99999.99 -99999.99 -99999.99
10/27/2022 8:30:00 AM -99999.99 -179968 -100 -99999.99 -99999.99 -99999.99
10/27/2022 8:45:00 AM -99999.99 -179968 -100 -99999.99 -99999.99 -99999.99
10/27/2022 9:00:00 AM -99999.99 -179968 -100 -99999.99 -99999.99 -99999.99
10/27/2022 9:15:00 AM -99999.99 -179968 -100 -99999.99 -99999.99 -99999.99
10/27/2022 9:30:00 AM -99999.99 -179968 -100 -99999.99 -99999.99 -99999.99
10/27/2022 9:45:00 AM -99999.99 -179968 -100 -99999.99 -99999.99 -99999.99
10/27/2022 10:00:00 AM -99999.99 -179968 -100 -99999.99 -99999.99 -99999.99
10/27/2022 10:15:00 AM -99999.99 -179968 -100 -99999.99 -99999.99 -99999.99
10/27/2022 10:30:00 AM -99999.99 -179968 -100 -99999.99 -99999.99 -99999.99
10/27/2022 10:45:00 AM -99999.99 -179968 -100 -99999.99 -99999.99 -99999.99
10/27/2022 11:00:00 AM -99999.99 -179968 -100 -99999.99 -99999.99 -99999.99
10/27/2022 11:15:00 AM -99999.99 -179968 -100 -99999.99 -99999.99 -99999.99
10/27/2022 11:30:00 AM -99999.99 -179968 -100 -99999.99 -99999.99 -99999.99
10/27/2022 11:45:00 AM -99999.99 -179968 -100 -99999.99 -99999.99 -99999.99
10/27/2022 12:00:00 PM -99999.99 -179968 -100 -99999.99 -99999.99 -99999.99
10/27/2022 12:15:00 PM -99999.99 -179968 -100 -99999.99 -99999.99 -99999.99
10/27/2022 12:30:00 PM -99999.99 -179968 -100 -99999.99 -99999.99 -99999.99
10/27/2022 12:45:00 PM -99999.99 -179968 -100 -99999.99 -99999.99 -99999.99
10/27/2022 1:00:00 PM -99999.99 -179968 -100 -99999.99 -99999.99 -99999.99
10/27/2022 1:15:00 PM -99999.99 -179968 -100 -99999.99 -99999.99 -99999.99
10/27/2022 1:30:00 PM -99999.99 -179968 -100 -99999.99 -99999.99 -99999.99
10/27/2022 1:45:00 PM -99999.99 -179968 -100 -99999.99 -99999.99 -99999.99
10/27/2022 2:00:00 PM -99999.99 -179968 -100 -99999.99 -99999.99 -99999.99
10/27/2022 2:15:00 PM -99999.99 -179968 -100 -99999.99 -99999.99 -99999.99
10/27/2022 2:30:00 PM -99999.99 -179968 -100 -99999.99 -99999.99 -99999.99
10/27/2022 2:45:00 PM -99999.99 -179968 -100 -99999.99 -99999.99 -99999.99
10/27/2022 3:00:00 PM -99999.99 -179968 -100 -99999.99 -99999.99 -99999.99
10/27/2022 3:15:00 PM -99999.99 -179968 -100 -99999.99 -99999.99 -99999.99
10/27/2022 3:30:00 PM -99999.99 -179968 -100 -99999.99 -99999.99 -99999.99
10/27/2022 3:45:00 PM -99999.99 -179968 -100 -99999.99 -99999.99 -99999.99
10/27/2022 4:00:00 PM -99999.99 -179968 -100 -99999.99 -99999.99 -99999.99
10/27/2022 4:15:00 PM -99999.99 -179968 -100 -99999.99 -99999.99 -99999.99
10/27/2022 4:30:00 PM -99999.99 -179968 -100 -99999.99 -99999.99 -99999.99
10/27/2022 4:45:00 PM -99999.99 -179968 -100 -99999.99 -99999.99 -99999.99
10/27/2022 5:00:00 PM -99999.99 -179968 -100 -99999.99 -99999.99 -99999.99
10/27/2022 5:15:00 PM -99999.99 -179968 -100 -99999.99 -99999.99 -99999.99
10/27/2022 5:30:00 PM -99999.99 -179968 -100 -99999.99 -99999.99 -99999.99
10/27/2022 5:45:00 PM -99999.99 -179968 -100 -99999.99 -99999.99 -99999.99
10/27/2022 6:00:00 PM -99999.99 -179968 -100 -99999.99 -99999.99 -99999.99
10/27/2022 6:15:00 PM -99999.99 -179968 -100 -99999.99 -99999.99 -99999.99
10/27/2022 6:30:00 PM -99999.99 -179968 -100 -99999.99 -99999.99 -99999.99
10/27/2022 6:45:00 PM -99999.99 -179968 -100 -99999.99 -99999.99 -99999.99
10/27/2022 7:00:00 PM -99999.99 -179968 -100 -99999.99 -99999.99 -99999.99
10/27/2022 7:15:00 PM -99999.99 -179968 -100 -99999.99 -99999.99 -99999.99
10/27/2022 7:30:00 PM -99999.99 -179968 -100 -99999.99 -99999.99 -99999.99
10/27/2022 7:45:00 PM -99999.99 -179968 -100 -99999.99 -99999.99 -99999.99
10/27/2022 8:00:00 PM -99999.99 -179968 -100 -99999.99 -99999.99 -99999.99
10/27/2022 8:15:00 PM -99999.99 -179968 -100 -99999.99 -99999.99 -99999.99
10/27/2022 8:30:00 PM -99999.99 -179968 -100 -99999.99 -99999.99 -99999.99
10/27/2022 8:45:00 PM -99999.99 -179968 -100 -99999.99 -99999.99 -99999.99
10/27/2022 9:00:00 PM -99999.99 -179968 -100 -99999.99 -99999.99 -99999.99
10/27/2022 9:15:00 PM -99999.99 -179968 -100 -99999.99 -99999.99 -99999.99
10/27/2022 9:30:00 PM -99999.99 -179968 -100 -99999.99 -99999.99 -99999.99
10/27/2022 9:45:00 PM -99999.99 -179968 -100 -99999.99 -99999.99 -99999.99
10/27/2022 10:00:00 PM -99999.99 -179968 -100 -99999.99 -99999.99 -99999.99
10/27/2022 10:15:00 PM -99999.99 -179968 -100 -99999.99 -99999.99 -99999.99
10/27/2022 10:30:00 PM -99999.99 -179968 -100 -99999.99 -99999.99 -99999.99
10/27/2022 10:45:00 PM -99999.99 -179968 -100 -99999.99 -99999.99 -99999.99
10/27/2022 11:00:00 PM -99999.99 -179968 -100 -99999.99 -99999.99 -99999.99
10/27/2022 11:15:00 PM -99999.99 -179968 -100 -99999.99 -99999.99 -99999.99
10/27/2022 11:30:00 PM -99999.99 -179968 -100 -99999.99 -99999.99 -99999.99
10/27/2022 11:45:00 PM -99999.99 -179968 -100 -99999.99 -99999.99 -99999.99
10/28/2022 12:00:00 AM -99999.99 -179968 -100 -99999.99 -99999.99 -99999.99
10/28/2022 12:15:00 AM -99999.99 -179968 -100 -99999.99 -99999.99 -99999.99
10/28/2022 12:30:00 AM -99999.99 -179968 -100 -99999.99 -99999.99 -99999.99
10/28/2022 12:45:00 AM -99999.99 -179968 -100 -99999.99 -99999.99 -99999.99
10/28/2022 1:00:00 AM -99999.99 -179968 -100 -99999.99 -99999.99 -99999.99
10/28/2022 1:15:00 AM -99999.99 -179968 -100 -99999.99 -99999.99 -99999.99
10/28/2022 1:30:00 AM -99999.99 -179968 -100 -99999.99 -99999.99 -99999.99
10/28/2022 1:45:00 AM -99999.99 -179968 -100 -99999.99 -99999.99 -99999.99
10/28/2022 2:00:00 AM -99999.99 -179968 -100 -99999.99 -99999.99 -99999.99
10/28/2022 2:15:00 AM -99999.99 -179968 -100 -99999.99 -99999.99 -99999.99
10/28/2022 2:30:00 AM -99999.99 -179968 -100 -99999.99 -99999.99 -99999.99
10/28/2022 2:45:00 AM -99999.99 -179968 -100 -99999.99 -99999.99 -99999.99
10/28/2022 3:00:00 AM -99999.99 -179968 -100 -99999.99 -99999.99 -99999.99
10/28/2022 3:15:00 AM -99999.99 -179968 -100 -99999.99 -99999.99 -99999.99
10/28/2022 3:30:00 AM -99999.99 -179968 -100 -99999.99 -99999.99 -99999.99
10/28/2022 3:45:00 AM -99999.99 -179968 -100 -99999.99 -99999.99 -99999.99
10/28/2022 4:00:00 AM -99999.99 -179968 -100 -99999.99 -99999.99 -99999.99
10/28/2022 4:15:00 AM -99999.99 -179968 -100 -99999.99 -99999.99 -99999.99
10/28/2022 4:30:00 AM -99999.99 -179968 -100 -99999.99 -99999.99 -99999.99
10/28/2022 4:45:00 AM -99999.99 -179968 -100 -99999.99 -99999.99 -99999.99
10/28/2022 5:00:00 AM -99999.99 -179968 -100 -99999.99 -99999.99 -99999.99
10/28/2022 5:15:00 AM -99999.99 -179968 -100 -99999.99 -99999.99 -99999.99
10/28/2022 5:30:00 AM -99999.99 -179968 -100 -99999.99 -99999.99 -99999.99
10/28/2022 5:45:00 AM -99999.99 -179968 -100 -99999.99 -99999.99 -99999.99
10/28/2022 6:00:00 AM -99999.99 -179968 -100 -99999.99 -99999.99 -99999.99
10/28/2022 6:15:00 AM -99999.99 -179968 -100 -99999.99 -99999.99 -99999.99
10/28/2022 6:30:00 AM -99999.99 -179968 -100 -99999.99 -99999.99 -99999.99
10/28/2022 6:45:00 AM -99999.99 -179968 -100 -99999.99 -99999.99 -99999.99
10/28/2022 7:00:00 AM -99999.99 -179968 -100 -99999.99 -99999.99 -99999.99
10/28/2022 7:15:00 AM -99999.99 -179968 -100 -99999.99 -99999.99 -99999.99
10/28/2022 7:30:00 AM -99999.99 -179968 -100 -99999.99 -99999.99 -99999.99
10/28/2022 7:45:00 AM -99999.99 -179968 -100 -99999.99 -99999.99 -99999.99
10/28/2022 8:00:00 AM -99999.99 -179968 -100 -99999.99 -99999.99 -99999.99
10/28/2022 8:15:00 AM -99999.99 -179968 -100 -99999.99 -99999.99 -99999.99
10/28/2022 8:30:00 AM -99999.99 -179968 -100 -99999.99 -99999.99 -99999.99
10/28/2022 8:45:00 AM -99999.99 -179968 -100 -99999.99 -99999.99 -99999.99
10/28/2022 9:00:00 AM -99999.99 -179968 -100 -99999.99 -99999.99 -99999.99
10/28/2022 9:15:00 AM -99999.99 -179968 -100 -99999.99 -99999.99 -99999.99
10/28/2022 9:30:00 AM -99999.99 -179968 -100 -99999.99 -99999.99 -99999.99
10/28/2022 9:45:00 AM -99999.99 -179968 -100 -99999.99 -99999.99 -99999.99
10/28/2022 10:00:00 AM -99999.99 -179968 -100 -99999.99 -99999.99 -99999.99
10/28/2022 10:15:00 AM -99999.99 -179968 -100 -99999.99 -99999.99 -99999.99
10/28/2022 10:30:00 AM -99999.99 -179968 -100 -99999.99 -99999.99 -99999.99
10/28/2022 10:45:00 AM -99999.99 -179968 -100 -99999.99 -99999.99 -99999.99
10/28/2022 11:00:00 AM -99999.99 -179968 -100 -99999.99 -99999.99 -99999.99
10/28/2022 11:15:00 AM -99999.99 -179968 -100 -99999.99 -99999.99 -99999.99
10/28/2022 11:30:00 AM -99999.99 -179968 -100 -99999.99 -99999.99 -99999.99
10/28/2022 11:45:00 AM -99999.99 -179968 -100 -99999.99 -99999.99 -99999.99
10/28/2022 12:00:00 PM -99999.99 -179968 -100 -99999.99 -99999.99 -99999.99
10/28/2022 12:15:00 PM -99999.99 -179968 -100 -99999.99 -99999.99 -99999.99
10/28/2022 12:30:00 PM -99999.99 -179968 -100 -99999.99 -99999.99 -99999.99
10/28/2022 12:45:00 PM -99999.99 -179968 -100 -99999.99 -99999.99 -99999.99
10/28/2022 1:00:00 PM -99999.99 -179968 -100 -99999.99 -99999.99 -99999.99
10/28/2022 1:15:00 PM -99999.99 -179968 -100 -99999.99 -99999.99 -99999.99
10/28/2022 1:30:00 PM -99999.99 -179968 -100 -99999.99 -99999.99 -99999.99
10/28/2022 1:45:00 PM -99999.99 -179968 -100 -99999.99 -99999.99 -99999.99
10/28/2022 2:00:00 PM -99999.99 -179968 -100 -99999.99 -99999.99 -99999.99
10/28/2022 2:15:00 PM -99999.99 -179968 -100 -99999.99 -99999.99 -99999.99
10/28/2022 2:30:00 PM -99999.99 -179968 -100 -99999.99 -99999.99 -99999.99
10/28/2022 2:45:00 PM -99999.99 -179968 -100 -99999.99 -99999.99 -99999.99
10/28/2022 3:00:00 PM -99999.99 -179968 -100 -99999.99 -99999.99 -99999.99
10/28/2022 3:15:00 PM -99999.99 -179968 -100 -99999.99 -99999.99 -99999.99
10/28/2022 3:30:00 PM -99999.99 -179968 -100 -99999.99 -99999.99 -99999.99
10/28/2022 3:45:00 PM -99999.99 -179968 -100 -99999.99 -99999.99 -99999.99
10/28/2022 4:00:00 PM -99999.99 -179968 -100 -99999.99 -99999.99 -99999.99
10/28/2022 4:15:00 PM -99999.99 -179968 -100 -99999.99 -99999.99 -99999.99
10/28/2022 4:30:00 PM -99999.99 -179968 -100 -99999.99 -99999.99 -99999.99
10/28/2022 4:45:00 PM -99999.99 -179968 -100 -99999.99 -99999.99 -99999.99
10/28/2022 5:00:00 PM -99999.99 -179968 -100 -99999.99 -99999.99 -99999.99
10/28/2022 5:15:00 PM -99999.99 -179968 -100 -99999.99 -99999.99 -99999.99
10/28/2022 5:30:00 PM -99999.99 -179968 -100 -99999.99 -99999.99 -99999.99
10/28/2022 5:45:00 PM -99999.99 -179968 -100 -99999.99 -99999.99 -99999.99
10/28/2022 6:00:00 PM -99999.99 -179968 -100 -99999.99 -99999.99 -99999.99
10/28/2022 6:15:00 PM -99999.99 -179968 -100 -99999.99 -99999.99 -99999.99
10/28/2022 6:30:00 PM -99999.99 -179968 -100 -99999.99 -99999.99 -99999.99
10/28/2022 6:45:00 PM -99999.99 -179968 -100 -99999.99 -99999.99 -99999.99
10/28/2022 7:00:00 PM -99999.99 -179968 -100 -99999.99 -99999.99 -99999.99
10/28/2022 7:15:00 PM -99999.99 -179968 -100 -99999.99 -99999.99 -99999.99
10/28/2022 7:30:00 PM -99999.99 -179968 -100 -99999.99 -99999.99 -99999.99
10/28/2022 7:45:00 PM -99999.99 -179968 -100 -99999.99 -99999.99 -99999.99
10/28/2022 8:00:00 PM -99999.99 -179968 -100 -99999.99 -99999.99 -99999.99
10/28/2022 8:15:00 PM -99999.99 -179968 -100 -99999.99 -99999.99 -99999.99
10/28/2022 8:30:00 PM -99999.99 -179968 -100 -99999.99 -99999.99 -99999.99
10/28/2022 8:45:00 PM -99999.99 -179968 -100 -99999.99 -99999.99 -99999.99
10/28/2022 9:00:00 PM -99999.99 -179968 -100 -99999.99 -99999.99 -99999.99
10/28/2022 9:15:00 PM -99999.99 -179968 -100 -99999.99 -99999.99 -99999.99
10/28/2022 9:30:00 PM -99999.99 -179968 -100 -99999.99 -99999.99 -99999.99
10/28/2022 9:45:00 PM -99999.99 -179968 -100 -99999.99 -99999.99 -99999.99
10/28/2022 10:00:00 PM -99999.99 -179968 -100 -99999.99 -99999.99 -99999.99
10/28/2022 10:15:00 PM -99999.99 -179968 -100 -99999.99 -99999.99 -99999.99
10/28/2022 10:30:00 PM -99999.99 -179968 -100 -99999.99 -99999.99 -99999.99
10/28/2022 10:45:00 PM -99999.99 -179968 -100 -99999.99 -99999.99 -99999.99
10/28/2022 11:00:00 PM -99999.99 -179968 -100 -99999.99 -99999.99 -99999.99
10/28/2022 11:15:00 PM -99999.99 -179968 -100 -99999.99 -99999.99 -99999.99
10/28/2022 11:30:00 PM -99999.99 -179968 -100 -99999.99 -99999.99 -99999.99
10/28/2022 11:45:00 PM -99999.99 -179968 -100 -99999.99 -99999.99 -99999.99
10/29/2022 12:00:00 AM -99999.99 -179968 -100 -99999.99 -99999.99 -99999.99
10/29/2022 12:15:00 AM -99999.99 -179968 -100 -99999.99 -99999.99 -99999.99
10/29/2022 12:30:00 AM -99999.99 -179968 -100 -99999.99 -99999.99 -99999.99
10/29/2022 12:45:00 AM -99999.99 -179968 -100 -99999.99 -99999.99 -99999.99
10/29/2022 1:00:00 AM -99999.99 -179968 -100 -99999.99 -99999.99 -99999.99
10/29/2022 1:15:00 AM -99999.99 -179968 -100 -99999.99 -99999.99 -99999.99
10/29/2022 1:30:00 AM -99999.99 -179968 -100 -99999.99 -99999.99 -99999.99
10/29/2022 1:45:00 AM -99999.99 -179968 -100 -99999.99 -99999.99 -99999.99
10/29/2022 2:00:00 AM -99999.99 -179968 -100 -99999.99 -99999.99 -99999.99
10/29/2022 2:15:00 AM -99999.99 -179968 -100 -99999.99 -99999.99 -99999.99
10/29/2022 2:30:00 AM -99999.99 -179968 -100 -99999.99 -99999.99 -99999.99
10/29/2022 2:45:00 AM -99999.99 -179968 -100 -99999.99 -99999.99 -99999.99
10/29/2022 3:00:00 AM -99999.99 -179968 -100 -99999.99 -99999.99 -99999.99
10/29/2022 3:15:00 AM -99999.99 -179968 -100 -99999.99 -99999.99 -99999.99
10/29/2022 3:30:00 AM -99999.99 -179968 -100 -99999.99 -99999.99 -99999.99
10/29/2022 3:45:00 AM -99999.99 -179968 -100 -99999.99 -99999.99 -99999.99
10/29/2022 4:00:00 AM -99999.99 -179968 -100 -99999.99 -99999.99 -99999.99
10/29/2022 4:15:00 AM -99999.99 -179968 -100 -99999.99 -99999.99 -99999.99
10/29/2022 4:30:00 AM -99999.99 -179968 -100 -99999.99 -99999.99 -99999.99
10/29/2022 4:45:00 AM -99999.99 -179968 -100 -99999.99 -99999.99 -99999.99
10/29/2022 5:00:00 AM -99999.99 -179968 -100 -99999.99 -99999.99 -99999.99
10/29/2022 5:15:00 AM -99999.99 -179968 -100 -99999.99 -99999.99 -99999.99
10/29/2022 5:30:00 AM -99999.99 -179968 -100 -99999.99 -99999.99 -99999.99
10/29/2022 5:45:00 AM -99999.99 -179968 -100 -99999.99 -99999.99 -99999.99
10/29/2022 6:00:00 AM -99999.99 -179968 -100 -99999.99 -99999.99 -99999.99
10/29/2022 6:15:00 AM -99999.99 -179968 -100 -99999.99 -99999.99 -99999.99
10/29/2022 6:30:00 AM -99999.99 -179968 -100 -99999.99 -99999.99 -99999.99
10/29/2022 6:45:00 AM -99999.99 -179968 -100 -99999.99 -99999.99 -99999.99
10/29/2022 7:00:00 AM -99999.99 -179968 -100 -99999.99 -99999.99 -99999.99
10/29/2022 7:15:00 AM -99999.99 -179968 -100 -99999.99 -99999.99 -99999.99
10/29/2022 7:30:00 AM -99999.99 -179968 -100 -99999.99 -99999.99 -99999.99
10/29/2022 7:45:00 AM -99999.99 -179968 -100 -99999.99 -99999.99 -99999.99
10/29/2022 8:00:00 AM -99999.99 -179968 -100 -99999.99 -99999.99 -99999.99
10/29/2022 8:15:00 AM -99999.99 -179968 -100 -99999.99 -99999.99 -99999.99
10/29/2022 8:30:00 AM -99999.99 -179968 -100 -99999.99 -99999.99 -99999.99
10/29/2022 8:45:00 AM -99999.99 -179968 -100 -99999.99 -99999.99 -99999.99
10/29/2022 9:00:00 AM -99999.99 -179968 -100 -99999.99 -99999.99 -99999.99
10/29/2022 9:15:00 AM -99999.99 -179968 -100 -99999.99 -99999.99 -99999.99
10/29/2022 9:30:00 AM -99999.99 -179968 -100 -99999.99 -99999.99 -99999.99
10/29/2022 9:45:00 AM -99999.99 -179968 -100 -99999.99 -99999.99 -99999.99
10/29/2022 10:00:00 AM -99999.99 -179968 -100 -99999.99 -99999.99 -99999.99
10/29/2022 10:15:00 AM -99999.99 -179968 -100 -99999.99 -99999.99 -99999.99
10/29/2022 10:30:00 AM -99999.99 -179968 -100 -99999.99 -99999.99 -99999.99
10/29/2022 10:45:00 AM -99999.99 -179968 -100 -99999.99 -99999.99 -99999.99
10/29/2022 11:00:00 AM -99999.99 -179968 -100 -99999.99 -99999.99 -99999.99
10/29/2022 11:15:00 AM -99999.99 -179968 -100 -99999.99 -99999.99 -99999.99
10/29/2022 11:30:00 AM -99999.99 -179968 -100 -99999.99 -99999.99 -99999.99
10/29/2022 11:45:00 AM -99999.99 -179968 -100 -99999.99 -99999.99 -99999.99
10/29/2022 12:00:00 PM -99999.99 -179968 -100 -99999.99 -99999.99 -99999.99
10/29/2022 12:15:00 PM -99999.99 -179968 -100 -99999.99 -99999.99 -99999.99
10/29/2022 12:30:00 PM -99999.99 -179968 -100 -99999.99 -99999.99 -99999.99
10/29/2022 12:45:00 PM -99999.99 -179968 -100 -99999.99 -99999.99 -99999.99
10/29/2022 1:00:00 PM -99999.99 -179968 -100 -99999.99 -99999.99 -99999.99
10/29/2022 1:15:00 PM -99999.99 -179968 -100 -99999.99 -99999.99 -99999.99
10/29/2022 1:30:00 PM -99999.99 -179968 -100 -99999.99 -99999.99 -99999.99
10/29/2022 1:45:00 PM -99999.99 -179968 -100 -99999.99 -99999.99 -99999.99
10/29/2022 2:00:00 PM -99999.99 -179968 -100 -99999.99 -99999.99 -99999.99
10/29/2022 2:15:00 PM -99999.99 -179968 -100 -99999.99 -99999.99 -99999.99
10/29/2022 2:30:00 PM -99999.99 -179968 -100 -99999.99 -99999.99 -99999.99
10/29/2022 2:45:00 PM -99999.99 -179968 -100 -99999.99 -99999.99 -99999.99
10/29/2022 3:00:00 PM -99999.99 -179968 -100 -99999.99 -99999.99 -99999.99
10/29/2022 3:15:00 PM -99999.99 -179968 -100 -99999.99 -99999.99 -99999.99
10/29/2022 3:30:00 PM -99999.99 -179968 -100 -99999.99 -99999.99 -99999.99
10/29/2022 3:45:00 PM -99999.99 -179968 -100 -99999.99 -99999.99 -99999.99
10/29/2022 4:00:00 PM -99999.99 -179968 -100 -99999.99 -99999.99 -99999.99
10/29/2022 4:15:00 PM -99999.99 -179968 -100 -99999.99 -99999.99 -99999.99
10/29/2022 4:30:00 PM -99999.99 -179968 -100 -99999.99 -99999.99 -99999.99
10/29/2022 4:45:00 PM -99999.99 -179968 -100 -99999.99 -99999.99 -99999.99
10/29/2022 5:00:00 PM -99999.99 -179968 -100 -99999.99 -99999.99 -99999.99
10/29/2022 5:15:00 PM -99999.99 -179968 -100 -99999.99 -99999.99 -99999.99
10/29/2022 5:30:00 PM -99999.99 -179968 -100 -99999.99 -99999.99 -99999.99
10/29/2022 5:45:00 PM -99999.99 -179968 -100 -99999.99 -99999.99 -99999.99
10/29/2022 6:00:00 PM -99999.99 -179968 -100 -99999.99 -99999.99 -99999.99
10/29/2022 6:15:00 PM -99999.99 -179968 -100 -99999.99 -99999.99 -99999.99
10/29/2022 6:30:00 PM -99999.99 -179968 -100 -99999.99 -99999.99 -99999.99
10/29/2022 6:45:00 PM -99999.99 -179968 -100 -99999.99 -99999.99 -99999.99
10/29/2022 7:00:00 PM -99999.99 -179968 -100 -99999.99 -99999.99 -99999.99
10/29/2022 7:15:00 PM -99999.99 -179968 -100 -99999.99 -99999.99 -99999.99
10/29/2022 7:30:00 PM -99999.99 -179968 -100 -99999.99 -99999.99 -99999.99
10/29/2022 7:45:00 PM -99999.99 -179968 -100 -99999.99 -99999.99 -99999.99
10/29/2022 8:00:00 PM -99999.99 -179968 -100 -99999.99 -99999.99 -99999.99
10/29/2022 8:15:00 PM -99999.99 -179968 -100 -99999.99 -99999.99 -99999.99
10/29/2022 8:30:00 PM -99999.99 -179968 -100 -99999.99 -99999.99 -99999.99
10/29/2022 8:45:00 PM -99999.99 -179968 -100 -99999.99 -99999.99 -99999.99
10/29/2022 9:00:00 PM -99999.99 -179968 -100 -99999.99 -99999.99 -99999.99
10/29/2022 9:15:00 PM -99999.99 -179968 -100 -99999.99 -99999.99 -99999.99
10/29/2022 9:30:00 PM -99999.99 -179968 -100 -99999.99 -99999.99 -99999.99
10/29/2022 9:45:00 PM -99999.99 -179968 -100 -99999.99 -99999.99 -99999.99
10/29/2022 10:00:00 PM -99999.99 -179968 -100 -99999.99 -99999.99 -99999.99
10/29/2022 10:15:00 PM -99999.99 -179968 -100 -99999.99 -99999.99 -99999.99
10/29/2022 10:30:00 PM -99999.99 -179968 -100 -99999.99 -99999.99 -99999.99
10/29/2022 10:45:00 PM -99999.99 -179968 -100 -99999.99 -99999.99 -99999.99
10/29/2022 11:00:00 PM -99999.99 -179968 -100 -99999.99 -99999.99 -99999.99
10/29/2022 11:15:00 PM -99999.99 -179968 -100 -99999.99 -99999.99 -99999.99
10/29/2022 11:30:00 PM -99999.99 -179968 -100 -99999.99 -99999.99 -99999.99
10/29/2022 11:45:00 PM -99999.99 -179968 -100 -99999.99 -99999.99 -99999.99
10/30/2022 12:00:00 AM -99999.99 -179968 -100 -99999.99 -99999.99 -99999.99
10/30/2022 12:15:00 AM -99999.99 -179968 -100 -99999.99 -99999.99 -99999.99
10/30/2022 12:30:00 AM -99999.99 -179968 -100 -99999.99 -99999.99 -99999.99
10/30/2022 12:45:00 AM -99999.99 -179968 -100 -99999.99 -99999.99 -99999.99
10/30/2022 1:00:00 AM -99999.99 -179968 -100 -99999.99 -99999.99 -99999.99
10/30/2022 1:15:00 AM -99999.99 -179968 -100 -99999.99 -99999.99 -99999.99
10/30/2022 1:30:00 AM -99999.99 -179968 -100 -99999.99 -99999.99 -99999.99
10/30/2022 1:45:00 AM -99999.99 -179968 -100 -99999.99 -99999.99 -99999.99
10/30/2022 2:00:00 AM -99999.99 -179968 -100 -99999.99 -99999.99 -99999.99
10/30/2022 2:15:00 AM -99999.99 -179968 -100 -99999.99 -99999.99 -99999.99
10/30/2022 2:30:00 AM -99999.99 -179968 -100 -99999.99 -99999.99 -99999.99
10/30/2022 2:45:00 AM -99999.99 -179968 -100 -99999.99 -99999.99 -99999.99
10/30/2022 3:00:00 AM -99999.99 -179968 -100 -99999.99 -99999.99 -99999.99
10/30/2022 3:15:00 AM -99999.99 -179968 -100 -99999.99 -99999.99 -99999.99
10/30/2022 3:30:00 AM -99999.99 -179968 -100 -99999.99 -99999.99 -99999.99
10/30/2022 3:45:00 AM -99999.99 -179968 -100 -99999.99 -99999.99 -99999.99
10/30/2022 4:00:00 AM -99999.99 -179968 -100 -99999.99 -99999.99 -99999.99
10/30/2022 4:15:00 AM -99999.99 -179968 -100 -99999.99 -99999.99 -99999.99
10/30/2022 4:30:00 AM -99999.99 -179968 -100 -99999.99 -99999.99 -99999.99
10/30/2022 4:45:00 AM -99999.99 -179968 -100 -99999.99 -99999.99 -99999.99
10/30/2022 5:00:00 AM -99999.99 -179968 -100 -99999.99 -99999.99 -99999.99
10/30/2022 5:15:00 AM -99999.99 -179968 -100 -99999.99 -99999.99 -99999.99
10/30/2022 5:30:00 AM -99999.99 -179968 -100 -99999.99 -99999.99 -99999.99
10/30/2022 5:45:00 AM -99999.99 -179968 -100 -99999.99 -99999.99 -99999.99
10/30/2022 6:00:00 AM -99999.99 -179968 -100 -99999.99 -99999.99 -99999.99
10/30/2022 6:15:00 AM -99999.99 -179968 -100 -99999.99 -99999.99 -99999.99
10/30/2022 6:30:00 AM -99999.99 -179968 -100 -99999.99 -99999.99 -99999.99
10/30/2022 6:45:00 AM -99999.99 -179968 -100 -99999.99 -99999.99 -99999.99
10/30/2022 7:00:00 AM -99999.99 -179968 -100 -99999.99 -99999.99 -99999.99
10/30/2022 7:15:00 AM -99999.99 -179968 -100 -99999.99 -99999.99 -99999.99
10/30/2022 7:30:00 AM -99999.99 -179968 -100 -99999.99 -99999.99 -99999.99
10/30/2022 7:45:00 AM -99999.99 -179968 -100 -99999.99 -99999.99 -99999.99
10/30/2022 8:00:00 AM -99999.99 -179968 -100 -99999.99 -99999.99 -99999.99
10/30/2022 8:15:00 AM -99999.99 -179968 -100 -99999.99 -99999.99 -99999.99
10/30/2022 8:30:00 AM -99999.99 -179968 -100 -99999.99 -99999.99 -99999.99
10/30/2022 8:45:00 AM -99999.99 -179968 -100 -99999.99 -99999.99 -99999.99
10/30/2022 9:00:00 AM -99999.99 -179968 -100 -99999.99 -99999.99 -99999.99
10/30/2022 9:15:00 AM -99999.99 -179968 -100 -99999.99 -99999.99 -99999.99
10/30/2022 9:30:00 AM -99999.99 -179968 -100 -99999.99 -99999.99 -99999.99
10/30/2022 9:45:00 AM -99999.99 -179968 -100 -99999.99 -99999.99 -99999.99
10/30/2022 10:00:00 AM -99999.99 -179968 -100 -99999.99 -99999.99 -99999.99
10/30/2022 10:15:00 AM -99999.99 -179968 -100 -99999.99 -99999.99 -99999.99
10/30/2022 10:30:00 AM -99999.99 -179968 -100 -99999.99 -99999.99 -99999.99
10/30/2022 10:45:00 AM -99999.99 -179968 -100 -99999.99 -99999.99 -99999.99
10/30/2022 11:00:00 AM -99999.99 -179968 -100 -99999.99 -99999.99 -99999.99
10/30/2022 11:15:00 AM -99999.99 -179968 -100 -99999.99 -99999.99 -99999.99
10/30/2022 11:30:00 AM -99999.99 -179968 -100 -99999.99 -99999.99 -99999.99
10/30/2022 11:45:00 AM -99999.99 -179968 -100 -99999.99 -99999.99 -99999.99
10/30/2022 12:00:00 PM -99999.99 -179968 -100 -99999.99 -99999.99 -99999.99
10/30/2022 12:15:00 PM -99999.99 -179968 -100 -99999.99 -99999.99 -99999.99
10/30/2022 12:30:00 PM -99999.99 -179968 -100 -99999.99 -99999.99 -99999.99
10/30/2022 12:45:00 PM -99999.99 -179968 -100 -99999.99 -99999.99 -99999.99
10/30/2022 1:00:00 PM -99999.99 -179968 -100 -99999.99 -99999.99 -99999.99
10/30/2022 1:15:00 PM -99999.99 -179968 -100 -99999.99 -99999.99 -99999.99
10/30/2022 1:30:00 PM -99999.99 -179968 -100 -99999.99 -99999.99 -99999.99
10/30/2022 1:45:00 PM -99999.99 -179968 -100 -99999.99 -99999.99 -99999.99
10/30/2022 2:00:00 PM -99999.99 -179968 -100 -99999.99 -99999.99 -99999.99
10/30/2022 2:15:00 PM -99999.99 -179968 -100 -99999.99 -99999.99 -99999.99
10/30/2022 2:30:00 PM -99999.99 -179968 -100 -99999.99 -99999.99 -99999.99
10/30/2022 2:45:00 PM -99999.99 -179968 -100 -99999.99 -99999.99 -99999.99
10/30/2022 3:00:00 PM -99999.99 -179968 -100 -99999.99 -99999.99 -99999.99
10/30/2022 3:15:00 PM -99999.99 -179968 -100 -99999.99 -99999.99 -99999.99
10/30/2022 3:30:00 PM -99999.99 -179968 -100 -99999.99 -99999.99 -99999.99
10/30/2022 3:45:00 PM -99999.99 -179968 -100 -99999.99 -99999.99 -99999.99
10/30/2022 4:00:00 PM -99999.99 -179968 -100 -99999.99 -99999.99 -99999.99
10/30/2022 4:15:00 PM -99999.99 -179968 -100 -99999.99 -99999.99 -99999.99
10/30/2022 4:30:00 PM -99999.99 -179968 -100 -99999.99 -99999.99 -99999.99
10/30/2022 4:45:00 PM -99999.99 -179968 -100 -99999.99 -99999.99 -99999.99
10/30/2022 5:00:00 PM -99999.99 -179968 -100 -99999.99 -99999.99 -99999.99
10/30/2022 5:15:00 PM -99999.99 -179968 -100 -99999.99 -99999.99 -99999.99
10/30/2022 5:30:00 PM -99999.99 -179968 -100 -99999.99 -99999.99 -99999.99
10/30/2022 5:45:00 PM -99999.99 -179968 -100 -99999.99 -99999.99 -99999.99
10/30/2022 6:00:00 PM -99999.99 -179968 -100 -99999.99 -99999.99 -99999.99
10/30/2022 6:15:00 PM -99999.99 -179968 -100 -99999.99 -99999.99 -99999.99
10/30/2022 6:30:00 PM -99999.99 -179968 -100 -99999.99 -99999.99 -99999.99
10/30/2022 6:45:00 PM -99999.99 -179968 -100 -99999.99 -99999.99 -99999.99
10/30/2022 7:00:00 PM -99999.99 -179968 -100 -99999.99 -99999.99 -99999.99
10/30/2022 7:15:00 PM -99999.99 -179968 -100 -99999.99 -99999.99 -99999.99
10/30/2022 7:30:00 PM -99999.99 -179968 -100 -99999.99 -99999.99 -99999.99
10/30/2022 7:45:00 PM -99999.99 -179968 -100 -99999.99 -99999.99 -99999.99
10/30/2022 8:00:00 PM -99999.99 -179968 -100 -99999.99 -99999.99 -99999.99
10/30/2022 8:15:00 PM -99999.99 -179968 -100 -99999.99 -99999.99 -99999.99
10/30/2022 8:30:00 PM -99999.99 -179968 -100 -99999.99 -99999.99 -99999.99
10/30/2022 8:45:00 PM -99999.99 -179968 -100 -99999.99 -99999.99 -99999.99
10/30/2022 9:00:00 PM -99999.99 -179968 -100 -99999.99 -99999.99 -99999.99
10/30/2022 9:15:00 PM -99999.99 -179968 -100 -99999.99 -99999.99 -99999.99
10/30/2022 9:30:00 PM -99999.99 -179968 -100 -99999.99 -99999.99 -99999.99
10/30/2022 9:45:00 PM -99999.99 -179968 -100 -99999.99 -99999.99 -99999.99
10/30/2022 10:00:00 PM -99999.99 -179968 -100 -99999.99 -99999.99 -99999.99
10/30/2022 10:15:00 PM -99999.99 -179968 -100 -99999.99 -99999.99 -99999.99
10/30/2022 10:30:00 PM -99999.99 -179968 -100 -99999.99 -99999.99 -99999.99
10/30/2022 10:45:00 PM -99999.99 -179968 -100 -99999.99 -99999.99 -99999.99
10/30/2022 11:00:00 PM -99999.99 -179968 -100 -99999.99 -99999.99 -99999.99
10/30/2022 11:15:00 PM -99999.99 -179968 -100 -99999.99 -99999.99 -99999.99
10/30/2022 11:30:00 PM -99999.99 -179968 -100 -99999.99 -99999.99 -99999.99
10/30/2022 11:45:00 PM -99999.99 -179968 -100 -99999.99 -99999.99 -99999.99
10/31/2022 12:00:00 AM -99999.99 -179968 -100 -99999.99 -99999.99 -99999.99
10/31/2022 12:15:00 AM -99999.99 -179968 -100 -99999.99 -99999.99 -99999.99
10/31/2022 12:30:00 AM -99999.99 -179968 -100 -99999.99 -99999.99 -99999.99
10/31/2022 12:45:00 AM -99999.99 -179968 -100 -99999.99 -99999.99 -99999.99
10/31/2022 1:00:00 AM -99999.99 -179968 -100 -99999.99 -99999.99 -99999.99
10/31/2022 1:15:00 AM -99999.99 -179968 -100 -99999.99 -99999.99 -99999.99
10/31/2022 1:30:00 AM -99999.99 -179968 -100 -99999.99 -99999.99 -99999.99
10/31/2022 1:45:00 AM -99999.99 -179968 -100 -99999.99 -99999.99 -99999.99
10/31/2022 2:00:00 AM -99999.99 -179968 -100 -99999.99 -99999.99 -99999.99
10/31/2022 2:15:00 AM -99999.99 -179968 -100 -99999.99 -99999.99 -99999.99
10/31/2022 2:30:00 AM -99999.99 -179968 -100 -99999.99 -99999.99 -99999.99
10/31/2022 2:45:00 AM -99999.99 -179968 -100 -99999.99 -99999.99 -99999.99
10/31/2022 3:00:00 AM -99999.99 -179968 -100 -99999.99 -99999.99 -99999.99
10/31/2022 3:15:00 AM -99999.99 -179968 -100 -99999.99 -99999.99 -99999.99
10/31/2022 3:30:00 AM -99999.99 -179968 -100 -99999.99 -99999.99 -99999.99
10/31/2022 3:45:00 AM -99999.99 -179968 -100 -99999.99 -99999.99 -99999.99
10/31/2022 4:00:00 AM -99999.99 -179968 -100 -99999.99 -99999.99 -99999.99
10/31/2022 4:15:00 AM -99999.99 -179968 -100 -99999.99 -99999.99 -99999.99
10/31/2022 4:30:00 AM -99999.99 -179968 -100 -99999.99 -99999.99 -99999.99
10/31/2022 4:45:00 AM -99999.99 -179968 -100 -99999.99 -99999.99 -99999.99
10/31/2022 5:00:00 AM -99999.99 -179968 -100 -99999.99 -99999.99 -99999.99
10/31/2022 5:15:00 AM -99999.99 -179968 -100 -99999.99 -99999.99 -99999.99
10/31/2022 5:30:00 AM -99999.99 -179968 -100 -99999.99 -99999.99 -99999.99
10/31/2022 5:45:00 AM -99999.99 -179968 -100 -99999.99 -99999.99 -99999.99
10/31/2022 6:00:00 AM -99999.99 -179968 -100 -99999.99 -99999.99 -99999.99
10/31/2022 6:15:00 AM -99999.99 -179968 -100 -99999.99 -99999.99 -99999.99
10/31/2022 6:30:00 AM -99999.99 -179968 -100 -99999.99 -99999.99 -99999.99
10/31/2022 6:45:00 AM -99999.99 -179968 -100 -99999.99 -99999.99 -99999.99
10/31/2022 7:00:00 AM -99999.99 -179968 -100 -99999.99 -99999.99 -99999.99
10/31/2022 7:15:00 AM -99999.99 -179968 -100 -99999.99 -99999.99 -99999.99
10/31/2022 7:30:00 AM -99999.99 -179968 -100 -99999.99 -99999.99 -99999.99
10/31/2022 7:45:00 AM -99999.99 -179968 -100 -99999.99 -99999.99 -99999.99
10/31/2022 8:00:00 AM -99999.99 -179968 -100 -99999.99 -99999.99 -99999.99
10/31/2022 8:15:00 AM -99999.99 -179968 -100 -99999.99 -99999.99 -99999.99
10/31/2022 8:30:00 AM -99999.99 -179968 -100 -99999.99 -99999.99 -99999.99
10/31/2022 8:45:00 AM -99999.99 -179968 -100 -99999.99 -99999.99 -99999.99
10/31/2022 9:00:00 AM -99999.99 -179968 -100 -99999.99 -99999.99 -99999.99
10/31/2022 9:15:00 AM -99999.99 -179968 -100 -99999.99 -99999.99 -99999.99
10/31/2022 9:30:00 AM -99999.99 -179968 -100 -99999.99 -99999.99 -99999.99
10/31/2022 9:45:00 AM -99999.99 -179968 -100 -99999.99 -99999.99 -99999.99
10/31/2022 10:00:00 AM -99999.99 -179968 -100 -99999.99 -99999.99 -99999.99
10/31/2022 10:15:00 AM -99999.99 -179968 -100 -99999.99 -99999.99 -99999.99
10/31/2022 10:30:00 AM -99999.99 -179968 -100 -99999.99 -99999.99 -99999.99
10/31/2022 10:45:00 AM -99999.99 -179968 -100 -99999.99 -99999.99 -99999.99
10/31/2022 11:00:00 AM -99999.99 -179968 -100 -99999.99 -99999.99 -99999.99
10/31/2022 11:15:00 AM -99999.99 -179968 -100 -99999.99 -99999.99 -99999.99
10/31/2022 11:30:00 AM -99999.99 -179968 -100 -99999.99 -99999.99 -99999.99
10/31/2022 11:45:00 AM -99999.99 -179968 -100 -99999.99 -99999.99 -99999.99
10/31/2022 12:00:00 PM -99999.99 -179968 -100 -99999.99 -99999.99 -99999.99
10/31/2022 12:15:00 PM -99999.99 -179968 -100 -99999.99 -99999.99 -99999.99
10/31/2022 12:30:00 PM -99999.99 -179968 -100 -99999.99 -99999.99 -99999.99
10/31/2022 12:45:00 PM -99999.99 -179968 -100 -99999.99 -99999.99 -99999.99
10/31/2022 1:00:00 PM -99999.99 -179968 -100 -99999.99 -99999.99 -99999.99
10/31/2022 1:15:00 PM -99999.99 -179968 -100 -99999.99 -99999.99 -99999.99
10/31/2022 1:30:00 PM -99999.99 -179968 -100 -99999.99 -99999.99 -99999.99
10/31/2022 1:45:00 PM -99999.99 -179968 -100 -99999.99 -99999.99 -99999.99
10/31/2022 2:00:00 PM -99999.99 -179968 -100 -99999.99 -99999.99 -99999.99
10/31/2022 2:15:00 PM -99999.99 -179968 -100 -99999.99 -99999.99 -99999.99
10/31/2022 2:30:00 PM -99999.99 -179968 -100 -99999.99 -99999.99 -99999.99
10/31/2022 2:45:00 PM -99999.99 -179968 -100 -99999.99 -99999.99 -99999.99
10/31/2022 3:00:00 PM -99999.99 -179968 -100 -99999.99 -99999.99 -99999.99
10/31/2022 3:15:00 PM -99999.99 -179968 -100 -99999.99 -99999.99 -99999.99
10/31/2022 3:30:00 PM -99999.99 -179968 -100 -99999.99 -99999.99 -99999.99
10/31/2022 3:45:00 PM -99999.99 -179968 -100 -99999.99 -99999.99 -99999.99
10/31/2022 4:00:00 PM -99999.99 -179968 -100 -99999.99 -99999.99 -99999.99
10/31/2022 4:15:00 PM -99999.99 -179968 -100 -99999.99 -99999.99 -99999.99
10/31/2022 4:30:00 PM -99999.99 -179968 -100 -99999.99 -99999.99 -99999.99
10/31/2022 4:45:00 PM -99999.99 -179968 -100 -99999.99 -99999.99 -99999.99
10/31/2022 5:00:00 PM -99999.99 -179968 -100 -99999.99 -99999.99 -99999.99
10/31/2022 5:15:00 PM -99999.99 -179968 -100 -99999.99 -99999.99 -99999.99
10/31/2022 5:30:00 PM -99999.99 -179968 -100 -99999.99 -99999.99 -99999.99
10/31/2022 5:45:00 PM -99999.99 -179968 -100 -99999.99 -99999.99 -99999.99
10/31/2022 6:00:00 PM -99999.99 -179968 -100 -99999.99 -99999.99 -99999.99
10/31/2022 6:15:00 PM -99999.99 -179968 -100 -99999.99 -99999.99 -99999.99
10/31/2022 6:30:00 PM -99999.99 -179968 -100 -99999.99 -99999.99 -99999.99
10/31/2022 6:45:00 PM -99999.99 -179968 -100 -99999.99 -99999.99 -99999.99
10/31/2022 7:00:00 PM -99999.99 -179968 -100 -99999.99 -99999.99 -99999.99
10/31/2022 7:15:00 PM -99999.99 -179968 -100 -99999.99 -99999.99 -99999.99
10/31/2022 7:30:00 PM -99999.99 -179968 -100 -99999.99 -99999.99 -99999.99
10/31/2022 7:45:00 PM -99999.99 -179968 -100 -99999.99 -99999.99 -99999.99
10/31/2022 8:00:00 PM -99999.99 -179968 -100 -99999.99 -99999.99 -99999.99
10/31/2022 8:15:00 PM -99999.99 -179968 -100 -99999.99 -99999.99 -99999.99
10/31/2022 8:30:00 PM -99999.99 -179968 -100 -99999.99 -99999.99 -99999.99
10/31/2022 8:45:00 PM -99999.99 -179968 -100 -99999.99 -99999.99 -99999.99
10/31/2022 9:00:00 PM -99999.99 -179968 -100 -99999.99 -99999.99 -99999.99
10/31/2022 9:15:00 PM -99999.99 -179968 -100 -99999.99 -99999.99 -99999.99
10/31/2022 9:30:00 PM -99999.99 -179968 -100 -99999.99 -99999.99 -99999.99
10/31/2022 9:45:00 PM -99999.99 -179968 -100 -99999.99 -99999.99 -99999.99
10/31/2022 10:00:00 PM -99999.99 -179968 -100 -99999.99 -99999.99 -99999.99
10/31/2022 10:15:00 PM -99999.99 -179968 -100 -99999.99 -99999.99 -99999.99
10/31/2022 10:30:00 PM -99999.99 -179968 -100 -99999.99 -99999.99 -99999.99
10/31/2022 10:45:00 PM -99999.99 -179968 -100 -99999.99 -99999.99 -99999.99
10/31/2022 11:00:00 PM -99999.99 -179968 -100 -99999.99 -99999.99 -99999.99
10/31/2022 11:15:00 PM -99999.99 -179968 -100 -99999.99 -99999.99 -99999.99
10/31/2022 11:30:00 PM -99999.99 -179968 -100 -99999.99 -99999.99 -99999.99
10/31/2022 11:45:00 PM -99999.99 -179968 -100 -99999.99 -99999.99 -99999.99
11/1/2022 12:00:00 AM -99999.99 -179968 -100 -99999.99 -99999.99 -99999.99
11/1/2022 12:15:00 AM -99999.99 -179968 -100 -99999.99 -99999.99 -99999.99
11/1/2022 12:30:00 AM -99999.99 -179968 -100 -99999.99 -99999.99 -99999.99
11/1/2022 12:45:00 AM -99999.99 -179968 -100 -99999.99 -99999.99 -99999.99
11/1/2022 1:00:00 AM -99999.99 -179968 -100 -99999.99 -99999.99 -99999.99
11/1/2022 1:15:00 AM -99999.99 -179968 -100 -99999.99 -99999.99 -99999.99
11/1/2022 1:30:00 AM -99999.99 -179968 -100 -99999.99 -99999.99 -99999.99
11/1/2022 1:45:00 AM -99999.99 -179968 -100 -99999.99 -99999.99 -99999.99
11/1/2022 2:00:00 AM -99999.99 -179968 -100 -99999.99 -99999.99 -99999.99
11/1/2022 2:15:00 AM -99999.99 -179968 -100 -99999.99 -99999.99 -99999.99
11/1/2022 2:30:00 AM -99999.99 -179968 -100 -99999.99 -99999.99 -99999.99
11/1/2022 2:45:00 AM -99999.99 -179968 -100 -99999.99 -99999.99 -99999.99
11/1/2022 3:00:00 AM -99999.99 -179968 -100 -99999.99 -99999.99 -99999.99
11/1/2022 3:15:00 AM -99999.99 -179968 -100 -99999.99 -99999.99 -99999.99
11/1/2022 3:30:00 AM -99999.99 -179968 -100 -99999.99 -99999.99 -99999.99
11/1/2022 3:45:00 AM -99999.99 -179968 -100 -99999.99 -99999.99 -99999.99
11/1/2022 4:00:00 AM -99999.99 -179968 -100 -99999.99 -99999.99 -99999.99
11/1/2022 4:15:00 AM -99999.99 -179968 -100 -99999.99 -99999.99 -99999.99
11/1/2022 4:30:00 AM -99999.99 -179968 -100 -99999.99 -99999.99 -99999.99
11/1/2022 4:45:00 AM -99999.99 -179968 -100 -99999.99 -99999.99 -99999.99
11/1/2022 5:00:00 AM -99999.99 -179968 -100 -99999.99 -99999.99 -99999.99
11/1/2022 5:15:00 AM -99999.99 -179968 -100 -99999.99 -99999.99 -99999.99
11/1/2022 5:30:00 AM -99999.99 -179968 -100 -99999.99 -99999.99 -99999.99
11/1/2022 5:45:00 AM -99999.99 -179968 -100 -99999.99 -99999.99 -99999.99
11/1/2022 6:00:00 AM -99999.99 -179968 -100 -99999.99 -99999.99 -99999.99
11/1/2022 6:15:00 AM -99999.99 -179968 -100 -99999.99 -99999.99 -99999.99
11/1/2022 6:30:00 AM -99999.99 -179968 -100 -99999.99 -99999.99 -99999.99
11/1/2022 6:45:00 AM -99999.99 -179968 -100 -99999.99 -99999.99 -99999.99
11/1/2022 7:00:00 AM -99999.99 -179968 -100 -99999.99 -99999.99 -99999.99
11/1/2022 7:15:00 AM -99999.99 -179968 -100 -99999.99 -99999.99 -99999.99
11/1/2022 7:30:00 AM -99999.99 -179968 -100 -99999.99 -99999.99 -99999.99
11/1/2022 7:45:00 AM -99999.99 -179968 -100 -99999.99 -99999.99 -99999.99
11/1/2022 8:00:00 AM -99999.99 -179968 -100 -99999.99 -99999.99 -99999.99
11/1/2022 8:15:00 AM -99999.99 -179968 -100 -99999.99 -99999.99 -99999.99
11/1/2022 8:30:00 AM -99999.99 -179968 -100 -99999.99 -99999.99 -99999.99
11/1/2022 8:45:00 AM -99999.99 -179968 -100 -99999.99 -99999.99 -99999.99
11/1/2022 9:00:00 AM -99999.99 -179968 -100 -99999.99 -99999.99 -99999.99
11/1/2022 9:15:00 AM -99999.99 -179968 -100 -99999.99 -99999.99 -99999.99
11/1/2022 9:30:00 AM -99999.99 -179968 -100 -99999.99 -99999.99 -99999.99
11/1/2022 9:45:00 AM -99999.99 -179968 -100 -99999.99 -99999.99 -99999.99
11/1/2022 10:00:00 AM -99999.99 -179968 -100 -99999.99 -99999.99 -99999.99
11/1/2022 10:15:00 AM -99999.99 -179968 -100 -99999.99 -99999.99 -99999.99
11/1/2022 10:30:00 AM -99999.99 -179968 -100 -99999.99 -99999.99 -99999.99
11/1/2022 10:45:00 AM -99999.99 -179968 -100 -99999.99 -99999.99 -99999.99
11/1/2022 11:00:00 AM -99999.99 -179968 -100 -99999.99 -99999.99 -99999.99
11/1/2022 11:15:00 AM -99999.99 -179968 -100 -99999.99 -99999.99 -99999.99
11/1/2022 11:30:00 AM -99999.99 -179968 -100 -99999.99 -99999.99 -99999.99
11/1/2022 11:45:00 AM -99999.99 -179968 -100 -99999.99 -99999.99 -99999.99
11/1/2022 12:00:00 PM -99999.99 -179968 -100 -99999.99 -99999.99 -99999.99
11/1/2022 12:15:00 PM -99999.99 -179968 -100 -99999.99 -99999.99 -99999.99
11/1/2022 12:30:00 PM -99999.99 -179968 -100 -99999.99 -99999.99 -99999.99
11/1/2022 12:45:00 PM -99999.99 -179968 -100 -99999.99 -99999.99 -99999.99
11/1/2022 1:00:00 PM -99999.99 -179968 -100 -99999.99 -99999.99 -99999.99
11/1/2022 1:15:00 PM -99999.99 -179968 -100 -99999.99 -99999.99 -99999.99
11/1/2022 1:30:00 PM -99999.99 -179968 -100 -99999.99 -99999.99 -99999.99
11/1/2022 1:45:00 PM -99999.99 -179968 -100 -99999.99 -99999.99 -99999.99
11/1/2022 2:00:00 PM -99999.99 -179968 -100 -99999.99 -99999.99 -99999.99
11/1/2022 2:15:00 PM -99999.99 -179968 -100 -99999.99 -99999.99 -99999.99
11/1/2022 2:30:00 PM -99999.99 -179968 -100 -99999.99 -99999.99 -99999.99
11/1/2022 2:45:00 PM -99999.99 -179968 -100 -99999.99 -99999.99 -99999.99
11/1/2022 3:00:00 PM -99999.99 -179968 -100 -99999.99 -99999.99 -99999.99
11/1/2022 3:15:00 PM -99999.99 -179968 -100 -99999.99 -99999.99 -99999.99
11/1/2022 3:30:00 PM -99999.99 -179968 -100 -99999.99 -99999.99 -99999.99
11/1/2022 3:45:00 PM -99999.99 -179968 -100 -99999.99 -99999.99 -99999.99
11/1/2022 4:00:00 PM -99999.99 -179968 -100 -99999.99 -99999.99 -99999.99
11/1/2022 4:15:00 PM -99999.99 -179968 -100 -99999.99 -99999.99 -99999.99
11/1/2022 4:30:00 PM -99999.99 -179968 -100 -99999.99 -99999.99 -99999.99
11/1/2022 4:45:00 PM -99999.99 -179968 -100 -99999.99 -99999.99 -99999.99
11/1/2022 5:00:00 PM -99999.99 -179968 -100 -99999.99 -99999.99 -99999.99
11/1/2022 5:15:00 PM -99999.99 -179968 -100 -99999.99 -99999.99 -99999.99
11/1/2022 5:30:00 PM -99999.99 -179968 -100 -99999.99 -99999.99 -99999.99
11/1/2022 5:45:00 PM -99999.99 -179968 -100 -99999.99 -99999.99 -99999.99
11/1/2022 6:00:00 PM -99999.99 -179968 -100 -99999.99 -99999.99 -99999.99
11/1/2022 6:15:00 PM -99999.99 -179968 -100 -99999.99 -99999.99 -99999.99
11/1/2022 6:30:00 PM -99999.99 -179968 -100 -99999.99 -99999.99 -99999.99
11/1/2022 6:45:00 PM -99999.99 -179968 -100 -99999.99 -99999.99 -99999.99
11/1/2022 7:00:00 PM -99999.99 -179968 -100 -99999.99 -99999.99 -99999.99
11/1/2022 7:15:00 PM -99999.99 -179968 -100 -99999.99 -99999.99 -99999.99
11/1/2022 7:30:00 PM -99999.99 -179968 -100 -99999.99 -99999.99 -99999.99
11/1/2022 7:45:00 PM -99999.99 -179968 -100 -99999.99 -99999.99 -99999.99
11/1/2022 8:00:00 PM -99999.99 -179968 -100 -99999.99 -99999.99 -99999.99
11/1/2022 8:15:00 PM -99999.99 -179968 -100 -99999.99 -99999.99 -99999.99
11/1/2022 8:30:00 PM -99999.99 -179968 -100 -99999.99 -99999.99 -99999.99
11/1/2022 8:45:00 PM -99999.99 -179968 -100 -99999.99 -99999.99 -99999.99
11/1/2022 9:00:00 PM -99999.99 -179968 -100 -99999.99 -99999.99 -99999.99
11/1/2022 9:15:00 PM -99999.99 -179968 -100 -99999.99 -99999.99 -99999.99
11/1/2022 9:30:00 PM -99999.99 -179968 -100 -99999.99 -99999.99 -99999.99
11/1/2022 9:45:00 PM -99999.99 -179968 -100 -99999.99 -99999.99 -99999.99
11/1/2022 10:00:00 PM -99999.99 -179968 -100 -99999.99 -99999.99 -99999.99
11/1/2022 10:15:00 PM -99999.99 -179968 -100 -99999.99 -99999.99 -99999.99
11/1/2022 10:30:00 PM -99999.99 -179968 -100 -99999.99 -99999.99 -99999.99
11/1/2022 10:45:00 PM -99999.99 -179968 -100 -99999.99 -99999.99 -99999.99
11/1/2022 11:00:00 PM -99999.99 -179968 -100 -99999.99 -99999.99 -99999.99
11/1/2022 11:15:00 PM -99999.99 -179968 -100 -99999.99 -99999.99 -99999.99
11/1/2022 11:30:00 PM -99999.99 -179968 -100 -99999.99 -99999.99 -99999.99
11/1/2022 11:45:00 PM -99999.99 -179968 -100 -99999.99 -99999.99 -99999.99
11/2/2022 12:00:00 AM -99999.99 -179968 -100 -99999.99 -99999.99 -99999.99
11/2/2022 12:15:00 AM -99999.99 -179968 -100 -99999.99 -99999.99 -99999.99
11/2/2022 12:30:00 AM -99999.99 -179968 -100 -99999.99 -99999.99 -99999.99
11/2/2022 12:45:00 AM -99999.99 -179968 -100 -99999.99 -99999.99 -99999.99
11/2/2022 1:00:00 AM -99999.99 -179968 -100 -99999.99 -99999.99 -99999.99
11/2/2022 1:15:00 AM -99999.99 -179968 -100 -99999.99 -99999.99 -99999.99
11/2/2022 1:30:00 AM -99999.99 -179968 -100 -99999.99 -99999.99 -99999.99
11/2/2022 1:45:00 AM -99999.99 -179968 -100 -99999.99 -99999.99 -99999.99
11/2/2022 2:00:00 AM -99999.99 -179968 -100 -99999.99 -99999.99 -99999.99
11/2/2022 2:15:00 AM -99999.99 -179968 -100 -99999.99 -99999.99 -99999.99
11/2/2022 2:30:00 AM -99999.99 -179968 -100 -99999.99 -99999.99 -99999.99
11/2/2022 2:45:00 AM -99999.99 -179968 -100 -99999.99 -99999.99 -99999.99
11/2/2022 3:00:00 AM -99999.99 -179968 -100 -99999.99 -99999.99 -99999.99
11/2/2022 3:15:00 AM -99999.99 -179968 -100 -99999.99 -99999.99 -99999.99
11/2/2022 3:30:00 AM -99999.99 -179968 -100 -99999.99 -99999.99 -99999.99
11/2/2022 3:45:00 AM -99999.99 -179968 -100 -99999.99 -99999.99 -99999.99
11/2/2022 4:00:00 AM -99999.99 -179968 -100 -99999.99 -99999.99 -99999.99
11/2/2022 4:15:00 AM -99999.99 -179968 -100 -99999.99 -99999.99 -99999.99
11/2/2022 4:30:00 AM -99999.99 -179968 -100 -99999.99 -99999.99 -99999.99
11/2/2022 4:45:00 AM -99999.99 -179968 -100 -99999.99 -99999.99 -99999.99
11/2/2022 5:00:00 AM -99999.99 -179968 -100 -99999.99 -99999.99 -99999.99
11/2/2022 5:15:00 AM -99999.99 -179968 -100 -99999.99 -99999.99 -99999.99
11/2/2022 5:30:00 AM -99999.99 -179968 -100 -99999.99 -99999.99 -99999.99
11/2/2022 5:45:00 AM -99999.99 -179968 -100 -99999.99 -99999.99 -99999.99
11/2/2022 6:00:00 AM -99999.99 -179968 -100 -99999.99 -99999.99 -99999.99
11/2/2022 6:15:00 AM -99999.99 -179968 -100 -99999.99 -99999.99 -99999.99
11/2/2022 6:30:00 AM -99999.99 -179968 -100 -99999.99 -99999.99 -99999.99
11/2/2022 6:45:00 AM -99999.99 -179968 -100 -99999.99 -99999.99 -99999.99
11/2/2022 7:00:00 AM -99999.99 -179968 -100 -99999.99 -99999.99 -99999.99
11/2/2022 7:15:00 AM -99999.99 -179968 -100 -99999.99 -99999.99 -99999.99
11/2/2022 7:30:00 AM -99999.99 -179968 -100 -99999.99 -99999.99 -99999.99
11/2/2022 7:45:00 AM -99999.99 -179968 -100 -99999.99 -99999.99 -99999.99
11/2/2022 8:00:00 AM -99999.99 -179968 -100 -99999.99 -99999.99 -99999.99
11/2/2022 8:15:00 AM -99999.99 -179968 -100 -99999.99 -99999.99 -99999.99
11/2/2022 8:30:00 AM -99999.99 -179968 -100 -99999.99 -99999.99 -99999.99
11/2/2022 8:45:00 AM -99999.99 -179968 -100 -99999.99 -99999.99 -99999.99
11/2/2022 9:00:00 AM -99999.99 -179968 -100 -99999.99 -99999.99 -99999.99
11/2/2022 9:15:00 AM -99999.99 -179968 -100 -99999.99 -99999.99 -99999.99
11/2/2022 9:30:00 AM -99999.99 -179968 -100 -99999.99 -99999.99 -99999.99
11/2/2022 9:45:00 AM -99999.99 -179968 -100 -99999.99 -99999.99 -99999.99
11/2/2022 10:00:00 AM -99999.99 -179968 -100 -99999.99 -99999.99 -99999.99
11/2/2022 10:15:00 AM -99999.99 -179968 -100 -99999.99 -99999.99 -99999.99
11/2/2022 10:30:00 AM -99999.99 -179968 -100 -99999.99 -99999.99 -99999.99
11/2/2022 10:45:00 AM -99999.99 -179968 -100 -99999.99 -99999.99 -99999.99
11/2/2022 11:00:00 AM -99999.99 -179968 -100 -99999.99 -99999.99 -99999.99
11/2/2022 11:15:00 AM -99999.99 -179968 -100 -99999.99 -99999.99 -99999.99
11/2/2022 11:30:00 AM -99999.99 -179968 -100 -99999.99 -99999.99 -99999.99
11/2/2022 11:45:00 AM -99999.99 -179968 -100 -99999.99 -99999.99 -99999.99
11/2/2022 12:00:00 PM -99999.99 -179968 -100 -99999.99 -99999.99 -99999.99
11/2/2022 12:15:00 PM -99999.99 -179968 -100 -99999.99 -99999.99 -99999.99
11/2/2022 12:30:00 PM -99999.99 -179968 -100 -99999.99 -99999.99 -99999.99
11/2/2022 12:45:00 PM -99999.99 -179968 -100 -99999.99 -99999.99 -99999.99
11/2/2022 1:00:00 PM -99999.99 -179968 -100 -99999.99 -99999.99 -99999.99
11/2/2022 1:15:00 PM -99999.99 -179968 -100 -99999.99 -99999.99 -99999.99
11/2/2022 1:30:00 PM -99999.99 -179968 -100 -99999.99 -99999.99 -99999.99
11/2/2022 1:45:00 PM -99999.99 -179968 -100 -99999.99 -99999.99 -99999.99
11/2/2022 2:00:00 PM -99999.99 -179968 -100 -99999.99 -99999.99 -99999.99
11/2/2022 2:15:00 PM -99999.99 -179968 -100 -99999.99 -99999.99 -99999.99
11/2/2022 2:30:00 PM -99999.99 -179968 -100 -99999.99 -99999.99 -99999.99
11/2/2022 2:45:00 PM -99999.99 -179968 -100 -99999.99 -99999.99 -99999.99
11/2/2022 3:00:00 PM -99999.99 -179968 -100 -99999.99 -99999.99 -99999.99
11/2/2022 3:15:00 PM -99999.99 -179968 -100 -99999.99 -99999.99 -99999.99
11/2/2022 3:30:00 PM -99999.99 -179968 -100 -99999.99 -99999.99 -99999.99
11/2/2022 3:45:00 PM -99999.99 -179968 -100 -99999.99 -99999.99 -99999.99
11/2/2022 4:00:00 PM -99999.99 -179968 -100 -99999.99 -99999.99 -99999.99
11/2/2022 4:15:00 PM -99999.99 -179968 -100 -99999.99 -99999.99 -99999.99
11/2/2022 4:30:00 PM -99999.99 -179968 -100 -99999.99 -99999.99 -99999.99
11/2/2022 4:45:00 PM -99999.99 -179968 -100 -99999.99 -99999.99 -99999.99
11/2/2022 5:00:00 PM -99999.99 -179968 -100 -99999.99 -99999.99 -99999.99
11/2/2022 5:15:00 PM -99999.99 -179968 -100 -99999.99 -99999.99 -99999.99
11/2/2022 5:30:00 PM -99999.99 -179968 -100 -99999.99 -99999.99 -99999.99
11/2/2022 5:45:00 PM -99999.99 -179968 -100 -99999.99 -99999.99 -99999.99
11/2/2022 6:00:00 PM -99999.99 -179968 -100 -99999.99 -99999.99 -99999.99
11/2/2022 6:15:00 PM -99999.99 -179968 -100 -99999.99 -99999.99 -99999.99
11/2/2022 6:30:00 PM -99999.99 -179968 -100 -99999.99 -99999.99 -99999.99
11/2/2022 6:45:00 PM -99999.99 -179968 -100 -99999.99 -99999.99 -99999.99
11/2/2022 7:00:00 PM -99999.99 -179968 -100 -99999.99 -99999.99 -99999.99
11/2/2022 7:15:00 PM -99999.99 -179968 -100 -99999.99 -99999.99 -99999.99
11/2/2022 7:30:00 PM -99999.99 -179968 -100 -99999.99 -99999.99 -99999.99
11/2/2022 7:45:00 PM -99999.99 -179968 -100 -99999.99 -99999.99 -99999.99
11/2/2022 8:00:00 PM -99999.99 -179968 -100 -99999.99 -99999.99 -99999.99
11/2/2022 8:15:00 PM -99999.99 -179968 -100 -99999.99 -99999.99 -99999.99
11/2/2022 8:30:00 PM -99999.99 -179968 -100 -99999.99 -99999.99 -99999.99
11/2/2022 8:45:00 PM -99999.99 -179968 -100 -99999.99 -99999.99 -99999.99
11/2/2022 9:00:00 PM -99999.99 -179968 -100 -99999.99 -99999.99 -99999.99
11/2/2022 9:15:00 PM -99999.99 -179968 -100 -99999.99 -99999.99 -99999.99
11/2/2022 9:30:00 PM -99999.99 -179968 -100 -99999.99 -99999.99 -99999.99
11/2/2022 9:45:00 PM -99999.99 -179968 -100 -99999.99 -99999.99 -99999.99
11/2/2022 10:00:00 PM -99999.99 -179968 -100 -99999.99 -99999.99 -99999.99
11/2/2022 10:15:00 PM -99999.99 -179968 -100 -99999.99 -99999.99 -99999.99
11/2/2022 10:30:00 PM -99999.99 -179968 -100 -99999.99 -99999.99 -99999.99
11/2/2022 10:45:00 PM -99999.99 -179968 -100 -99999.99 -99999.99 -99999.99
11/2/2022 11:00:00 PM -99999.99 -179968 -100 -99999.99 -99999.99 -99999.99
11/2/2022 11:15:00 PM -99999.99 -179968 -100 -99999.99 -99999.99 -99999.99
11/2/2022 11:30:00 PM -99999.99 -179968 -100 -99999.99 -99999.99 -99999.99
11/2/2022 11:45:00 PM -99999.99 -179968 -100 -99999.99 -99999.99 -99999.99
11/3/2022 12:00:00 AM -99999.99 -179968 -100 -99999.99 -99999.99 -99999.99
11/3/2022 12:15:00 AM -99999.99 -179968 -100 -99999.99 -99999.99 -99999.99
11/3/2022 12:30:00 AM -99999.99 -179968 -100 -99999.99 -99999.99 -99999.99
11/3/2022 12:45:00 AM -99999.99 -179968 -100 -99999.99 -99999.99 -99999.99
11/3/2022 1:00:00 AM -99999.99 -179968 -100 -99999.99 -99999.99 -99999.99
11/3/2022 1:15:00 AM -99999.99 -179968 -100 -99999.99 -99999.99 -99999.99
11/3/2022 1:30:00 AM -99999.99 -179968 -100 -99999.99 -99999.99 -99999.99
11/3/2022 1:45:00 AM -99999.99 -179968 -100 -99999.99 -99999.99 -99999.99
11/3/2022 2:00:00 AM -99999.99 -179968 -100 -99999.99 -99999.99 -99999.99
11/3/2022 2:15:00 AM -99999.99 -179968 -100 -99999.99 -99999.99 -99999.99
11/3/2022 2:30:00 AM -99999.99 -179968 -100 -99999.99 -99999.99 -99999.99
11/3/2022 2:45:00 AM -99999.99 -179968 -100 -99999.99 -99999.99 -99999.99
11/3/2022 3:00:00 AM -99999.99 -179968 -100 -99999.99 -99999.99 -99999.99
11/3/2022 3:15:00 AM -99999.99 -179968 -100 -99999.99 -99999.99 -99999.99
11/3/2022 3:30:00 AM -99999.99 -179968 -100 -99999.99 -99999.99 -99999.99
11/3/2022 3:45:00 AM -99999.99 -179968 -100 -99999.99 -99999.99 -99999.99
11/3/2022 4:00:00 AM -99999.99 -179968 -100 -99999.99 -99999.99 -99999.99
11/3/2022 4:15:00 AM -99999.99 -179968 -100 -99999.99 -99999.99 -99999.99
11/3/2022 4:30:00 AM -99999.99 -179968 -100 -99999.99 -99999.99 -99999.99
11/3/2022 4:45:00 AM -99999.99 -179968 -100 -99999.99 -99999.99 -99999.99
11/3/2022 5:00:00 AM -99999.99 -179968 -100 -99999.99 -99999.99 -99999.99
11/3/2022 5:15:00 AM -99999.99 -179968 -100 -99999.99 -99999.99 -99999.99
11/3/2022 5:30:00 AM -99999.99 -179968 -100 -99999.99 -99999.99 -99999.99
11/3/2022 5:45:00 AM -99999.99 -179968 -100 -99999.99 -99999.99 -99999.99
11/3/2022 6:00:00 AM -99999.99 -179968 -100 -99999.99 -99999.99 -99999.99
11/3/2022 6:15:00 AM -99999.99 -179968 -100 -99999.99 -99999.99 -99999.99
11/3/2022 6:30:00 AM -99999.99 -179968 -100 -99999.99 -99999.99 -99999.99
11/3/2022 6:45:00 AM -99999.99 -179968 -100 -99999.99 -99999.99 -99999.99
11/3/2022 7:00:00 AM -99999.99 -179968 -100 -99999.99 -99999.99 -99999.99
11/3/2022 7:15:00 AM -99999.99 -179968 -100 -99999.99 -99999.99 -99999.99
11/3/2022 7:30:00 AM -99999.99 -179968 -100 -99999.99 -99999.99 -99999.99
11/3/2022 7:45:00 AM -99999.99 -179968 -100 -99999.99 -99999.99 -99999.99
11/3/2022 8:00:00 AM -99999.99 -179968 -100 -99999.99 -99999.99 -99999.99
11/3/2022 8:15:00 AM -99999.99 -179968 -100 -99999.99 -99999.99 -99999.99
11/3/2022 8:30:00 AM -99999.99 -179968 -100 -99999.99 -99999.99 -99999.99
11/3/2022 8:45:00 AM -99999.99 -179968 -100 -99999.99 -99999.99 -99999.99
11/3/2022 9:00:00 AM -99999.99 -179968 -100 -99999.99 -99999.99 -99999.99
11/3/2022 9:15:00 AM 13.65 56.57 0.011 7.86 0.86 0
11/3/2022 9:30:00 AM 14.07 57.326 0.007 7.89 1.2 0
11/3/2022 9:45:00 AM 12.64 54.752 0.342 8.57 1.05 0
11/3/2022 10:00:00 AM 12.68 54.824 0.342 8.59 1.05 0
11/3/2022 10:15:00 AM 12.73 54.914 0.342 8.62 1.03 0
11/3/2022 10:30:00 AM 12.77 54.986 0.342 8.63 0.99 0
11/3/2022 10:45:00 AM 12.82 55.076 0.342 8.65 1.04 0
11/3/2022 11:00:00 AM 12.89 55.202 0.342 8.67 1.01 0
11/3/2022 11:15:00 AM 12.94 55.292 0.342 8.69 0.96 0
11/3/2022 11:30:00 AM 13.01 55.418 0.342 8.7 1 0
11/3/2022 11:45:00 AM 13.09 55.562 0.342 8.73 0.98 0
11/3/2022 12:00:00 PM 13.16 55.688 0.342 8.75 0.95 0
11/3/2022 12:15:00 PM 13.23 55.814 0.342 8.78 0.98 0
11/3/2022 12:30:00 PM 13.32 55.976 0.342 8.8 0.98 0
11/3/2022 12:45:00 PM 13.41 56.138 0.342 8.81 0.96 0
11/3/2022 1:00:00 PM 13.45 56.21 0.342 8.85 0.99 0
11/3/2022 1:15:00 PM 13.55 56.39 0.341 8.87 0.9 0
11/3/2022 1:30:00 PM 13.63 56.534 0.341 8.9 0.97 0
11/3/2022 1:45:00 PM 13.71 56.678 0.341 8.94 0.93 0
11/3/2022 2:00:00 PM 13.75 56.75 0.341 8.99 0.89 0
11/3/2022 2:15:00 PM 13.77 56.786 0.341 9 0.9 0
11/3/2022 2:30:00 PM 13.77 56.786 0.341 9 0.92 0
11/3/2022 2:45:00 PM 13.77 56.786 0.341 9 0.92 0
11/3/2022 3:00:00 PM 13.77 56.786 0.341 9 0.97 0
11/3/2022 3:15:00 PM 13.77 56.786 0.341 9 0.92 0
11/3/2022 3:30:00 PM 13.78 56.804 0.341 8.98 0.94 0
11/3/2022 3:45:00 PM 13.77 56.786 0.341 8.98 0.89 0
11/3/2022 4:00:00 PM 13.77 56.786 0.341 8.98 0.89 0
11/3/2022 4:15:00 PM 13.77 56.786 0.341 9 0.89 0
11/3/2022 4:30:00 PM 13.77 56.786 0.341 9 0.89 0
11/3/2022 4:45:00 PM 13.77 56.786 0.341 8.99 0.89 0
11/3/2022 5:00:00 PM 13.77 56.786 0.341 8.96 0.93 0
11/3/2022 5:15:00 PM 13.77 56.786 0.341 8.93 0.8 0
11/3/2022 5:30:00 PM 13.77 56.786 0.341 8.95 0.9 0
11/3/2022 5:45:00 PM 13.77 56.786 0.341 8.94 0.87 0
11/3/2022 6:00:00 PM 13.77 56.786 0.341 8.94 0.91 0
11/3/2022 6:15:00 PM 13.77 56.786 0.341 8.96 0.91 0
11/3/2022 6:30:00 PM 13.77 56.786 0.341 8.93 0.88 0
11/3/2022 6:45:00 PM 13.77 56.786 0.341 8.93 0.88 0
11/3/2022 7:00:00 PM 13.77 56.786 0.341 8.91 0.91 0
11/3/2022 7:15:00 PM 13.77 56.786 0.341 8.91 0.85 0
11/3/2022 7:30:00 PM 13.77 56.786 0.341 8.91 0.89 0
11/3/2022 7:45:00 PM 13.77 56.786 0.341 8.89 0.86 0
11/3/2022 8:00:00 PM 13.77 56.786 0.341 8.91 0.87 0
11/3/2022 8:15:00 PM 13.77 56.786 0.341 8.92 0.89 0
11/3/2022 8:30:00 PM 13.77 56.786 0.341 8.9 0.87 0
11/3/2022 8:45:00 PM 13.77 56.786 0.341 8.9 0.88 0
11/3/2022 9:00:00 PM 13.77 56.786 0.341 8.89 0.87 0
11/3/2022 9:15:00 PM 13.77 56.786 0.341 8.94 0.88 0
11/3/2022 9:30:00 PM 13.77 56.786 0.341 8.89 0.89 0
11/3/2022 9:45:00 PM 13.77 56.786 0.341 8.89 0.85 0
11/3/2022 10:00:00 PM 13.77 56.786 0.341 8.9 0.88 0
11/3/2022 10:15:00 PM 13.77 56.786 0.341 8.9 0.88 0
11/3/2022 10:30:00 PM 13.77 56.786 0.341 8.9 0.89 0
11/3/2022 10:45:00 PM 13.76 56.768 0.342 8.91 0.86 0
11/3/2022 11:00:00 PM 13.76 56.768 0.341 8.91 0.86 0
11/3/2022 11:15:00 PM 13.76 56.768 0.341 8.9 0.9 0
11/3/2022 11:30:00 PM 13.76 56.768 0.341 8.91 0.88 0
11/3/2022 11:45:00 PM 13.76 56.768 0.341 8.91 0.86 0
11/4/2022 12:00:00 AM 13.76 56.768 0.341 8.9 0.89 0
11/4/2022 12:15:00 AM 13.76 56.768 0.341 8.87 0.83 0
11/4/2022 12:30:00 AM 13.76 56.768 0.341 8.91 0.86 0
11/4/2022 12:45:00 AM 13.76 56.768 0.341 8.89 0.85 0
11/4/2022 1:00:00 AM 13.76 56.768 0.341 8.89 0.88 0
11/4/2022 1:15:00 AM 13.76 56.768 0.341 8.9 0.87 0
11/4/2022 1:30:00 AM 13.76 56.768 0.341 8.88 0.9 0
11/4/2022 1:45:00 AM 13.76 56.768 0.341 8.88 0.86 0
11/4/2022 2:00:00 AM 13.76 56.768 0.341 8.88 0.86 0
11/4/2022 2:15:00 AM 13.76 56.768 0.341 8.88 0.87 0
11/4/2022 2:30:00 AM 13.76 56.768 0.341 8.87 0.85 0
11/4/2022 2:45:00 AM 13.76 56.768 0.341 8.88 0.85 0
11/4/2022 3:00:00 AM 13.76 56.768 0.341 8.85 0.84 0
11/4/2022 3:15:00 AM 13.76 56.768 0.341 8.87 0.87 0
11/4/2022 3:30:00 AM 13.76 56.768 0.341 8.89 0.83 0
11/4/2022 3:45:00 AM 13.76 56.768 0.341 8.88 0.86 0
11/4/2022 4:00:00 AM 13.76 56.768 0.341 8.87 0.83 0
11/4/2022 4:15:00 AM 13.76 56.768 0.342 8.88 0.84 0
11/4/2022 4:30:00 AM 13.76 56.768 0.341 8.88 0.86 0
11/4/2022 4:45:00 AM 13.76 56.768 0.341 8.88 0.85 0
11/4/2022 5:00:00 AM 13.76 56.768 0.341 8.88 0.89 0
11/4/2022 5:15:00 AM 13.76 56.768 0.341 8.87 0.86 0
11/4/2022 5:30:00 AM 13.76 56.768 0.341 8.89 0.9 0
11/4/2022 5:45:00 AM 13.71 56.678 0.343 8.67 0.84 0
11/4/2022 6:00:00 AM 13.36 56.048 0.344 8.68 0.85 0
11/4/2022 6:15:00 AM 13 55.4 0.344 8.62 0.87 0
11/4/2022 6:30:00 AM 12.45 54.41 0.345 8.53 0.86 0
11/4/2022 6:45:00 AM 12.34 54.212 0.345 8.51 0.87 0
11/4/2022 7:00:00 AM 12.28 54.104 0.345 8.5 0.88 0
11/4/2022 7:15:00 AM 12.25 54.05 0.345 8.5 0.88 0
11/4/2022 7:30:00 AM 12.22 53.996 0.345 8.51 0.83 0
11/4/2022 7:45:00 AM 12.18 53.924 0.345 8.51 0.87 0
11/4/2022 8:00:00 AM 12.17 53.906 0.345 8.51 0.88 0
11/4/2022 8:15:00 AM 12.17 53.906 0.345 8.52 0.9 0
11/4/2022 8:30:00 AM 12.13 53.834 0.344 8.54 0.85 0
11/4/2022 8:45:00 AM 12.13 53.834 0.344 8.56 0.9 0
11/4/2022 9:00:00 AM 12.13 53.834 0.344 8.57 0.89 0
11/4/2022 9:15:00 AM 12.14 53.852 0.344 8.59 0.89 0
11/4/2022 9:30:00 AM 12.15 53.87 0.344 8.61 0.9 0
11/4/2022 9:45:00 AM 12.17 53.906 0.344 8.63 0.88 0
11/4/2022 10:00:00 AM 12.21 53.978 0.344 8.65 0.9 0
11/4/2022 10:15:00 AM 12.25 54.05 0.343 8.67 0.91 0
11/4/2022 10:30:00 AM 12.3 54.14 0.343 8.68 0.94 0
11/4/2022 10:45:00 AM 12.36 54.248 0.343 8.69 0.95 0
11/4/2022 11:00:00 AM 12.41 54.338 0.343 8.71 0.94 0
11/4/2022 11:15:00 AM 12.49 54.482 0.343 8.73 0.94 0
11/4/2022 11:30:00 AM 12.53 54.554 0.343 8.75 0.94 0
11/4/2022 11:45:00 AM 12.55 54.59 0.343 8.76 0.96 0
11/4/2022 12:00:00 PM 12.66 54.788 0.342 8.79 0.96 0
11/4/2022 12:15:00 PM 12.8 55.04 0.342 8.82 0.95 0
11/4/2022 12:30:00 PM 12.9 55.22 0.342 8.85 0.93 0
11/4/2022 12:45:00 PM 12.93 55.274 0.342 8.87 0.95 0
11/4/2022 1:00:00 PM 12.98 55.364 0.342 8.89 0.98 0
11/4/2022 1:15:00 PM 13.09 55.562 0.342 8.93 0.94 0
11/4/2022 1:30:00 PM 13.22 55.796 0.341 8.97 0.94 0
11/4/2022 1:45:00 PM 13.3 55.94 0.341 9 0.95 0
11/4/2022 2:00:00 PM 13.36 56.048 0.341 9.02 0.98 0
11/4/2022 2:15:00 PM 13.38 56.084 0.341 9.02 1.01 0
11/4/2022 2:30:00 PM 13.37 56.066 0.341 9.03 1 0
11/4/2022 2:45:00 PM 13.38 56.084 0.341 9 0.98 0
11/4/2022 3:00:00 PM 13.38 56.084 0.341 9 0.97 0
11/4/2022 3:15:00 PM 13.38 56.084 0.341 9.02 1.01 0
11/4/2022 3:30:00 PM 13.38 56.084 0.341 9.01 1 0
11/4/2022 3:45:00 PM 13.38 56.084 0.341 9.01 1 0
11/4/2022 4:00:00 PM 13.38 56.084 0.341 9.01 0.99 0
11/4/2022 4:15:00 PM 13.38 56.084 0.341 9.01 0.97 0
11/4/2022 4:30:00 PM 13.38 56.084 0.341 9.01 0.95 0
11/4/2022 4:45:00 PM 13.38 56.084 0.341 9.01 0.98 0
11/4/2022 5:00:00 PM 13.38 56.084 0.341 9.01 1.01 0
11/4/2022 5:15:00 PM 13.38 56.084 0.341 8.99 1.01 0
11/4/2022 5:30:00 PM 13.38 56.084 0.341 8.97 1.01 0
11/4/2022 5:45:00 PM 13.38 56.084 0.341 9 0.98 0
11/4/2022 6:00:00 PM 13.38 56.084 0.341 8.98 1.01 0
11/4/2022 6:15:00 PM 13.38 56.084 0.341 8.98 0.98 0
11/4/2022 6:30:00 PM 13.38 56.084 0.341 8.97 1.01 0
11/4/2022 6:45:00 PM 13.38 56.084 0.341 8.99 0.95 0
11/4/2022 7:00:00 PM 13.38 56.084 0.341 8.99 0.96 0
11/4/2022 7:15:00 PM 13.38 56.084 0.341 8.98 1.01 0
11/4/2022 7:30:00 PM 13.38 56.084 0.341 8.96 1.02 0
11/4/2022 7:45:00 PM 13.38 56.084 0.341 8.96 1.02 0
11/4/2022 8:00:00 PM 13.38 56.084 0.341 8.93 0.99 0
11/4/2022 8:15:00 PM 13.38 56.084 0.341 8.97 1.03 0
11/4/2022 8:30:00 PM 13.38 56.084 0.341 8.98 1.01 0
11/4/2022 8:45:00 PM 13.38 56.084 0.341 8.97 1.02 0
11/4/2022 9:00:00 PM 13.38 56.084 0.341 8.95 1.03 0
11/4/2022 9:15:00 PM 13.38 56.084 0.341 8.94 1.01 0
11/4/2022 9:30:00 PM 13.38 56.084 0.341 8.92 1.01 0
11/4/2022 9:45:00 PM 13.38 56.084 0.341 8.94 1.03 0
11/4/2022 10:00:00 PM 13.38 56.084 0.341 8.91 1.01 0
11/4/2022 10:15:00 PM 13.38 56.084 0.341 8.9 1.03 0
11/4/2022 10:30:00 PM 13.38 56.084 0.341 8.9 0.99 0
11/4/2022 10:45:00 PM 13.38 56.084 0.341 8.88 1.01 0
11/4/2022 11:00:00 PM 13.39 56.102 0.341 8.9 0.98 0
11/4/2022 11:15:00 PM 13.39 56.102 0.341 8.9 1.03 0
11/4/2022 11:30:00 PM 13.39 56.102 0.341 8.91 1 0
11/4/2022 11:45:00 PM 13.39 56.102 0.341 8.89 1 0
11/5/2022 12:00:00 AM 13.39 56.102 0.341 8.91 1.01 0
11/5/2022 12:15:00 AM 13.39 56.102 0.341 8.92 1.03 0
11/5/2022 12:30:00 AM 13.38 56.084 0.341 8.93 1.01 0
11/5/2022 12:45:00 AM 13.39 56.102 0.341 8.91 1.04 0
11/5/2022 1:00:00 AM 13.39 56.102 0.341 8.91 1.01 0
11/5/2022 1:15:00 AM 13.39 56.102 0.341 8.91 1.05 0
11/5/2022 1:30:00 AM 13.39 56.102 0.341 8.91 0.96 0
11/5/2022 1:45:00 AM 13.39 56.102 0.341 8.91 0.97 0
11/5/2022 2:00:00 AM 13.39 56.102 0.341 8.91 0.98 0
11/5/2022 2:15:00 AM 13.39 56.102 0.341 8.91 0.99 0
11/5/2022 2:30:00 AM 13.39 56.102 0.341 8.91 1.01 0
11/5/2022 2:45:00 AM 13.39 56.102 0.341 8.9 1.06 0
11/5/2022 3:00:00 AM 13.39 56.102 0.341 8.9 1.02 0
11/5/2022 3:15:00 AM 13.39 56.102 0.341 8.9 1.01 0
11/5/2022 3:30:00 AM 13.39 56.102 0.341 8.9 1.02 0
11/5/2022 3:45:00 AM 13.39 56.102 0.341 8.9 1.01 0
11/5/2022 4:00:00 AM 13.39 56.102 0.341 8.91 1.01 0
11/5/2022 4:15:00 AM 13.39 56.102 0.341 8.89 0.98 0
11/5/2022 4:30:00 AM 13.39 56.102 0.341 8.89 1.01 0
11/5/2022 4:45:00 AM 13.39 56.102 0.341 8.9 0.99 0
11/5/2022 5:00:00 AM 13.39 56.102 0.341 8.89 0.98 0
11/5/2022 5:15:00 AM 13.39 56.102 0.341 8.9 1 0
11/5/2022 5:30:00 AM 13.39 56.102 0.341 8.89 1.01 0
11/5/2022 5:45:00 AM 13.39 56.102 0.341 8.89 1.02 0
11/5/2022 6:00:00 AM 13.39 56.102 0.341 8.89 1.01 0
11/5/2022 6:15:00 AM 13.36 56.048 0.34 8.69 0.95 0
11/5/2022 6:30:00 AM 13.33 55.994 0.338 8.54 0.94 0
11/5/2022 6:45:00 AM 13.3 55.94 0.338 8.5 0.92 0
11/5/2022 7:00:00 AM 13.29 55.922 0.338 8.5 0.95 0
11/5/2022 7:15:00 AM 13.26 55.868 0.338 8.49 0.94 0
11/5/2022 7:30:00 AM 13.23 55.814 0.338 8.49 0.91 0
11/5/2022 7:45:00 AM 13.22 55.796 0.338 8.49 0.91 0
11/5/2022 8:00:00 AM 13.24 55.832 0.338 8.49 0.92 0
11/5/2022 8:15:00 AM 13.25 55.85 0.337 8.5 0.89 0
11/5/2022 8:30:00 AM 13.24 55.832 0.337 8.5 0.91 0
11/5/2022 8:45:00 AM 13.26 55.868 0.337 8.51 0.93 0
11/5/2022 9:00:00 AM 13.28 55.904 0.337 8.5 1 0
11/5/2022 9:15:00 AM 13.29 55.922 0.337 8.54 0.9 0
11/5/2022 9:30:00 AM 13.3 55.94 0.337 8.56 0.94 0
11/5/2022 9:45:00 AM 13.31 55.958 0.337 8.57 0.91 0
11/5/2022 10:00:00 AM 13.34 56.012 0.336 8.58 0.93 0
11/5/2022 10:15:00 AM 13.36 56.048 0.336 8.6 0.92 0
11/5/2022 10:30:00 AM 13.42 56.156 0.336 8.64 0.93 0
11/5/2022 10:45:00 AM 13.5 56.3 0.336 8.66 0.91 0
11/5/2022 11:00:00 AM 13.53 56.354 0.336 8.65 0.97 0
11/5/2022 11:15:00 AM 13.57 56.426 0.335 8.67 0.93 0
11/5/2022 11:30:00 AM 13.61 56.498 0.335 8.68 0.89 0
11/5/2022 11:45:00 AM 13.66 56.588 0.335 8.69 0.92 0
11/5/2022 12:00:00 PM 13.77 56.786 0.335 8.71 0.9 0
11/5/2022 12:15:00 PM 13.85 56.93 0.334 8.73 0.9 0
11/5/2022 12:30:00 PM 13.93 57.074 0.334 8.74 0.92 0
11/5/2022 12:45:00 PM 13.96 57.128 0.332 8.75 0.92 0
11/5/2022 1:00:00 PM 14 57.2 0.333 8.79 0.9 0
11/5/2022 1:15:00 PM 14.08 57.344 0.333 8.82 0.91 0
11/5/2022 1:30:00 PM 14.19 57.542 0.332 8.87 0.95 0
11/5/2022 1:45:00 PM 14.28 57.704 0.329 8.91 0.91 0
11/5/2022 2:00:00 PM 14.3 57.74 0.33 8.92 0.88 0
11/5/2022 2:15:00 PM 14.31 57.758 0.332 8.91 0.91 0
11/5/2022 2:30:00 PM 14.31 57.758 0.33 8.91 0.92 0
11/5/2022 2:45:00 PM 14.31 57.758 0.331 8.91 0.89 0
11/5/2022 3:00:00 PM 14.31 57.758 0.33 8.91 0.89 0
11/5/2022 3:15:00 PM 14.31 57.758 0.331 8.91 0.9 0
11/5/2022 3:30:00 PM 14.31 57.758 0.33 8.91 0.95 0
11/5/2022 3:45:00 PM 14.31 57.758 0.332 8.91 0.91 0
11/5/2022 4:00:00 PM 14.31 57.758 0.331 8.9 0.89 0
11/5/2022 4:15:00 PM 14.3 57.74 0.332 8.9 0.9 0
11/5/2022 4:30:00 PM 14.3 57.74 0.329 8.89 0.9 0
11/5/2022 4:45:00 PM 14.3 57.74 0.332 8.89 0.87 0
11/5/2022 5:00:00 PM 14.3 57.74 0.329 8.85 0.87 0
11/5/2022 5:15:00 PM 14.29 57.722 0.333 8.86 0.86 0
11/5/2022 5:30:00 PM 14.29 57.722 0.333 8.86 0.88 0
11/5/2022 5:45:00 PM 14.29 57.722 0.329 8.82 0.88 0
11/5/2022 6:00:00 PM 14.29 57.722 0.333 8.85 0.93 0
11/5/2022 6:15:00 PM 14.29 57.722 0.333 8.85 0.87 0
11/5/2022 6:30:00 PM 14.29 57.722 0.333 8.87 0.89 0
11/5/2022 6:45:00 PM 14.29 57.722 0.333 8.82 0.92 0
11/5/2022 7:00:00 PM 14.29 57.722 0.333 8.86 0.91 0
11/5/2022 7:15:00 PM 14.28 57.704 0.333 8.87 0.9 0
11/5/2022 7:30:00 PM 14.28 57.704 0.332 8.86 0.9 0
11/5/2022 7:45:00 PM 14.28 57.704 0.332 8.8 0.89 0
11/5/2022 8:00:00 PM 14.28 57.704 0.333 8.78 0.89 0
11/5/2022 8:15:00 PM 14.28 57.704 0.333 8.79 0.92 0
11/5/2022 8:30:00 PM 14.28 57.704 0.333 8.82 0.9 0
11/5/2022 8:45:00 PM 14.27 57.686 0.333 8.81 0.91 0
11/5/2022 9:00:00 PM 14.27 57.686 0.333 8.81 0.92 0
11/5/2022 9:15:00 PM 14.27 57.686 0.333 8.82 0.91 0
11/5/2022 9:30:00 PM 14.27 57.686 0.333 8.8 0.94 0
11/5/2022 9:45:00 PM 14.27 57.686 0.333 8.8 0.89 0
11/5/2022 10:00:00 PM 14.27 57.686 0.333 8.8 0.91 0
11/5/2022 10:15:00 PM 14.27 57.686 0.333 8.81 0.9 0
11/5/2022 10:30:00 PM 14.27 57.686 0.333 8.8 0.92 0
11/5/2022 10:45:00 PM 14.27 57.686 0.331 8.79 0.86 0
11/5/2022 11:00:00 PM 14.26 57.668 0.333 8.79 0.91 0
11/5/2022 11:15:00 PM 14.26 57.668 0.333 8.78 0.88 0
11/5/2022 11:30:00 PM 14.26 57.668 0.332 8.77 0.9 0
11/5/2022 11:45:00 PM 14.26 57.668 0.332 8.77 0.91 0
11/6/2022 12:00:00 AM 14.26 57.668 0.333 8.8 0.9 0
11/6/2022 12:15:00 AM 14.26 57.668 0.333 8.79 0.89 0
11/6/2022 12:30:00 AM 14.26 57.668 0.333 8.79 0.89 0
11/6/2022 12:45:00 AM 14.26 57.668 0.33 8.76 0.9 0
11/6/2022 1:00:00 AM 14.26 57.668 0.333 8.77 0.9 0
11/6/2022 1:15:00 AM 14.26 57.668 0.333 8.77 0.93 0
11/6/2022 1:30:00 AM 14.26 57.668 0.333 8.76 0.91 0
11/6/2022 1:45:00 AM 14.26 57.668 0.333 8.78 0.9 0
11/6/2022 2:00:00 AM 14.25 57.65 0.333 8.77 0.94 0
11/6/2022 2:15:00 AM 14.25 57.65 0.333 8.76 0.91 0
11/6/2022 2:30:00 AM 14.25 57.65 0.333 8.76 0.92 0
11/6/2022 2:45:00 AM 14.25 57.65 0.334 8.74 0.87 0
11/6/2022 3:00:00 AM 14.25 57.65 0.334 8.74 0.91 0
11/6/2022 3:15:00 AM 14.25 57.65 0.334 8.74 0.93 0
11/6/2022 3:30:00 AM 14.25 57.65 0.334 8.74 0.93 0
11/6/2022 3:45:00 AM 14.25 57.65 0.334 8.73 0.94 0
11/6/2022 4:00:00 AM 14.25 57.65 0.333 8.73 0.9 0
11/6/2022 4:15:00 AM 14.25 57.65 0.333 8.72 0.9 0
11/6/2022 4:30:00 AM 14.25 57.65 0.333 8.73 0.86 0
11/6/2022 4:45:00 AM 14.25 57.65 0.333 8.72 0.9 0
11/6/2022 5:00:00 AM 14.25 57.65 0.333 8.72 0.93 0
11/6/2022 5:15:00 AM 14.24 57.632 0.333 8.72 0.87 0
11/6/2022 5:30:00 AM 14.24 57.632 0.333 8.71 0.9 0
11/6/2022 5:45:00 AM 14.25 57.65 0.333 8.72 0.86 0
11/6/2022 6:00:00 AM 14.24 57.632 0.333 8.72 0.92 0
11/6/2022 6:15:00 AM 14.24 57.632 0.333 8.72 0.9 0
11/6/2022 6:30:00 AM 14.24 57.632 0.333 8.71 0.92 0
11/6/2022 6:45:00 AM 14.24 57.632 0.333 8.71 0.91 0
11/6/2022 7:00:00 AM 14.24 57.632 0.333 8.73 0.88 0
11/6/2022 7:15:00 AM 14.24 57.632 0.333 8.71 0.92 0
11/6/2022 7:30:00 AM 14.11 57.398 0.34 8.4 0.88 0
11/6/2022 7:45:00 AM 14.8 58.64 0.332 8.31 0.89 0
11/6/2022 8:00:00 AM 15.32 59.576 0.329 8.45 0.86 0
11/6/2022 8:15:00 AM 15.44 59.792 0.329 8.47 0.85 0
11/6/2022 8:30:00 AM 15.48 59.864 0.329 8.48 0.89 0
11/6/2022 8:45:00 AM 15.51 59.918 0.329 8.48 0.9 0
11/6/2022 9:00:00 AM 15.52 59.936 0.329 8.49 0.93 0
11/6/2022 9:15:00 AM 15.53 59.954 0.329 8.51 0.91 0
11/6/2022 9:30:00 AM 15.54 59.972 0.329 8.51 0.92 0
11/6/2022 9:45:00 AM 15.53 59.954 0.328 8.52 0.93 0
11/6/2022 10:00:00 AM 15.54 59.972 0.328 8.53 0.84 0
11/6/2022 10:15:00 AM 15.56 60.008 0.328 8.54 0.86 0
11/6/2022 10:30:00 AM 15.6 60.08 0.328 8.57 0.9 0
11/6/2022 10:45:00 AM 15.63 60.134 0.328 8.58 0.91 0
11/6/2022 11:00:00 AM 15.64 60.152 0.328 8.58 0.89 0
11/6/2022 11:15:00 AM 15.66 60.188 0.328 8.6 0.89 0
11/6/2022 11:30:00 AM 15.74 60.332 0.328 8.63 0.85 0
11/6/2022 11:45:00 AM 15.78 60.404 0.328 8.67 0.83 0
11/6/2022 12:00:00 PM 15.82 60.476 0.327 8.69 0.88 0
11/6/2022 12:15:00 PM 15.85 60.53 0.327 8.71 0.86 0
11/6/2022 12:30:00 PM 15.9 60.62 0.327 8.73 0.85 0
11/6/2022 12:45:00 PM 15.93 60.674 0.327 8.74 0.91 0
11/6/2022 1:00:00 PM 15.97 60.746 0.327 8.77 0.89 0
11/6/2022 1:15:00 PM 16.04 60.872 0.327 8.8 0.9 0
11/6/2022 1:30:00 PM 16.1 60.98 0.327 8.83 0.94 0
11/6/2022 1:45:00 PM 16.12 61.016 0.326 8.85 0.92 0
11/6/2022 2:00:00 PM 16.16 61.088 0.326 8.86 0.92 0
11/6/2022 2:15:00 PM 16.19 61.142 0.326 8.87 0.93 0
11/6/2022 2:30:00 PM 16.19 61.142 0.326 8.87 0.92 0
11/6/2022 2:45:00 PM 16.19 61.142 0.326 8.86 0.92 0
11/6/2022 3:00:00 PM 16.19 61.142 0.326 8.86 0.9 0
11/6/2022 3:15:00 PM 16.19 61.142 0.326 8.86 0.92 0
11/6/2022 3:30:00 PM 16.18 61.124 0.326 8.86 0.92 0
11/6/2022 3:45:00 PM 16.18 61.124 0.326 8.86 0.88 0
11/6/2022 4:00:00 PM 16.17 61.106 0.326 8.85 0.92 0
11/6/2022 4:15:00 PM 16.17 61.106 0.326 8.85 0.9 0
11/6/2022 4:30:00 PM 16.16 61.088 0.326 8.85 0.91 0
11/6/2022 4:45:00 PM 16.15 61.07 0.326 8.84 0.89 0
11/6/2022 5:00:00 PM 16.15 61.07 0.326 8.83 0.92 0
11/6/2022 5:15:00 PM 16.14 61.052 0.326 8.78 0.95 0
11/6/2022 5:30:00 PM 16.14 61.052 0.326 8.8 0.92 0
11/6/2022 5:45:00 PM 16.14 61.052 0.327 8.78 0.9 0
11/6/2022 6:00:00 PM 16.13 61.034 0.326 8.78 0.88 0
11/6/2022 6:15:00 PM 16.13 61.034 0.327 8.77 0.93 0
11/6/2022 6:30:00 PM 16.12 61.016 0.327 8.77 0.92 0
11/6/2022 6:45:00 PM 16.12 61.016 0.326 8.78 0.9 0
11/6/2022 7:00:00 PM 16.11 60.998 0.326 8.79 0.9 0
11/6/2022 7:15:00 PM 16.11 60.998 0.326 8.79 0.9 0
11/6/2022 7:30:00 PM 16.11 60.998 0.326 8.78 0.9 0
11/6/2022 7:45:00 PM 16.1 60.98 0.326 8.78 0.89 0
11/6/2022 8:00:00 PM 16.1 60.98 0.326 8.77 0.91 0
11/6/2022 8:15:00 PM 16.1 60.98 0.327 8.74 0.89 0
11/6/2022 8:30:00 PM 16.09 60.962 0.327 8.69 0.91 0
11/6/2022 8:45:00 PM 16.09 60.962 0.327 8.65 0.94 0
11/6/2022 9:00:00 PM 16.09 60.962 0.328 8.43 0.95 0
11/6/2022 9:15:00 PM 16.09 60.962 0.327 8.44 0.94 0
11/6/2022 9:30:00 PM 16.08 60.944 0.327 8.46 0.9 0
11/6/2022 9:45:00 PM 16.08 60.944 0.328 8.45 0.91 0
11/6/2022 10:00:00 PM 16.08 60.944 0.328 8.4 0.9 0
11/6/2022 10:15:00 PM 16.07 60.926 0.327 8.44 0.89 0
11/6/2022 10:30:00 PM 16.07 60.926 0.328 8.41 0.9 0
11/6/2022 10:45:00 PM 16.07 60.926 0.327 8.46 0.9 0
11/6/2022 11:00:00 PM 16.06 60.908 0.327 8.49 0.92 0
11/6/2022 11:15:00 PM 16.06 60.908 0.327 8.53 0.91 0
11/6/2022 11:30:00 PM 16.06 60.908 0.327 8.55 0.92 0
11/6/2022 11:45:00 PM 16.05 60.89 0.327 8.56 0.92 0
11/7/2022 12:00:00 AM 16.05 60.89 0.327 8.54 0.91 0
11/7/2022 12:15:00 AM 16.05 60.89 0.327 8.54 0.89 0
11/7/2022 12:30:00 AM 16.04 60.872 0.327 8.56 0.92 0
11/7/2022 12:45:00 AM 16.04 60.872 0.327 8.55 0.91 0
11/7/2022 1:00:00 AM 16.04 60.872 0.327 8.52 0.96 0
11/7/2022 1:15:00 AM 16.04 60.872 0.327 8.55 0.91 0
11/7/2022 1:30:00 AM 16.03 60.854 0.327 8.53 0.94 0
11/7/2022 1:45:00 AM 16.03 60.854 0.327 8.54 0.91 0
11/7/2022 2:00:00 AM 16.03 60.854 0.327 8.51 0.92 0
11/7/2022 2:15:00 AM 16.03 60.854 0.327 8.51 0.88 0
11/7/2022 2:30:00 AM 16.02 60.836 0.327 8.5 0.94 0
11/7/2022 2:45:00 AM 16.02 60.836 0.327 8.5 0.89 0
11/7/2022 3:00:00 AM 16.02 60.836 0.328 8.46 0.9 0
11/7/2022 3:15:00 AM 16.02 60.836 0.327 8.46 0.91 0
11/7/2022 3:30:00 AM 16.02 60.836 0.328 8.43 0.95 0
11/7/2022 3:45:00 AM 16.01 60.818 0.327 8.46 0.91 0
11/7/2022 4:00:00 AM 16.01 60.818 0.327 8.46 0.92 0
11/7/2022 4:15:00 AM 16.01 60.818 0.328 8.43 0.91 0
11/7/2022 4:30:00 AM 16.01 60.818 0.328 8.42 0.94 0
11/7/2022 4:45:00 AM 16 60.8 0.328 8.4 0.88 0
11/7/2022 5:00:00 AM 16 60.8 0.328 8.43 0.9 0
11/7/2022 5:15:00 AM 16 60.8 0.328 8.4 0.94 0
11/7/2022 5:30:00 AM 16 60.8 0.328 8.42 0.96 0
11/7/2022 5:45:00 AM 16 60.8 0.328 8.45 0.9 0
11/7/2022 6:00:00 AM 15.99 60.782 0.328 8.39 0.92 0
11/7/2022 6:15:00 AM 15.99 60.782 0.328 8.39 0.93 0
11/7/2022 6:30:00 AM 15.99 60.782 0.328 8.38 0.97 0
11/7/2022 6:45:00 AM 15.99 60.782 0.328 8.41 0.93 0
11/7/2022 7:00:00 AM 15.99 60.782 0.327 8.43 0.92 0
11/7/2022 7:15:00 AM 15.59 60.062 0.329 8.06 0.94 0
11/7/2022 7:30:00 AM 15.86 60.548 0.328 8.33 0.93 0
11/7/2022 7:45:00 AM 16.07 60.926 0.327 8.38 0.85 0
11/7/2022 8:00:00 AM 16.09 60.962 0.327 8.39 0.87 0
11/7/2022 8:15:00 AM 16.1 60.98 0.327 8.41 0.86 0
11/7/2022 8:30:00 AM 16.11 60.998 0.327 8.42 0.83 0
11/7/2022 8:45:00 AM 16.11 60.998 0.328 8.44 0.88 0
11/7/2022 9:00:00 AM 16.13 61.034 0.328 8.45 0.9 0
11/7/2022 9:15:00 AM 16.16 61.088 0.328 8.47 0.88 0
11/7/2022 9:30:00 AM 16.18 61.124 0.328 8.47 0.85 0
11/7/2022 9:45:00 AM 16.2 61.16 0.328 8.5 0.9 0
11/7/2022 10:00:00 AM 16.25 61.25 0.328 8.52 0.91 0
11/7/2022 10:15:00 AM 16.28 61.304 0.328 8.54 0.88 0
11/7/2022 10:30:00 AM 16.34 61.412 0.328 8.55 0.9 0
11/7/2022 10:45:00 AM 16.37 61.466 0.327 8.56 0.88 0
11/7/2022 11:00:00 AM 16.4 61.52 0.327 8.58 0.91 0
11/7/2022 11:15:00 AM 16.44 61.592 0.328 8.59 0.93 0
11/7/2022 11:30:00 AM 16.5 61.7 0.328 8.6 0.88 0
11/7/2022 11:45:00 AM 16.55 61.79 0.328 8.63 0.9 0
11/7/2022 12:00:00 PM 16.61 61.898 0.328 8.66 0.94 0
11/7/2022 12:15:00 PM 16.64 61.952 0.328 8.68 0.94 0
11/7/2022 12:30:00 PM 16.7 62.06 0.328 8.72 0.93 0
11/7/2022 12:45:00 PM 16.76 62.168 0.328 8.75 0.93 0
11/7/2022 1:00:00 PM 16.78 62.204 0.327 8.77 0.94 0
11/7/2022 1:15:00 PM 16.79 62.222 0.327 8.81 0.95 0
11/7/2022 1:30:00 PM 16.81 62.258 0.327 8.84 0.89 0
11/7/2022 1:45:00 PM 16.82 62.276 0.327 8.87 0.92 0
11/7/2022 2:00:00 PM 16.83 62.294 0.327 8.9 0.92 0
11/7/2022 2:15:00 PM 16.79 62.222 0.328 8.91 0.9 0
11/7/2022 2:30:00 PM 16.83 62.294 0.327 8.93 0.86 0
11/7/2022 2:45:00 PM 16.83 62.294 0.327 8.96 0.93 0
11/7/2022 3:00:00 PM 16.78 62.204 0.327 9.01 0.91 0
11/7/2022 3:15:00 PM 16.81 62.258 0.327 9.01 0.91 0
11/7/2022 3:30:00 PM 16.82 62.276 0.327 9.01 0.92 0
11/7/2022 3:45:00 PM 16.81 62.258 0.327 9.01 0.92 0
11/7/2022 4:00:00 PM 16.81 62.258 0.327 9.01 0.94 0
11/7/2022 4:15:00 PM 16.81 62.258 0.327 9.01 0.9 0
11/7/2022 4:30:00 PM 16.81 62.258 0.327 9.01 0.91 0
11/7/2022 4:45:00 PM 16.81 62.258 0.327 9.01 0.92 0
11/7/2022 5:00:00 PM 16.8 62.24 0.327 9 0.93 0
11/7/2022 5:15:00 PM 16.8 62.24 0.327 9 0.87 0
11/7/2022 5:30:00 PM 16.8 62.24 0.327 9 0.89 0
11/7/2022 5:45:00 PM 16.79 62.222 0.327 9 0.94 0
11/7/2022 6:00:00 PM 16.79 62.222 0.327 9 0.92 0
11/7/2022 6:15:00 PM 16.79 62.222 0.327 8.99 0.87 0
11/7/2022 6:30:00 PM 16.78 62.204 0.327 8.99 0.9 0
11/7/2022 6:45:00 PM 16.78 62.204 0.327 8.99 0.94 0
11/7/2022 7:00:00 PM 16.78 62.204 0.327 8.99 0.94 0
11/7/2022 7:15:00 PM 16.77 62.186 0.327 8.98 0.93 0
11/7/2022 7:30:00 PM 16.77 62.186 0.327 8.99 0.88 0
11/7/2022 7:45:00 PM 16.77 62.186 0.327 8.98 0.91 0
11/7/2022 8:00:00 PM 16.77 62.186 0.327 8.98 0.92 0
11/7/2022 8:15:00 PM 16.76 62.168 0.327 8.98 0.92 0
11/7/2022 8:30:00 PM 16.76 62.168 0.327 8.98 0.93 0
11/7/2022 8:45:00 PM 16.76 62.168 0.327 8.97 0.92 0
11/7/2022 9:00:00 PM 16.75 62.15 0.327 8.97 0.93 0
11/7/2022 9:15:00 PM 16.75 62.15 0.327 8.91 0.94 0
11/7/2022 9:30:00 PM 16.75 62.15 0.327 8.95 0.93 0
11/7/2022 9:45:00 PM 16.75 62.15 0.327 8.95 0.93 0
11/7/2022 10:00:00 PM 16.74 62.132 0.327 8.88 0.89 0
11/7/2022 10:15:00 PM 16.74 62.132 0.328 8.76 0.91 0
11/7/2022 10:30:00 PM 16.74 62.132 0.328 8.68 0.91 0
11/7/2022 10:45:00 PM 16.74 62.132 0.328 8.69 0.93 0
11/7/2022 11:00:00 PM 16.73 62.114 0.328 8.73 0.94 0
11/7/2022 11:15:00 PM 16.73 62.114 0.327 8.79 0.88 0
11/7/2022 11:30:00 PM 16.73 62.114 0.327 8.81 0.9 0
11/7/2022 11:45:00 PM 16.72 62.096 0.328 8.79 0.95 0
11/8/2022 12:00:00 AM 16.72 62.096 0.328 8.79 0.9 0
11/8/2022 12:15:00 AM 16.72 62.096 0.328 8.76 0.85 0
11/8/2022 12:30:00 AM 16.72 62.096 0.328 8.72 0.9 0
11/8/2022 12:45:00 AM 16.71 62.078 0.328 8.71 0.94 0
11/8/2022 1:00:00 AM 16.71 62.078 0.328 8.73 0.92 0
11/8/2022 1:15:00 AM 16.71 62.078 0.328 8.71 0.92 0
11/8/2022 1:30:00 AM 16.7 62.06 0.328 8.72 0.92 0
11/8/2022 1:45:00 AM 16.7 62.06 0.328 8.67 0.94 0
11/8/2022 2:00:00 AM 16.7 62.06 0.328 8.68 0.89 0
11/8/2022 2:15:00 AM 16.7 62.06 0.328 8.66 0.95 0
11/8/2022 2:30:00 AM 16.69 62.042 0.328 8.64 0.92 0
11/8/2022 2:45:00 AM 16.69 62.042 0.328 8.64 0.97 0
11/8/2022 3:00:00 AM 16.69 62.042 0.328 8.61 0.91 0
11/8/2022 3:15:00 AM 16.68 62.024 0.328 8.62 0.93 0
11/8/2022 3:30:00 AM 16.68 62.024 0.328 8.62 0.95 0
11/8/2022 3:45:00 AM 16.68 62.024 0.328 8.59 0.94 0
11/8/2022 4:00:00 AM 16.68 62.024 0.328 8.59 0.91 0
11/8/2022 4:15:00 AM 16.67 62.006 0.328 8.58 0.91 0
11/8/2022 4:30:00 AM 16.67 62.006 0.328 8.59 0.91 0
11/8/2022 4:45:00 AM 16.67 62.006 0.328 8.56 0.94 0
11/8/2022 5:00:00 AM 16.66 61.988 0.328 8.56 0.91 0
11/8/2022 5:15:00 AM 16.66 61.988 0.328 8.56 0.86 0
11/8/2022 5:30:00 AM 16.66 61.988 0.328 8.56 0.91 0
11/8/2022 5:45:00 AM 16.65 61.97 0.328 8.55 0.94 0
11/8/2022 6:00:00 AM 16.65 61.97 0.328 8.55 0.91 0
11/8/2022 6:15:00 AM 16.65 61.97 0.328 8.55 0.89 0
11/8/2022 6:30:00 AM 16.65 61.97 0.328 8.52 0.91 0
11/8/2022 6:45:00 AM 16.59 61.862 0.329 8.51 0.93 0
11/8/2022 7:00:00 AM 15.1 59.18 0.33 8.51 0.94 0
11/8/2022 7:15:00 AM 14.35 57.83 0.331 8.5 0.96 0
11/8/2022 7:30:00 AM 14.21 57.578 0.331 8.51 0.97 0
11/8/2022 7:45:00 AM 14.16 57.488 0.331 8.52 0.98 0
11/8/2022 8:00:00 AM 14.11 57.398 0.331 8.53 0.94 0
11/8/2022 8:15:00 AM 14.05 57.29 0.331 8.55 1 0
11/8/2022 8:30:00 AM 14.02 57.236 0.332 8.56 1.01 0
11/8/2022 8:45:00 AM 14.03 57.254 0.332 8.57 0.95 0
11/8/2022 9:00:00 AM 13.96 57.128 0.332 8.58 0.97 0
11/8/2022 9:15:00 AM 13.93 57.074 0.332 8.6 0.98 0
11/8/2022 9:30:00 AM 13.93 57.074 0.332 8.62 0.99 0
11/8/2022 9:45:00 AM 13.92 57.056 0.332 8.64 0.97 0
11/8/2022 10:00:00 AM 13.9 57.02 0.332 8.66 1.01 0
11/8/2022 10:15:00 AM 13.9 57.02 0.332 8.68 0.98 0
11/8/2022 10:30:00 AM 13.94 57.092 0.332 8.69 0.98 0
11/8/2022 10:45:00 AM 13.95 57.11 0.333 8.71 0.97 0
11/8/2022 11:00:00 AM 13.99 57.182 0.333 8.72 0.98 0
11/8/2022 11:15:00 AM 14.01 57.218 0.333 8.73 0.98 0
11/8/2022 11:30:00 AM 14.04 57.272 0.333 8.75 1.01 0
11/8/2022 11:45:00 AM 14.06 57.308 0.333 8.76 0.97 0
11/8/2022 12:00:00 PM 14.08 57.344 0.333 8.78 0.96 0
11/8/2022 12:15:00 PM 14.1 57.38 0.333 8.8 0.96 0
11/8/2022 12:30:00 PM 14.14 57.452 0.333 8.82 0.98 0
11/8/2022 12:45:00 PM 14.15 57.47 0.333 8.84 1.01 0
11/8/2022 1:00:00 PM 14.17 57.506 0.333 8.86 0.97 0
11/8/2022 1:15:00 PM 14.2 57.56 0.332 8.89 0.99 0
11/8/2022 1:30:00 PM 14.25 57.65 0.333 8.9 1.01 0
11/8/2022 1:45:00 PM 14.29 57.722 0.333 8.93 1.07 0
11/8/2022 2:00:00 PM 14.34 57.812 0.332 8.97 1.02 0
11/8/2022 2:15:00 PM 14.36 57.848 0.332 8.99 0.83 0
11/8/2022 2:30:00 PM 14.39 57.902 0.332 9.02 0.92 0
11/8/2022 2:45:00 PM 14.39 57.902 0.332 9.05 0.93 0
11/8/2022 3:00:00 PM 14.4 57.92 0.331 9.07 0.97 0
11/8/2022 3:15:00 PM 14.43 57.974 0.331 9.08 0.99 0
11/8/2022 3:30:00 PM 14.44 57.992 0.331 9.07 1.03 0
11/8/2022 3:45:00 PM 14.44 57.992 0.331 9.07 1.01 0
11/8/2022 4:00:00 PM 14.44 57.992 0.331 9.08 0.99 0
11/8/2022 4:15:00 PM 14.44 57.992 0.331 9.06 1.03 0
11/8/2022 4:30:00 PM 14.45 58.01 0.332 9.06 1.02 0
11/8/2022 4:45:00 PM 14.45 58.01 0.332 9.05 1.01 0
11/8/2022 5:00:00 PM 14.46 58.028 0.332 9.05 1.03 0
11/8/2022 5:15:00 PM 14.46 58.028 0.332 9.02 1.03 0
11/8/2022 5:30:00 PM 14.46 58.028 0.332 9.02 1.02 0
11/8/2022 5:45:00 PM 14.47 58.046 0.332 9.04 1.01 0
11/8/2022 6:00:00 PM 14.47 58.046 0.332 9.03 0.99 0
11/8/2022 6:15:00 PM 14.47 58.046 0.332 9.04 1.04 0
11/8/2022 6:30:00 PM 14.47 58.046 0.332 9.01 1.05 0
11/8/2022 6:45:00 PM 14.48 58.064 0.332 9.02 1.03 0
11/8/2022 7:00:00 PM 14.48 58.064 0.332 9.01 1.03 0
11/8/2022 7:15:00 PM 14.48 58.064 0.332 9.01 1.04 0
11/8/2022 7:30:00 PM 14.49 58.082 0.332 9 1.03 0
11/8/2022 7:45:00 PM 14.49 58.082 0.332 8.99 0.99 0
11/8/2022 8:00:00 PM 14.49 58.082 0.332 8.99 1.02 0
11/8/2022 8:15:00 PM 14.49 58.082 0.332 8.97 1.02 0
11/8/2022 8:30:00 PM 14.49 58.082 0.332 8.97 1.05 0
11/8/2022 8:45:00 PM 14.49 58.082 0.332 8.97 1.04 0
11/8/2022 9:00:00 PM 14.49 58.082 0.332 8.97 1.03 0
11/8/2022 9:15:00 PM 14.5 58.1 0.332 8.98 1.05 0
11/8/2022 9:30:00 PM 14.5 58.1 0.332 8.96 1.03 0
11/8/2022 9:45:00 PM 14.5 58.1 0.332 8.96 1.01 0
11/8/2022 10:00:00 PM 14.5 58.1 0.332 8.95 1 0
11/8/2022 10:15:00 PM 14.51 58.118 0.332 8.94 1.05 0
11/8/2022 10:30:00 PM 14.51 58.118 0.332 8.97 1.01 0
11/8/2022 10:45:00 PM 14.51 58.118 0.332 8.95 1.05 0
11/8/2022 11:00:00 PM 14.51 58.118 0.332 8.95 1.05 0
11/8/2022 11:15:00 PM 14.51 58.118 0.332 8.94 1.03 0
11/8/2022 11:30:00 PM 14.52 58.136 0.332 8.95 1.07 0
11/8/2022 11:45:00 PM 14.52 58.136 0.332 8.97 1.07 0
11/9/2022 12:00:00 AM 14.52 58.136 0.332 8.97 1.05 0
11/9/2022 12:15:00 AM 14.52 58.136 0.332 9 1.03 0
11/9/2022 12:30:00 AM 14.52 58.136 0.332 8.98 1.03 0
11/9/2022 12:45:00 AM 14.52 58.136 0.332 8.95 1.01 0
11/9/2022 1:00:00 AM 14.52 58.136 0.332 8.94 1.03 0
11/9/2022 1:15:00 AM 14.53 58.154 0.332 8.92 1.05 0
11/9/2022 1:30:00 AM 14.53 58.154 0.332 8.92 1.03 0
11/9/2022 1:45:00 AM 14.53 58.154 0.332 8.9 1.04 0
11/9/2022 2:00:00 AM 14.53 58.154 0.332 8.89 1.05 0
11/9/2022 2:15:00 AM 14.53 58.154 0.332 8.9 1.03 0
11/9/2022 2:30:00 AM 14.53 58.154 0.332 8.91 1.05 0
11/9/2022 2:45:00 AM 14.54 58.172 0.332 8.9 1.07 0
11/9/2022 3:00:00 AM 14.54 58.172 0.332 8.88 1.04 0
11/9/2022 3:15:00 AM 14.54 58.172 0.332 8.87 1.05 0
11/9/2022 3:30:00 AM 14.54 58.172 0.333 8.9 1.03 0
11/9/2022 3:45:00 AM 14.54 58.172 0.333 8.88 1.03 0
11/9/2022 4:00:00 AM 14.54 58.172 0.333 8.87 1.05 0
11/9/2022 4:15:00 AM 14.54 58.172 0.333 8.86 1.02 0
11/9/2022 4:30:00 AM 14.55 58.19 0.333 8.91 1.08 0
11/9/2022 4:45:00 AM 14.55 58.19 0.332 8.89 1.07 0
11/9/2022 5:00:00 AM 14.55 58.19 0.332 8.91 1.07 0
11/9/2022 5:15:00 AM 14.55 58.19 0.332 8.9 1.06 0
11/9/2022 5:30:00 AM 14.55 58.19 0.332 8.9 1.02 0
11/9/2022 5:45:00 AM 14.55 58.19 0.332 8.92 1.04 0
11/9/2022 6:00:00 AM 14.55 58.19 0.332 8.9 1.06 0
11/9/2022 6:15:00 AM 14.56 58.208 0.332 8.91 1.04 0
11/9/2022 6:30:00 AM 14.57 58.226 0.332 8.92 1.07 0
11/9/2022 6:45:00 AM 14.58 58.244 0.333 8.9 1.04 0
11/9/2022 7:00:00 AM 13.66 56.588 0.334 8.77 1.02 0
11/9/2022 7:15:00 AM 12.7 54.86 0.334 8.64 1.07 0
11/9/2022 7:30:00 AM 12.32 54.176 0.333 8.59 1.09 0
11/9/2022 7:45:00 AM 12.14 53.852 0.333 8.59 1.1 0
11/9/2022 8:00:00 AM 12.07 53.726 0.333 8.6 1.12 0
11/9/2022 8:15:00 AM 12.01 53.618 0.333 8.62 1.12 0
11/9/2022 8:30:00 AM 11.98 53.564 0.333 8.63 1.12 0
11/9/2022 8:45:00 AM 11.98 53.564 0.333 8.64 1.1 0
11/9/2022 9:00:00 AM 11.97 53.546 0.333 8.65 1.08 0
11/9/2022 9:15:00 AM 11.97 53.546 0.333 8.66 1.11 0
11/9/2022 9:30:00 AM 12 53.6 0.333 8.68 1.14 0
11/9/2022 9:45:00 AM 12.02 53.636 0.333 8.7 1.13 0
11/9/2022 10:00:00 AM 12.04 53.672 0.333 8.71 1.13 0
11/9/2022 10:15:00 AM 12.08 53.744 0.333 8.73 1.12 0
11/9/2022 10:30:00 AM 12.1 53.78 0.334 8.74 1.12 0
11/9/2022 10:45:00 AM 12.15 53.87 0.334 8.75 1.12 0
11/9/2022 11:00:00 AM 12.22 53.996 0.334 8.75 1.12 0
11/9/2022 11:15:00 AM 12.23 54.014 0.334 8.77 1.13 0
11/9/2022 11:30:00 AM 12.28 54.104 0.334 8.78 1.1 0
11/9/2022 11:45:00 AM 12.32 54.176 0.334 8.8 1.13 0
11/9/2022 12:00:00 PM 12.39 54.302 0.334 8.81 1.1 0
11/9/2022 12:15:00 PM 12.41 54.338 0.334 8.83 1.11 0
11/9/2022 12:30:00 PM 12.45 54.41 0.334 8.85 1.12 0
11/9/2022 12:45:00 PM 12.49 54.482 0.334 8.86 1.16 0
11/9/2022 1:00:00 PM 12.52 54.536 0.334 8.88 1.15 0
11/9/2022 1:15:00 PM 12.54 54.572 0.334 8.9 1.13 0
11/9/2022 1:30:00 PM 12.58 54.644 0.334 8.92 1.14 0
11/9/2022 1:45:00 PM 12.6 54.68 0.334 8.94 1.13 0
11/9/2022 2:00:00 PM 12.61 54.698 0.334 8.96 1.14 0
11/9/2022 2:15:00 PM 12.61 54.698 0.334 8.98 1.19 0
11/9/2022 2:30:00 PM 12.63 54.734 0.334 9 1.09 0
11/9/2022 2:45:00 PM 12.64 54.752 0.334 9.03 1.15 0
11/9/2022 3:00:00 PM 12.69 54.842 0.334 9.04 1.12 0
11/9/2022 3:15:00 PM 12.74 54.932 0.334 9.04 1.12 0
11/9/2022 3:30:00 PM 12.74 54.932 0.334 9.04 1.15 0
11/9/2022 3:45:00 PM 12.74 54.932 0.334 9.04 1.15 0
11/9/2022 4:00:00 PM 12.74 54.932 0.334 9.04 1.15 0
11/9/2022 4:15:00 PM 12.74 54.932 0.334 9.04 1.15 0
11/9/2022 4:30:00 PM 12.75 54.95 0.334 9.03 1.19 0
11/9/2022 4:45:00 PM 12.76 54.968 0.334 9.04 1.15 0
11/9/2022 5:00:00 PM 12.76 54.968 0.334 9.02 1.16 0
11/9/2022 5:15:00 PM 12.77 54.986 0.334 9.02 1.15 0
11/9/2022 5:30:00 PM 12.77 54.986 0.334 9.02 1.16 0
11/9/2022 5:45:00 PM 12.78 55.004 0.334 9.02 1.16 0
11/9/2022 6:00:00 PM 12.78 55.004 0.334 9 1.13 0
11/9/2022 6:15:00 PM 12.78 55.004 0.334 9.02 1.17 0
11/9/2022 6:30:00 PM 12.79 55.022 0.334 9.02 1.15 0
11/9/2022 6:45:00 PM 12.79 55.022 0.334 9.01 1.16 0
11/9/2022 7:00:00 PM 12.79 55.022 0.334 9 1.18 0
11/9/2022 7:15:00 PM 12.8 55.04 0.334 9 1.18 0
11/9/2022 7:30:00 PM 12.8 55.04 0.334 8.99 1.15 0
11/9/2022 7:45:00 PM 12.81 55.058 0.334 8.99 1.16 0
11/9/2022 8:00:00 PM 12.81 55.058 0.334 9 1.17 0
11/9/2022 8:15:00 PM 12.81 55.058 0.334 8.99 1.19 0
11/9/2022 8:30:00 PM 12.82 55.076 0.334 8.99 1.2 0
11/9/2022 8:45:00 PM 12.82 55.076 0.334 8.98 1.15 0
11/9/2022 9:00:00 PM 12.82 55.076 0.334 8.99 1.14 0
11/9/2022 9:15:00 PM 12.82 55.076 0.334 8.99 1.17 0
11/9/2022 9:30:00 PM 12.83 55.094 0.334 8.99 1.14 0
11/9/2022 9:45:00 PM 12.83 55.094 0.334 8.97 1.16 0
11/9/2022 10:00:00 PM 12.84 55.112 0.334 8.97 1.16 0
11/9/2022 10:15:00 PM 12.84 55.112 0.331 8.96 1.12 0
11/9/2022 10:30:00 PM 12.84 55.112 0.332 8.95 1.14 0
11/9/2022 10:45:00 PM 12.84 55.112 0.334 8.96 1.15 0
11/9/2022 11:00:00 PM 12.85 55.13 0.334 8.95 1.14 0
11/9/2022 11:15:00 PM 12.85 55.13 0.334 8.95 1.12 0
11/9/2022 11:30:00 PM 12.85 55.13 0.334 8.96 1.17 0
11/9/2022 11:45:00 PM 12.86 55.148 0.334 8.96 1.11 0
11/10/2022 12:00:00 AM 12.86 55.148 0.334 8.96 1.18 0
11/10/2022 12:15:00 AM 12.86 55.148 0.334 8.96 1.13 0
11/10/2022 12:30:00 AM 12.87 55.166 0.334 8.95 1.13 0
11/10/2022 12:45:00 AM 12.87 55.166 0.334 8.95 1.13 0
11/10/2022 1:00:00 AM 12.87 55.166 0.334 8.94 1.13 0
11/10/2022 1:15:00 AM 12.88 55.184 0.334 8.93 1.14 0
11/10/2022 1:30:00 AM 12.88 55.184 0.334 8.92 1.14 0
11/10/2022 1:45:00 AM 12.88 55.184 0.334 8.91 1.11 0
11/10/2022 2:00:00 AM 12.89 55.202 0.334 8.88